Provisional Data: Tuscarora Creek near Woodhull, NY


Please select a monitoring station.
Please select start date.
Please select start date.

Toggle Unit: C/F Toggle Unit: C/F
Sample Time Temperature (C) Temperature (F) Specific Conductivity (mS/cm) pH   Turbidity (NTU+) DO (mg/L)
10/30/2022 12:00:00 AM 8.51 47.318 0.589 7.98 1.32 10.94
10/30/2022 12:15:00 AM 8.39 47.102 0.59 7.96 1.22 10.9
10/30/2022 12:30:00 AM 8.29 46.922 0.589 7.95 1.35 10.81
10/30/2022 12:45:00 AM 8.15 46.67 0.59 7.95 1.26 10.8
10/30/2022 1:00:00 AM 8.01 46.418 0.591 7.94 1.26 10.77
10/30/2022 1:15:00 AM 7.9 46.22 0.591 7.92 1.26 10.74
10/30/2022 1:30:00 AM 7.74 45.932 0.591 7.94 1.35 10.74
10/30/2022 1:45:00 AM 7.62 45.716 0.591 7.91 1.26 10.69
10/30/2022 2:00:00 AM 7.45 45.41 0.591 7.92 1.25 10.69
10/30/2022 2:15:00 AM 7.3 45.14 0.592 7.9 1.29 10.67
10/30/2022 2:30:00 AM 7.15 44.87 0.592 7.91 1.34 10.68
10/30/2022 2:45:00 AM 7.01 44.618 0.592 7.9 1.3 10.69
10/30/2022 3:00:00 AM 6.87 44.366 0.592 7.91 1.33 10.71
10/30/2022 3:15:00 AM 6.8 44.24 0.593 7.88 1.21 10.69
10/30/2022 3:30:00 AM 6.73 44.114 0.593 7.88 1.29 10.67
10/30/2022 3:45:00 AM 6.57 43.826 0.593 7.9 1.24 10.73
10/30/2022 4:00:00 AM 6.42 43.556 0.593 7.9 1.27 10.78
10/30/2022 4:15:00 AM 6.3 43.34 0.593 7.88 1.38 10.8
10/30/2022 4:30:00 AM 6.23 43.214 0.593 7.88 1.29 10.79
10/30/2022 4:45:00 AM 6.08 42.944 0.593 7.89 1.3 10.86
10/30/2022 5:00:00 AM 6.03 42.854 0.593 7.88 1.29 10.84
10/30/2022 5:15:00 AM 5.89 42.602 0.593 7.88 1.27 10.91
10/30/2022 5:30:00 AM 5.81 42.458 0.594 7.88 1.29 10.92
10/30/2022 5:45:00 AM 5.68 42.224 0.594 7.87 1.21 10.96
10/30/2022 6:00:00 AM 5.55 41.99 0.594 7.88 1.24 11
10/30/2022 6:15:00 AM 5.51 41.918 0.594 7.87 1.26 10.99
10/30/2022 6:30:00 AM 5.44 41.792 0.595 7.85 1.35 11.02
10/30/2022 6:45:00 AM 5.3 41.54 0.595 7.87 1.29 11.07
10/30/2022 7:00:00 AM 5.21 41.378 0.595 7.87 1.27 11.1
10/30/2022 7:15:00 AM 5.15 41.27 0.595 7.86 1.24 11.12
10/30/2022 7:30:00 AM 5.01 41.018 0.595 7.87 1.78 11.19
10/30/2022 7:45:00 AM 4.93 40.874 0.595 7.87 1.27 11.23
10/30/2022 8:00:00 AM 4.86 40.748 0.596 7.88 1.33 11.3
10/30/2022 8:15:00 AM 4.79 40.622 0.596 7.88 1.21 11.39
10/30/2022 8:30:00 AM 4.77 40.586 0.597 7.87 1.2 11.46
10/30/2022 8:45:00 AM 4.71 40.478 0.597 7.9 1.16 11.6
10/30/2022 9:00:00 AM 4.67 40.406 0.597 7.9 1.23 11.74
10/30/2022 9:15:00 AM 4.67 40.406 0.597 7.92 1.24 11.84
10/30/2022 9:30:00 AM 4.8 40.64 0.597 7.92 1.21 11.8
10/30/2022 9:45:00 AM 4.8 40.64 0.597 7.92 1.19 11.95
10/30/2022 10:00:00 AM 4.94 40.892 0.597 7.94 1.26 12.11
10/30/2022 10:15:00 AM 5.14 41.252 0.597 7.95 1.22 12.11
10/30/2022 10:30:00 AM 5.2 41.36 0.597 7.96 1.19 12.19
10/30/2022 10:45:00 AM 5.26 41.468 0.597 7.98 1.28 12.32
10/30/2022 11:00:00 AM 5.41 41.738 0.597 7.99 1.25 12.39
10/30/2022 11:15:00 AM 5.65 42.17 0.597 7.99 1.25 12.45
10/30/2022 11:30:00 AM 5.82 42.476 0.597 8.02 1.21 12.56
10/30/2022 11:45:00 AM 6.01 42.818 0.596 8.02 1.2 12.6
10/30/2022 12:00:00 PM 6.15 43.07 0.596 8.03 1.23 12.62
10/30/2022 12:15:00 PM 6.28 43.304 0.596 8.03 1.2 12.6
10/30/2022 12:30:00 PM 6.41 43.538 0.596 8.02 1.16 12.59
10/30/2022 12:45:00 PM 6.54 43.772 0.596 8.01 1.18 12.54
10/30/2022 1:00:00 PM 6.65 43.97 0.596 8.01 1.19 12.56
10/30/2022 1:15:00 PM 6.82 44.276 0.596 8.03 1.13 12.66
10/30/2022 1:30:00 PM 6.97 44.546 0.595 8.02 1.12 12.61
10/30/2022 1:45:00 PM 7.13 44.834 0.595 8.02 1.11 12.62
10/30/2022 2:00:00 PM 7.34 45.212 0.595 8.04 1.09 12.67
10/30/2022 2:15:00 PM 7.44 45.392 0.595 8.03 1.06 12.65
10/30/2022 2:30:00 PM 7.6 45.68 0.594 8.04 1.11 12.62
10/30/2022 2:45:00 PM 7.71 45.878 0.594 8.04 1.11 12.66
10/30/2022 3:00:00 PM 7.91 46.238 0.593 8.05 1.05 12.67
10/30/2022 3:15:00 PM 8.05 46.49 0.593 8.04 1.08 12.59
10/30/2022 3:30:00 PM 8.11 46.598 0.593 8.05 1.16 12.55
10/30/2022 3:45:00 PM 8.16 46.688 0.593 8.05 1.05 12.5
10/30/2022 4:00:00 PM 8.3 46.94 0.592 8.05 1.04 12.47
10/30/2022 4:15:00 PM 8.37 47.066 0.592 8 0.96 12.36
10/30/2022 4:30:00 PM 8.38 47.084 0.592 7.97 1 12.27
10/30/2022 4:45:00 PM 8.38 47.084 0.592 8 1 12.31
10/30/2022 5:00:00 PM 8.41 47.138 0.592 8.02 2.18 12.35
10/30/2022 5:15:00 PM 8.43 47.174 0.592 8.03 2.4 12.39
10/30/2022 5:30:00 PM 8.43 47.174 0.592 8.04 1.02 12.41
10/30/2022 5:45:00 PM 8.42 47.156 0.592 7.98 0.99 12.25
10/30/2022 6:00:00 PM 8.41 47.138 0.592 7.92 1.03 12.01
10/30/2022 6:15:00 PM 8.41 47.138 0.592 7.88 1.01 11.83
10/30/2022 6:30:00 PM 8.4 47.12 0.592 7.87 1.04 11.68
10/30/2022 6:45:00 PM 8.4 47.12 0.593 7.85 0.99 11.52
10/30/2022 7:00:00 PM 8.41 47.138 0.593 7.82 1.07 11.41
10/30/2022 7:15:00 PM 8.41 47.138 0.593 7.83 1.12 11.34
10/30/2022 7:30:00 PM 8.41 47.138 0.593 7.82 1.03 11.27
10/30/2022 7:45:00 PM 8.43 47.174 0.593 7.79 1.08 11.1
10/30/2022 8:00:00 PM 8.44 47.192 0.593 7.76 1.03 11.01
10/30/2022 8:15:00 PM 8.45 47.21 0.593 7.76 0.97 10.92
10/30/2022 8:30:00 PM 8.48 47.264 0.593 7.75 1.04 10.85
10/30/2022 8:45:00 PM 8.5 47.3 0.593 7.74 0.92 10.76
10/30/2022 9:00:00 PM 8.5 47.3 0.592 7.73 1.06 10.75
10/30/2022 9:15:00 PM 8.51 47.318 0.592 7.73 0.98 10.73
10/30/2022 9:30:00 PM 8.5 47.3 0.592 7.72 1.04 10.79
10/30/2022 9:45:00 PM 8.5 47.3 0.592 7.76 0.99 10.9
10/30/2022 10:00:00 PM 8.51 47.318 0.592 7.77 1 10.92
10/30/2022 10:15:00 PM 8.51 47.318 0.592 7.77 1 10.91
10/30/2022 10:30:00 PM 8.53 47.354 0.592 7.77 0.99 10.83
10/30/2022 10:45:00 PM 8.54 47.372 0.592 7.76 0.97 10.77
10/30/2022 11:00:00 PM 8.56 47.408 0.592 7.77 0.94 10.66
10/30/2022 11:15:00 PM 8.57 47.426 0.592 7.78 0.9 10.68
10/30/2022 11:30:00 PM 8.63 47.534 0.591 7.89 3.79 10.8
10/30/2022 11:45:00 PM 8.71 47.678 0.59 7.97 1.29 10.95
10/31/2022 12:00:00 AM 8.71 47.678 0.591 7.97 1.58 10.9
10/31/2022 12:15:00 AM 8.7 47.66 0.59 7.98 1.68 10.88
10/31/2022 12:30:00 AM 8.63 47.534 0.59 7.96 1.76 10.8
10/31/2022 12:45:00 AM 8.6 47.48 0.59 7.98 1.85 10.81
10/31/2022 1:00:00 AM 8.52 47.336 0.59 7.96 2.84 10.76
10/31/2022 1:15:00 AM 8.42 47.156 0.59 7.97 1.38 10.72
10/31/2022 1:30:00 AM 8.31 46.958 0.591 7.94 1.22 10.66
10/31/2022 1:45:00 AM 8.22 46.796 0.591 7.94 1.36 10.65
10/31/2022 2:00:00 AM 8.1 46.58 0.591 7.93 1.2 10.6
10/31/2022 2:15:00 AM 8.01 46.418 0.591 7.92 1.3 10.57
10/31/2022 2:30:00 AM 7.91 46.238 0.592 7.91 1.18 10.52
10/31/2022 2:45:00 AM 7.81 46.058 0.592 7.89 1.26 10.51
10/31/2022 3:00:00 AM 7.71 45.878 0.592 7.9 1.35 10.49
10/31/2022 3:15:00 AM 7.61 45.698 0.592 7.89 1.24 10.48
10/31/2022 3:30:00 AM 7.52 45.536 0.592 7.9 1.21 10.49
10/31/2022 3:45:00 AM 7.41 45.338 0.592 7.9 1.25 10.5
10/31/2022 4:00:00 AM 7.32 45.176 0.592 7.89 1.21 10.51
10/31/2022 4:15:00 AM 7.24 45.032 0.592 7.9 1.18 10.51
10/31/2022 4:30:00 AM 7.18 44.924 0.592 7.89 1.26 10.49
10/31/2022 4:45:00 AM 7.1 44.78 0.592 7.88 1.18 10.52
10/31/2022 5:00:00 AM 7.05 44.69 0.592 7.89 1.2 10.52
10/31/2022 5:15:00 AM 7.01 44.618 0.593 7.89 1.21 10.55
10/31/2022 5:30:00 AM 7.01 44.618 0.593 7.88 1.2 10.52
10/31/2022 5:45:00 AM 6.96 44.528 0.593 7.88 1.19 10.53
10/31/2022 6:00:00 AM 6.92 44.456 0.593 7.87 1.19 10.53
10/31/2022 6:15:00 AM 6.83 44.294 0.593 7.88 1.26 10.57
10/31/2022 6:30:00 AM 6.8 44.24 0.593 7.86 1.2 10.55
10/31/2022 6:45:00 AM 6.68 44.024 0.593 7.87 1.23 10.58
10/31/2022 7:00:00 AM 6.58 43.844 0.593 7.87 1.22 10.63
10/31/2022 7:15:00 AM 6.54 43.772 0.594 7.86 1.83 10.61
10/31/2022 7:30:00 AM 6.42 43.556 0.594 7.86 1.25 10.66
10/31/2022 7:45:00 AM 6.37 43.466 0.594 7.86 1.18 10.7
10/31/2022 8:00:00 AM 6.31 43.358 0.594 7.86 1.47 10.73
10/31/2022 8:15:00 AM 6.26 43.268 0.594 7.87 1.25 10.81
10/31/2022 8:30:00 AM 6.26 43.268 0.595 7.88 1.2 10.9
10/31/2022 8:45:00 AM 6.25 43.25 0.594 7.9 1.24 11.14
10/31/2022 9:00:00 AM 6.35 43.43 0.595 7.92 1.21 11.25
10/31/2022 9:15:00 AM 6.36 43.448 0.594 7.93 1.2 11.29
10/31/2022 9:30:00 AM 6.38 43.484 0.594 7.93 1.17 11.35
10/31/2022 9:45:00 AM 6.43 43.574 0.595 7.92 1.18 11.34
10/31/2022 10:00:00 AM 6.44 43.592 0.594 7.94 1.16 11.51
10/31/2022 10:15:00 AM 6.65 43.97 0.595 7.95 1.36 11.62
10/31/2022 10:30:00 AM 6.94 44.492 0.594 7.98 2.48 11.76
10/31/2022 10:45:00 AM 6.99 44.582 0.594 7.99 2.53 11.83
10/31/2022 11:00:00 AM 7.11 44.798 0.594 8 1.13 11.94
10/31/2022 11:15:00 AM 7.2 44.96 0.594 8.01 1.08 11.96
10/31/2022 11:30:00 AM 7.23 45.014 0.594 8.01 1.44 11.98
10/31/2022 11:45:00 AM 7.39 45.302 0.594 8.01 1.17 12.04
10/31/2022 12:00:00 PM 7.54 45.572 0.594 8.02 1.12 12.05
10/31/2022 12:15:00 PM 7.61 45.698 0.593 8.03 1.07 12.1
10/31/2022 12:30:00 PM 7.65 45.77 0.593 8.04 1.1 12.14
10/31/2022 12:45:00 PM 7.84 46.112 0.594 8.05 2.36 12.18
10/31/2022 1:00:00 PM 7.95 46.31 0.593 8.05 1.16 12.17
10/31/2022 1:15:00 PM 7.97 46.346 0.593 8.05 1.22 12.18
10/31/2022 1:30:00 PM 8.05 46.49 0.593 8.06 1.08 12.26
10/31/2022 1:45:00 PM 8.18 46.724 0.593 8.05 1.18 12.25
10/31/2022 2:00:00 PM 8.34 47.012 0.592 8.06 1.89 12.26
10/31/2022 2:15:00 PM 8.45 47.21 0.592 8.03 1.69 12.18
10/31/2022 2:30:00 PM 8.51 47.318 0.591 8.07 1.01 12.34
10/31/2022 2:45:00 PM 8.58 47.444 0.591 8.05 1.32 12.29
10/31/2022 3:00:00 PM 8.69 47.642 0.591 8.01 1.06 12.19
10/31/2022 3:15:00 PM 8.76 47.768 0.591 8.05 1 12.26
10/31/2022 3:30:00 PM 8.83 47.894 0.591 8.03 1.17 12.19
10/31/2022 3:45:00 PM 8.92 48.056 0.59 8.07 1.45 12.32
10/31/2022 4:00:00 PM 8.98 48.164 0.59 8.08 1.28 12.48
10/31/2022 4:15:00 PM 8.95 48.11 0.59 8.05 0.88 12.4
10/31/2022 4:30:00 PM 8.9 48.02 0.589 8.01 2.13 12.43
10/31/2022 4:45:00 PM 8.83 47.894 0.59 7.98 2.96 12.31
10/31/2022 5:00:00 PM 8.81 47.858 0.59 7.97 0.97 12.27
10/31/2022 5:15:00 PM 8.8 47.84 0.591 7.93 0.9 12.06
10/31/2022 5:30:00 PM 8.8 47.84 0.591 7.87 0.95 11.79
10/31/2022 5:45:00 PM 8.74 47.732 0.59 7.88 0.9 11.79
10/31/2022 6:00:00 PM 8.71 47.678 0.591 7.88 0.93 11.71
10/31/2022 6:15:00 PM 8.7 47.66 0.591 7.86 0.91 11.65
10/31/2022 6:30:00 PM 8.67 47.606 0.591 7.85 0.89 11.41
10/31/2022 6:45:00 PM 8.66 47.588 0.591 7.82 0.89 11.25
10/31/2022 7:00:00 PM 8.68 47.624 0.591 7.81 0.94 11.16
10/31/2022 7:15:00 PM 8.69 47.642 0.591 7.8 0.88 11.02
10/31/2022 7:30:00 PM 8.69 47.642 0.591 7.78 0.98 10.92
10/31/2022 7:45:00 PM 8.68 47.624 0.591 7.77 0.86 10.76
10/31/2022 8:00:00 PM 8.69 47.642 0.591 7.74 0.87 10.67
10/31/2022 8:15:00 PM 8.7 47.66 0.591 7.74 0.87 10.54
10/31/2022 8:30:00 PM 8.71 47.678 0.591 7.73 0.87 10.48
10/31/2022 8:45:00 PM 8.72 47.696 0.592 7.71 0.89 10.43
10/31/2022 9:00:00 PM 8.74 47.732 0.591 7.73 0.9 10.4
10/31/2022 9:15:00 PM 8.76 47.768 0.591 7.72 0.88 10.34
10/31/2022 9:30:00 PM 8.79 47.822 0.59 7.7 0.87 10.29
10/31/2022 9:45:00 PM 8.84 47.912 0.591 7.68 0.9 10.13
10/31/2022 10:00:00 PM 8.89 48.002 0.59 7.68 0.87 10.11
10/31/2022 10:15:00 PM 8.98 48.164 0.59 7.66 0.87 9.96
10/31/2022 10:30:00 PM 9.04 48.272 0.59 7.68 2.1 9.96
10/31/2022 10:45:00 PM 9.15 48.47 0.589 7.72 0.85 10.05
10/31/2022 11:00:00 PM 9.27 48.686 0.589 7.77 0.93 10.12
10/31/2022 11:15:00 PM 9.29 48.722 0.589 7.77 0.85 10.14
10/31/2022 11:30:00 PM 9.36 48.848 0.589 7.78 0.88 10.15
10/31/2022 11:45:00 PM 9.51 49.118 0.589 7.87 1.05 10.25
11/1/2022 12:00:00 AM 9.6 49.28 0.589 7.82 2.28 10.12
11/1/2022 12:15:00 AM 9.68 49.424 0.589 7.85 1.09 10.15
11/1/2022 12:30:00 AM 9.83 49.694 0.589 7.89 1.23 10.18
11/1/2022 12:45:00 AM 9.81 49.658 0.589 7.88 1.29 10.13
11/1/2022 1:00:00 AM 9.85 49.73 0.589 7.85 1.26 10.04
11/1/2022 1:15:00 AM 9.85 49.73 0.589 7.86 1.86 10.01
11/1/2022 1:30:00 AM 9.93 49.874 0.589 7.91 1.96 10.09
11/1/2022 1:45:00 AM 9.85 49.73 0.589 7.87 1.86 9.97
11/1/2022 2:00:00 AM 9.94 49.892 0.589 7.9 3.89 9.99
11/1/2022 2:15:00 AM 9.92 49.856 0.59 7.85 3.64 9.93
11/1/2022 2:30:00 AM 9.9 49.82 0.589 7.87 3.34 9.88
11/1/2022 2:45:00 AM 9.91 49.838 0.589 7.9 1.98 9.92
11/1/2022 3:00:00 AM 9.91 49.838 0.589 7.88 1.95 9.93
11/1/2022 3:15:00 AM 9.9 49.82 0.589 7.89 2.1 9.84
11/1/2022 3:30:00 AM 9.87 49.766 0.59 7.86 1.74 9.79
11/1/2022 3:45:00 AM 9.85 49.73 0.59 7.87 1.93 9.83
11/1/2022 4:00:00 AM 9.89 49.802 0.59 7.89 1.92 9.95
11/1/2022 4:15:00 AM 9.91 49.838 0.59 7.87 2.01 9.87
11/1/2022 4:30:00 AM 9.91 49.838 0.59 7.88 2.02 9.88
11/1/2022 4:45:00 AM 9.9 49.82 0.59 7.88 1.56 9.91
11/1/2022 5:00:00 AM 9.9 49.82 0.59 7.88 1.5 9.97
11/1/2022 5:15:00 AM 9.89 49.802 0.59 7.89 1.78 9.93
11/1/2022 5:30:00 AM 9.87 49.766 0.59 7.89 1.48 9.92
11/1/2022 5:45:00 AM 9.86 49.748 0.59 7.9 2.13 9.96
11/1/2022 6:00:00 AM 9.85 49.73 0.591 7.88 1.42 9.92
11/1/2022 6:15:00 AM 9.84 49.712 0.591 7.88 1.46 9.91
11/1/2022 6:30:00 AM 9.84 49.712 0.591 7.87 1.73 9.89
11/1/2022 6:45:00 AM 9.82 49.676 0.592 7.86 2.71 9.87
11/1/2022 7:00:00 AM 9.8 49.64 0.591 7.87 7.09 9.86
11/1/2022 7:15:00 AM 9.78 49.604 0.591 7.87 1.5 9.88
11/1/2022 7:30:00 AM 9.78 49.604 0.592 7.84 1.54 9.85
11/1/2022 7:45:00 AM 9.76 49.568 0.592 7.86 2.49 9.85
11/1/2022 8:00:00 AM 9.75 49.55 0.591 7.86 3.79 9.88
11/1/2022 8:15:00 AM 9.75 49.55 0.591 7.86 1.35 9.92
11/1/2022 8:30:00 AM 9.74 49.532 0.591 7.86 1.33 9.96
11/1/2022 8:45:00 AM 9.75 49.55 0.591 7.88 1.29 10.07
11/1/2022 9:00:00 AM 9.76 49.568 0.591 7.88 1.58 10.09
11/1/2022 9:15:00 AM 9.77 49.586 0.591 7.87 2.3 10.08
11/1/2022 9:30:00 AM 9.79 49.622 0.591 7.88 1.43 10.22
11/1/2022 9:45:00 AM 9.82 49.676 0.591 7.91 3.48 10.33
11/1/2022 10:00:00 AM 9.89 49.802 0.591 7.89 1.23 10.33
11/1/2022 10:15:00 AM 9.96 49.928 0.59 7.91 1.21 10.46
11/1/2022 10:30:00 AM 10.08 50.144 0.59 7.94 1.32 10.65
11/1/2022 10:45:00 AM 10.13 50.234 0.59 7.95 1.19 10.61
11/1/2022 11:00:00 AM 10.21 50.378 0.59 7.97 7.5 10.75
11/1/2022 11:15:00 AM 10.28 50.504 0.59 7.97 2.07 10.81
11/1/2022 11:30:00 AM 10.5 50.9 0.589 7.99 1.34 11.01
11/1/2022 11:45:00 AM 10.54 50.972 0.59 7.97 2.53 10.91
11/1/2022 12:00:00 PM 10.65 51.17 0.589 8.01 1.2 11.09
11/1/2022 12:15:00 PM 10.89 51.602 0.589 8.02 2.43 11.14
11/1/2022 12:30:00 PM 11.03 51.854 0.588 8.02 1.4 11.2
11/1/2022 12:45:00 PM 11.1 51.98 0.588 8.03 1.19 11.15
11/1/2022 1:00:00 PM 11.13 52.034 0.588 8.02 1.19 11.18
11/1/2022 1:15:00 PM 11.11 51.998 0.588 8.02 1.44 11.16
11/1/2022 1:30:00 PM 11.25 52.25 0.587 8.04 1.21 11.36
11/1/2022 1:45:00 PM 11.22 52.196 0.587 8.05 1.35 11.32
11/1/2022 2:00:00 PM 11.14 52.052 0.586 8 2.31 11.18
11/1/2022 2:15:00 PM 10.87 51.566 0.588 7.91 1.16 10.78
11/1/2022 2:30:00 PM 11 51.8 0.587 7.89 2.19 10.65
11/1/2022 2:45:00 PM 11.12 52.016 0.587 7.9 3.63 10.69
11/1/2022 3:00:00 PM 11.1 51.98 0.587 7.87 0.96 10.57
11/1/2022 3:15:00 PM 11.18 52.124 0.586 7.86 2.23 10.58
11/1/2022 3:30:00 PM 11.2 52.16 0.587 7.87 2.16 10.65
11/1/2022 3:45:00 PM 11.35 52.43 0.586 7.84 2.14 10.52
11/1/2022 4:00:00 PM 11.37 52.466 0.586 7.87 0.9 10.62
11/1/2022 4:15:00 PM 11.41 52.538 0.585 7.87 2.11 10.62
11/1/2022 4:30:00 PM 11.48 52.664 0.586 7.86 0.86 10.51
11/1/2022 4:45:00 PM 11.54 52.772 0.586 7.82 1.29 10.36
11/1/2022 5:00:00 PM 11.61 52.898 0.585 7.85 0.96 10.4
11/1/2022 5:15:00 PM 11.62 52.916 0.585 7.85 2.3 10.37
11/1/2022 5:30:00 PM 11.64 52.952 0.585 7.84 0.98 10.35
11/1/2022 5:45:00 PM 11.7 53.06 0.585 7.84 0.97 10.22
11/1/2022 6:00:00 PM 11.8 53.24 0.585 7.83 0.93 10.2
11/1/2022 6:15:00 PM 11.89 53.402 0.585 7.84 0.98 10.12
11/1/2022 6:30:00 PM 11.91 53.438 0.584 7.82 0.9 10.04
11/1/2022 6:45:00 PM 11.95 53.51 0.585 7.82 0.97 9.99
11/1/2022 7:00:00 PM 11.99 53.582 0.584 7.83 0.99 9.94
11/1/2022 7:15:00 PM 12.03 53.654 0.584 7.8 2.2 9.83
11/1/2022 7:30:00 PM 12.06 53.708 0.584 7.81 0.99 9.81
11/1/2022 7:45:00 PM 12.08 53.744 0.584 7.81 0.96 9.81
11/1/2022 8:00:00 PM 12.09 53.762 0.584 7.8 3.43 9.77
11/1/2022 8:15:00 PM 12.15 53.87 0.584 7.82 1.43 9.77
11/1/2022 8:30:00 PM 12.2 53.96 0.584 7.82 1.09 9.72
11/1/2022 8:45:00 PM 12.2 53.96 0.584 7.84 0.9 9.78
11/1/2022 9:00:00 PM 12.29 54.122 0.584 7.89 1.01 9.77
11/1/2022 9:15:00 PM 12.3 54.14 0.584 7.93 1.04 9.74
11/1/2022 9:30:00 PM 12.38 54.284 0.584 7.98 1.24 9.88
11/1/2022 9:45:00 PM 12.42 54.356 0.584 8.01 1.33 9.98
11/1/2022 10:00:00 PM 12.45 54.41 0.584 8.02 1.52 9.98
11/1/2022 10:15:00 PM 12.46 54.428 0.585 8.03 1.5 10
11/1/2022 10:30:00 PM 12.39 54.302 0.585 8.04 1.9 10
11/1/2022 10:45:00 PM 12.24 54.032 0.586 8.05 1.75 9.99
11/1/2022 11:00:00 PM 12.12 53.816 0.586 8.03 2.25 9.97
11/1/2022 11:15:00 PM 11.99 53.582 0.587 8.02 2.59 9.94
11/1/2022 11:30:00 PM 11.92 53.456 0.587 8.01 2.77 9.89
11/1/2022 11:45:00 PM 11.73 53.114 0.588 8 2.07 9.85
11/2/2022 12:00:00 AM 11.62 52.916 0.588 7.98 2 9.8
11/2/2022 12:15:00 AM 11.5 52.7 0.589 7.97 1.92 9.78
11/2/2022 12:30:00 AM 11.39 52.502 0.589 7.94 2.82 9.74
11/2/2022 12:45:00 AM 11.29 52.322 0.59 7.94 2.43 9.73
11/2/2022 1:00:00 AM 11.19 52.142 0.59 7.92 1.79 9.64
11/2/2022 1:15:00 AM 11.09 51.962 0.59 7.89 1.46 9.59
11/2/2022 1:30:00 AM 10.94 51.692 0.59 7.92 1.71 9.67
11/2/2022 1:45:00 AM 10.84 51.512 0.591 7.91 1.66 9.67
11/2/2022 2:00:00 AM 10.7 51.26 0.591 7.91 1.5 9.7
11/2/2022 2:15:00 AM 10.57 51.026 0.591 7.9 1.48 9.68
11/2/2022 2:30:00 AM 10.47 50.846 0.592 7.88 2.28 9.66
11/2/2022 2:45:00 AM 10.36 50.648 0.592 7.88 1.86 9.67
11/2/2022 3:00:00 AM 10.29 50.522 0.592 7.87 2.05 9.67
11/2/2022 3:15:00 AM 10.19 50.342 0.592 7.86 1.9 9.71
11/2/2022 3:30:00 AM 10.08 50.144 0.592 7.88 1.54 9.73
11/2/2022 3:45:00 AM 9.99 49.982 0.593 7.85 1.44 9.72
11/2/2022 4:00:00 AM 9.89 49.802 0.593 7.87 3.81 9.78
11/2/2022 4:15:00 AM 9.83 49.694 0.593 7.86 2.28 9.75
11/2/2022 4:30:00 AM 9.73 49.514 0.594 7.86 1.75 9.79
11/2/2022 4:45:00 AM 9.61 49.298 0.594 7.86 1.59 9.83
11/2/2022 5:00:00 AM 9.51 49.118 0.594 7.85 1.7 9.88
11/2/2022 5:15:00 AM 9.38 48.884 0.594 7.86 1.92 9.91
11/2/2022 5:30:00 AM 9.32 48.776 0.594 7.86 1.79 9.92
11/2/2022 5:45:00 AM 9.24 48.632 0.595 7.85 1.65 9.93
11/2/2022 6:00:00 AM 9.17 48.506 0.595 7.84 1.65 9.94
11/2/2022 6:15:00 AM 9.1 48.38 0.595 7.84 1.69 9.95
11/2/2022 6:30:00 AM 9.03 48.254 0.595 7.85 1.78 9.99
11/2/2022 6:45:00 AM 8.96 48.128 0.595 7.85 1.67 10.02
11/2/2022 7:00:00 AM 8.93 48.074 0.595 7.84 1.52 10.01
11/2/2022 7:15:00 AM 8.86 47.948 0.595 7.84 1.63 10.05
11/2/2022 7:30:00 AM 8.76 47.768 0.595 7.85 1.61 10.11
11/2/2022 7:45:00 AM 8.73 47.714 0.595 7.85 1.57 10.11
11/2/2022 8:00:00 AM 8.71 47.678 0.595 7.85 1.55 10.13
11/2/2022 8:15:00 AM 8.68 47.624 0.595 7.85 1.57 10.17
11/2/2022 8:30:00 AM 8.66 47.588 0.595 7.85 1.62 10.26
11/2/2022 8:45:00 AM 8.67 47.606 0.595 7.86 1.56 10.35
11/2/2022 9:00:00 AM 8.69 47.642 0.596 7.87 2.71 10.44
11/2/2022 9:15:00 AM 8.7 47.66 0.595 7.89 1.55 10.57
11/2/2022 9:30:00 AM 8.7 47.66 0.595 7.91 1.57 10.71
11/2/2022 9:45:00 AM 8.73 47.714 0.595 7.92 1.54 10.84
11/2/2022 10:00:00 AM 8.76 47.768 0.595 7.94 1.54 10.94
11/2/2022 10:15:00 AM 8.84 47.912 0.595 7.95 1.5 11.03
11/2/2022 10:30:00 AM 8.94 48.092 0.594 7.96 1.77 11.14
11/2/2022 10:45:00 AM 9.19 48.542 0.594 7.97 1.51 11.23
11/2/2022 11:00:00 AM 9.39 48.902 0.594 7.99 1.53 11.3
11/2/2022 11:15:00 AM 9.59 49.262 0.594 8 1.48 11.34
11/2/2022 11:30:00 AM 9.79 49.622 0.593 8 1.5 11.41
11/2/2022 11:45:00 AM 9.94 49.892 0.593 8.02 1.51 11.46
11/2/2022 12:00:00 PM 10.05 50.09 0.593 8.03 2.74 11.52
11/2/2022 12:15:00 PM 10.18 50.324 0.593 8.03 1.51 11.52
11/2/2022 12:30:00 PM 10.31 50.558 0.593 7.99 3.33 11.43
11/2/2022 12:45:00 PM 10.46 50.828 0.593 8.04 1.49 11.54
11/2/2022 1:00:00 PM 10.63 51.134 0.592 8.06 1.53 11.64
11/2/2022 1:15:00 PM 10.82 51.476 0.592 8.1 1.49 11.84
11/2/2022 1:30:00 PM 10.95 51.71 0.591 8.11 1.52 11.88
11/2/2022 1:45:00 PM 10.97 51.746 0.592 8.01 1.41 11.57
11/2/2022 2:00:00 PM 11 51.8 0.593 7.9 2.84 10.99
11/2/2022 2:15:00 PM 10.93 51.674 0.592 7.89 1.14 10.87
11/2/2022 2:30:00 PM 10.91 51.638 0.591 7.88 2.31 10.76
11/2/2022 2:45:00 PM 10.89 51.602 0.592 7.87 1 10.57
11/2/2022 3:00:00 PM 10.9 51.62 0.592 7.85 0.99 10.43
11/2/2022 3:15:00 PM 10.95 51.71 0.592 7.84 2.72 10.32
11/2/2022 3:30:00 PM 11 51.8 0.592 7.85 1.15 10.29
11/2/2022 3:45:00 PM 11.04 51.872 0.592 7.84 1 10.26
11/2/2022 4:00:00 PM 11.11 51.998 0.591 7.85 1.05 10.32
11/2/2022 4:15:00 PM 11.18 52.124 0.591 7.84 0.98 10.23
11/2/2022 4:30:00 PM 11.27 52.286 0.591 7.82 0.97 10.31
11/2/2022 4:45:00 PM 11.34 52.412 0.591 7.83 2.1 10.29
11/2/2022 5:00:00 PM 11.37 52.466 0.591 7.81 0.93 10.16
11/2/2022 5:15:00 PM 11.46 52.628 0.591 7.81 2.17 10.19
11/2/2022 5:30:00 PM 11.49 52.682 0.59 7.81 0.93 10.12
11/2/2022 5:45:00 PM 11.53 52.754 0.59 7.8 1 10.05
11/2/2022 6:00:00 PM 11.58 52.844 0.59 7.81 0.96 10.06
11/2/2022 6:15:00 PM 11.67 53.006 0.59 7.81 1.13 10.04
11/2/2022 6:30:00 PM 11.71 53.078 0.59 7.79 1.03 9.97
11/2/2022 6:45:00 PM 11.75 53.15 0.589 7.77 1.01 9.91
11/2/2022 7:00:00 PM 11.8 53.24 0.589 7.78 1.03 9.82
11/2/2022 7:15:00 PM 11.85 53.33 0.589 7.77 1.03 9.79
11/2/2022 7:30:00 PM 11.87 53.366 0.589 7.77 1 9.77
11/2/2022 7:45:00 PM 11.92 53.456 0.589 7.76 1 9.69
11/2/2022 8:00:00 PM 11.92 53.456 0.589 7.76 1.13 9.64
11/2/2022 8:15:00 PM 11.93 53.474 0.589 7.75 2.3 9.61
11/2/2022 8:30:00 PM 11.93 53.474 0.589 7.75 0.99 9.62
11/2/2022 8:45:00 PM 11.92 53.456 0.589 7.74 1.01 9.59
11/2/2022 9:00:00 PM 11.9 53.42 0.588 7.75 1.02 9.56
11/2/2022 9:15:00 PM 11.89 53.402 0.589 7.75 1.02 9.55
11/2/2022 9:30:00 PM 11.86 53.348 0.588 7.76 2.26 9.52
11/2/2022 9:45:00 PM 11.84 53.312 0.589 7.82 1.12 9.52
11/2/2022 10:00:00 PM 11.93 53.474 0.588 8.02 1.76 10.08
11/2/2022 10:15:00 PM 11.89 53.402 0.587 8.06 2.68 10.24
11/2/2022 10:30:00 PM 11.78 53.204 0.587 8.08 2.37 10.29
11/2/2022 10:45:00 PM 11.66 52.988 0.587 8.08 2.33 10.27
11/2/2022 11:00:00 PM 11.47 52.646 0.588 8.05 1.88 10.18
11/2/2022 11:15:00 PM 11.33 52.394 0.588 8.05 1.79 10.12
11/2/2022 11:30:00 PM 11.18 52.124 0.589 8.03 1.94 10.06
11/2/2022 11:45:00 PM 11.05 51.89 0.589 7.99 1.68 9.95
11/3/2022 12:00:00 AM 10.91 51.638 0.59 7.98 1.78 9.91
11/3/2022 12:15:00 AM 10.77 51.386 0.59 7.95 2.97 9.83
11/3/2022 12:30:00 AM 10.63 51.134 0.59 7.94 1.63 9.81
11/3/2022 12:45:00 AM 10.52 50.936 0.591 7.91 1.61 9.74
11/3/2022 1:00:00 AM 10.38 50.684 0.591 7.92 1.58 9.76
11/3/2022 1:15:00 AM 10.26 50.468 0.591 7.92 1.93 9.77
11/3/2022 1:30:00 AM 10.13 50.234 0.592 7.91 1.6 9.76
11/3/2022 1:45:00 AM 10.02 50.036 0.592 7.89 1.59 9.76
11/3/2022 2:00:00 AM 9.9 49.82 0.592 7.9 1.48 9.78
11/3/2022 2:15:00 AM 9.8 49.64 0.593 7.89 2.69 9.77
11/3/2022 2:30:00 AM 9.64 49.352 0.593 7.89 1.51 9.8
11/3/2022 2:45:00 AM 9.54 49.172 0.593 7.86 1.46 9.8
11/3/2022 3:00:00 AM 9.4 48.92 0.593 7.88 1.5 9.84
11/3/2022 3:15:00 AM 9.32 48.776 0.594 7.87 2.09 9.83
11/3/2022 3:30:00 AM 9.21 48.578 0.594 7.86 1.56 9.83
11/3/2022 3:45:00 AM 9.09 48.362 0.594 7.84 1.55 9.87
11/3/2022 4:00:00 AM 8.96 48.128 0.595 7.85 1.51 9.9
11/3/2022 4:15:00 AM 8.84 47.912 0.595 7.85 1.64 9.92
11/3/2022 4:30:00 AM 8.71 47.678 0.595 7.84 1.51 9.98
11/3/2022 4:45:00 AM 8.63 47.534 0.596 7.85 1.56 9.97
11/3/2022 5:00:00 AM 8.52 47.336 0.596 7.85 1.62 10.01
11/3/2022 5:15:00 AM 8.39 47.102 0.597 7.85 5.68 10.04
11/3/2022 5:30:00 AM 8.26 46.868 0.597 7.85 3.42 10.09
11/3/2022 5:45:00 AM 8.14 46.652 0.597 7.85 2.87 10.14
11/3/2022 6:00:00 AM 8.04 46.472 0.598 7.84 2.49 10.16
11/3/2022 6:15:00 AM 7.95 46.31 0.598 7.82 2.62 10.18
11/3/2022 6:30:00 AM 7.81 46.058 0.598 7.84 1.94 10.25
11/3/2022 6:45:00 AM 7.71 45.878 0.598 7.84 1.95 10.28
11/3/2022 7:00:00 AM 7.66 45.788 0.598 7.82 2.01 10.26
11/3/2022 7:15:00 AM 7.51 45.518 0.598 7.84 1.81 10.34
11/3/2022 7:30:00 AM 7.38 45.284 0.598 7.84 1.8 10.4
11/3/2022 7:45:00 AM 7.27 45.086 0.598 7.83 1.91 10.45
11/3/2022 8:00:00 AM 7.18 44.924 0.598 7.85 1.79 10.52
11/3/2022 8:15:00 AM 7.08 44.744 0.598 7.85 1.8 10.63
11/3/2022 8:30:00 AM 7.05 44.69 0.598 7.86 1.9 10.7
11/3/2022 8:45:00 AM 6.95 44.51 0.598 7.87 1.76 10.85
11/3/2022 9:00:00 AM 6.99 44.582 0.598 7.86 1.84 10.88
11/3/2022 9:15:00 AM 6.9 44.42 0.598 7.89 1.77 11.05
11/3/2022 9:30:00 AM 6.88 44.384 0.597 7.9 2.24 11.15
11/3/2022 9:45:00 AM 6.86 44.348 0.597 7.92 1.83 11.26
11/3/2022 10:00:00 AM 6.99 44.582 0.597 7.92 1.84 11.37
11/3/2022 10:15:00 AM 7.16 44.888 0.597 7.95 1.87 11.5
11/3/2022 10:30:00 AM 7.3 45.14 0.596 7.96 1.78 11.61
11/3/2022 10:45:00 AM 7.45 45.41 0.596 7.98 2.57 11.7
11/3/2022 11:00:00 AM 7.6 45.68 0.596 7.99 2.25 11.81
11/3/2022 11:15:00 AM 7.78 46.004 0.595 8 1.92 11.87
11/3/2022 11:30:00 AM 7.95 46.31 0.595 8.01 1.9 11.95
11/3/2022 11:45:00 AM 8.24 46.832 0.595 8.01 1.76 11.95
11/3/2022 12:00:00 PM 8.31 46.958 0.594 8.01 1.87 12
11/3/2022 12:15:00 PM 8.42 47.156 0.594 8.04 1.95 12.08
11/3/2022 12:30:00 PM 8.57 47.426 0.594 8.02 1.82 12
11/3/2022 12:45:00 PM 8.74 47.732 0.594 8.03 1.77 11.99
11/3/2022 1:00:00 PM 8.99 48.182 0.593 8.02 1.78 11.97
11/3/2022 1:15:00 PM 9.29 48.722 0.593 8.06 1.83 12.06
11/3/2022 1:30:00 PM 9.61 49.298 0.593 8.05 1.88 12.03
11/3/2022 1:45:00 PM 9.84 49.712 0.592 8.07 1.78 12.13
11/3/2022 2:00:00 PM 9.99 49.982 0.591 8.08 2.53 12.17
11/3/2022 2:15:00 PM 10.13 50.234 0.591 8.09 1.78 12.2
11/3/2022 2:30:00 PM 10.29 50.522 0.59 8.11 1.85 12.28
11/3/2022 2:45:00 PM 10.39 50.702 0.59 8.11 5.28 12.18
11/3/2022 3:00:00 PM 10.5 50.9 0.59 8.13 1.68 12.2
11/3/2022 3:15:00 PM 10.48 50.864 0.59 8.08 1.67 12.11
11/3/2022 3:30:00 PM 10.34 50.612 0.59 8.04 1.45 11.91
11/3/2022 3:45:00 PM 10.26 50.468 0.591 7.95 1.34 11.56
11/3/2022 4:00:00 PM 10.2 50.36 0.591 7.91 1.21 11.27
11/3/2022 4:15:00 PM 10.2 50.36 0.591 7.86 2.17 10.99
11/3/2022 4:30:00 PM 10.21 50.378 0.591 7.85 2.33 10.87
11/3/2022 4:45:00 PM 10.2 50.36 0.591 7.83 2.18 10.74
11/3/2022 5:00:00 PM 10.19 50.342 0.591 7.84 1.04 10.67
11/3/2022 5:15:00 PM 10.23 50.414 0.591 7.82 1.02 10.61
11/3/2022 5:30:00 PM 10.26 50.468 0.591 7.8 1.09 10.51
11/3/2022 5:45:00 PM 10.32 50.576 0.59 7.81 2.35 10.51
11/3/2022 6:00:00 PM 10.37 50.666 0.59 7.81 1.07 10.52
11/3/2022 6:15:00 PM 10.4 50.72 0.59 7.8 1.04 10.43
11/3/2022 6:30:00 PM 10.44 50.792 0.59 7.79 1.06 10.33
11/3/2022 6:45:00 PM 10.49 50.882 0.59 7.79 1.07 10.27
11/3/2022 7:00:00 PM 10.59 51.062 0.59 7.77 13.43 10.23
11/3/2022 7:15:00 PM 10.65 51.17 0.589 7.78 1.53 10.18
11/3/2022 7:30:00 PM 10.73 51.314 0.589 7.76 2.6 10.1
11/3/2022 7:45:00 PM 10.73 51.314 0.589 7.75 1.6 10.09
11/3/2022 8:00:00 PM 10.78 51.404 0.588 7.76 1.42 10.02
11/3/2022 8:15:00 PM 10.83 51.494 0.588 7.75 2.89 9.96
11/3/2022 8:30:00 PM 10.86 51.548 0.588 7.76 1.14 9.95
11/3/2022 8:45:00 PM 10.9 51.62 0.588 7.75 1.1 9.93
11/3/2022 9:00:00 PM 10.91 51.638 0.588 7.75 1.1 9.91
11/3/2022 9:15:00 PM 10.91 51.638 0.588 7.75 1.39 9.88
11/3/2022 9:30:00 PM 10.93 51.674 0.587 7.75 1.16 9.82
11/3/2022 9:45:00 PM 10.92 51.656 0.587 7.75 1.13 9.79
11/3/2022 10:00:00 PM 10.93 51.674 0.587 7.77 1.1 9.76
11/3/2022 10:15:00 PM 10.94 51.692 0.587 7.82 1.32 9.84
11/3/2022 10:30:00 PM 11.01 51.818 0.585 7.95 3.08 10.2
11/3/2022 10:45:00 PM 11 51.8 0.584 8.05 1.88 10.47
11/3/2022 11:00:00 PM 10.92 51.656 0.584 8.09 1.91 10.54
11/3/2022 11:15:00 PM 10.82 51.476 0.584 8.08 1.89 10.53
11/3/2022 11:30:00 PM 10.67 51.206 0.584 8.07 1.92 10.47
11/3/2022 11:45:00 PM 10.54 50.972 0.585 8.05 1.95 10.41
11/4/2022 12:00:00 AM 10.39 50.702 0.585 8.02 2.4 10.34
11/4/2022 12:15:00 AM 10.27 50.486 0.585 8 1.89 10.27
11/4/2022 12:30:00 AM 10.16 50.288 0.586 7.98 1.73 10.19
11/4/2022 12:45:00 AM 10.02 50.036 0.586 7.97 1.82 10.14
11/4/2022 1:00:00 AM 9.91 49.838 0.586 7.95 1.79 10.09
11/4/2022 1:15:00 AM 9.79 49.622 0.587 7.94 1.74 10.07
11/4/2022 1:30:00 AM 9.68 49.424 0.587 7.93 1.65 10.03
11/4/2022 1:45:00 AM 9.58 49.244 0.587 7.91 1.65 10
11/4/2022 2:00:00 AM 9.47 49.046 0.588 7.91 1.71 9.99
11/4/2022 2:15:00 AM 9.34 48.812 0.587 7.9 1.58 10.01
11/4/2022 2:30:00 AM 9.28 48.704 0.588 7.88 1.51 9.98
11/4/2022 2:45:00 AM 9.16 48.488 0.588 7.89 1.73 10
11/4/2022 3:00:00 AM 9.04 48.272 0.588 7.88 1.91 10.02
11/4/2022 3:15:00 AM 8.95 48.11 0.589 7.89 1.52 10.03
11/4/2022 3:30:00 AM 8.87 47.966 0.589 7.88 1.61 10.03
11/4/2022 3:45:00 AM 8.75 47.75 0.589 7.88 1.53 10.06
11/4/2022 4:00:00 AM 8.65 47.57 0.589 7.86 1.59 10.08
11/4/2022 4:15:00 AM 8.58 47.444 0.59 7.86 1.52 10.08
11/4/2022 4:30:00 AM 8.51 47.318 0.59 7.86 1.57 10.08
11/4/2022 4:45:00 AM 8.4 47.12 0.59 7.86 1.6 10.12
11/4/2022 5:00:00 AM 8.32 46.976 0.591 7.85 1.54 10.12
11/4/2022 5:15:00 AM 8.23 46.814 0.591 7.84 1.55 10.14
11/4/2022 5:30:00 AM 8.13 46.634 0.591 7.85 1.48 10.2
11/4/2022 5:45:00 AM 8.03 46.454 0.591 7.85 3.5 10.23
11/4/2022 6:00:00 AM 7.96 46.328 0.592 7.85 1.53 10.24
11/4/2022 6:15:00 AM 7.85 46.13 0.592 7.84 1.55 10.3
11/4/2022 6:30:00 AM 7.77 45.986 0.592 7.84 1.48 10.33
11/4/2022 6:45:00 AM 7.69 45.842 0.592 7.85 1.52 10.35
11/4/2022 7:00:00 AM 7.62 45.716 0.593 7.84 1.45 10.37
11/4/2022 7:15:00 AM 7.53 45.554 0.593 7.84 1.5 10.41
11/4/2022 7:30:00 AM 7.42 45.356 0.593 7.85 1.52 10.48
11/4/2022 7:45:00 AM 7.36 45.248 0.593 7.85 1.47 10.48
11/4/2022 8:00:00 AM 7.26 45.068 0.593 7.86 1.54 10.56
11/4/2022 8:15:00 AM 7.24 45.032 0.594 7.84 1.75 10.61
11/4/2022 8:30:00 AM 7.2 44.96 0.594 7.86 1.42 10.7
11/4/2022 8:45:00 AM 7.14 44.852 0.593 7.87 1.43 10.84
11/4/2022 9:00:00 AM 7.12 44.816 0.593 7.89 1.5 10.97
11/4/2022 9:15:00 AM 7.19 44.942 0.593 7.88 1.47 10.98
11/4/2022 9:30:00 AM 7.14 44.852 0.593 7.9 1.43 11.13
11/4/2022 9:45:00 AM 7.08 44.744 0.593 7.91 1.45 11.25
11/4/2022 10:00:00 AM 7.2 44.96 0.593 7.94 1.43 11.37
11/4/2022 10:15:00 AM 7.45 45.41 0.592 7.94 2.55 11.5
11/4/2022 10:30:00 AM 7.63 45.734 0.592 7.96 1.41 11.62
11/4/2022 10:45:00 AM 7.84 46.112 0.592 7.97 1.38 11.66
11/4/2022 11:00:00 AM 8.04 46.472 0.591 8 1.4 11.8
11/4/2022 11:15:00 AM 8.24 46.832 0.591 8.01 1.39 11.87
11/4/2022 11:30:00 AM 8.43 47.174 0.59 8.02 1.36 11.92
11/4/2022 11:45:00 AM 8.54 47.372 0.59 8.03 1.29 11.99
11/4/2022 12:00:00 PM 8.69 47.642 0.59 8.02 1.36 11.93
11/4/2022 12:15:00 PM 8.85 47.93 0.59 8.01 1.33 11.9
11/4/2022 12:30:00 PM 8.97 48.146 0.589 8.03 1.31 11.9
11/4/2022 12:45:00 PM 9.07 48.326 0.589 8.05 1.33 12
11/4/2022 1:00:00 PM 9.28 48.704 0.588 8.06 1.28 12.07
11/4/2022 1:15:00 PM 9.54 49.172 0.588 8.06 2.49 12.13
11/4/2022 1:30:00 PM 9.81 49.658 0.588 8.08 1.3 12.18
11/4/2022 1:45:00 PM 10 50 0.587 8.06 1.23 12.06
11/4/2022 2:00:00 PM 10.16 50.288 0.587 8.11 4.57 12.2
11/4/2022 2:15:00 PM 10.21 50.378 0.587 8.1 1.13 12.22
11/4/2022 2:30:00 PM 10.15 50.27 0.587 8.02 1.16 11.82
11/4/2022 2:45:00 PM 10.11 50.198 0.587 7.98 1.09 11.75
11/4/2022 3:00:00 PM 9.95 49.91 0.587 7.96 1.41 11.74
11/4/2022 3:15:00 PM 9.94 49.892 0.587 7.93 1.78 11.68
11/4/2022 3:30:00 PM 9.88 49.784 0.588 7.92 0.94 11.36
11/4/2022 3:45:00 PM 9.89 49.802 0.588 7.87 0.92 11.14
11/4/2022 4:00:00 PM 9.88 49.784 0.588 7.85 2.09 10.91
11/4/2022 4:15:00 PM 9.9 49.82 0.588 7.85 0.94 10.89
11/4/2022 4:30:00 PM 9.92 49.856 0.588 7.85 0.99 10.82
11/4/2022 4:45:00 PM 9.94 49.892 0.588 7.85 1 10.79
11/4/2022 5:00:00 PM 9.97 49.946 0.587 7.84 0.93 10.79
11/4/2022 5:15:00 PM 10.02 50.036 0.587 7.84 0.93 10.75
11/4/2022 5:30:00 PM 10.06 50.108 0.587 7.83 0.92 10.7
11/4/2022 5:45:00 PM 10.08 50.144 0.587 7.83 0.91 10.68
11/4/2022 6:00:00 PM 10.12 50.216 0.587 7.79 0.95 10.59
11/4/2022 6:15:00 PM 10.16 50.288 0.587 7.79 0.89 10.48
11/4/2022 6:30:00 PM 10.21 50.378 0.587 7.77 0.93 10.38
11/4/2022 6:45:00 PM 10.23 50.414 0.587 7.79 0.89 10.4
11/4/2022 7:00:00 PM 10.28 50.504 0.586 7.78 0.92 10.35
11/4/2022 7:15:00 PM 10.33 50.594 0.586 7.77 0.92 10.25
11/4/2022 7:30:00 PM 10.37 50.666 0.586 7.74 0.9 10.07
11/4/2022 7:45:00 PM 10.42 50.756 0.586 7.73 0.99 9.95
11/4/2022 8:00:00 PM 10.46 50.828 0.585 7.73 1.05 9.88
11/4/2022 8:15:00 PM 10.5 50.9 0.585 7.73 0.94 9.91
11/4/2022 8:30:00 PM 10.54 50.972 0.585 7.7 1.06 9.76
11/4/2022 8:45:00 PM 10.58 51.044 0.585 7.72 1.41 9.7
11/4/2022 9:00:00 PM 10.62 51.116 0.584 7.72 1.3 9.74
11/4/2022 9:15:00 PM 10.67 51.206 0.584 7.72 0.93 9.73
11/4/2022 9:30:00 PM 10.74 51.332 0.584 7.71 1.01 9.67
11/4/2022 9:45:00 PM 10.78 51.404 0.584 7.72 0.95 9.65
11/4/2022 10:00:00 PM 10.82 51.476 0.584 7.71 0.88 9.62
11/4/2022 10:15:00 PM 10.85 51.53 0.584 7.71 0.99 9.54
11/4/2022 10:30:00 PM 10.9 51.62 0.584 7.71 1 9.48
11/4/2022 10:45:00 PM 10.94 51.692 0.584 7.7 0.94 9.42
11/4/2022 11:00:00 PM 10.95 51.71 0.584 7.7 1.15 9.38
11/4/2022 11:15:00 PM 10.95 51.71 0.584 7.7 1.08 9.36
11/4/2022 11:30:00 PM 10.99 51.782 0.584 7.69 2.31 9.28
11/4/2022 11:45:00 PM 11 51.8 0.583 7.7 2.24 9.28
11/5/2022 12:00:00 AM 11.01 51.818 0.584 7.73 1.02 9.25
11/5/2022 12:15:00 AM 11.07 51.926 0.583 7.77 1.02 9.28
11/5/2022 12:30:00 AM 11.05 51.89 0.583 7.75 1.08 9.22
11/5/2022 12:45:00 AM 11.13 52.034 0.583 7.84 1.22 9.44
11/5/2022 1:00:00 AM 11.17 52.106 0.583 7.85 1.44 9.46
11/5/2022 1:15:00 AM 11.19 52.142 0.583 7.91 1.74 9.58
11/5/2022 1:30:00 AM 11.2 52.16 0.582 7.95 2.35 9.66
11/5/2022 1:45:00 AM 11.17 52.106 0.582 7.95 2.01 9.65
11/5/2022 2:00:00 AM 11.13 52.034 0.583 7.96 1.93 9.67
11/5/2022 2:15:00 AM 11.06 51.908 0.583 7.95 1.92 9.66
11/5/2022 2:30:00 AM 11.01 51.818 0.583 7.94 1.7 9.64
11/5/2022 2:45:00 AM 10.96 51.728 0.583 7.93 1.98 9.62
11/5/2022 3:00:00 AM 10.9 51.62 0.584 7.93 3.03 9.63
11/5/2022 3:15:00 AM 10.85 51.53 0.584 7.91 1.56 9.56
11/5/2022 3:30:00 AM 10.79 51.422 0.584 7.9 1.55 9.56
11/5/2022 3:45:00 AM 10.74 51.332 0.585 7.9 1.5 9.55
11/5/2022 4:00:00 AM 10.7 51.26 0.585 7.87 1.56 9.53
11/5/2022 4:15:00 AM 10.65 51.17 0.585 7.88 2.88 9.54
11/5/2022 4:30:00 AM 10.61 51.098 0.585 7.87 1.64 9.49
11/5/2022 4:45:00 AM 10.58 51.044 0.586 7.86 1.48 9.47
11/5/2022 5:00:00 AM 10.5 50.9 0.586 7.87 1.56 9.54
11/5/2022 5:15:00 AM 10.46 50.828 0.586 7.86 1.72 9.52
11/5/2022 5:30:00 AM 10.41 50.738 0.587 7.87 1.54 9.56
11/5/2022 5:45:00 AM 10.37 50.666 0.587 7.85 1.55 9.54
11/5/2022 6:00:00 AM 10.33 50.594 0.587 7.86 1.42 9.55
11/5/2022 6:15:00 AM 10.31 50.558 0.588 7.85 1.66 9.51
11/5/2022 6:30:00 AM 10.27 50.486 0.588 7.85 1.68 9.54
11/5/2022 6:45:00 AM 10.22 50.396 0.588 7.84 1.65 9.54
11/5/2022 7:00:00 AM 10.16 50.288 0.589 7.85 1.9 9.55
11/5/2022 7:15:00 AM 10.13 50.234 0.589 7.84 1.54 9.52
11/5/2022 7:30:00 AM 10.1 50.18 0.589 7.84 1.53 9.55
11/5/2022 7:45:00 AM 10.07 50.126 0.589 7.84 1.78 9.57
11/5/2022 8:00:00 AM 10.04 50.072 0.589 7.85 1.53 9.64
11/5/2022 8:15:00 AM 10.03 50.054 0.59 7.84 1.47 9.66
11/5/2022 8:30:00 AM 10.01 50.018 0.59 7.86 1.42 9.8
11/5/2022 8:45:00 AM 10.04 50.072 0.589 7.88 1.44 9.95
11/5/2022 9:00:00 AM 10.12 50.216 0.589 7.9 1.47 10.07
11/5/2022 9:15:00 AM 10.2 50.36 0.589 7.91 1.45 10.14
11/5/2022 9:30:00 AM 10.28 50.504 0.589 7.91 1.51 10.22
11/5/2022 9:45:00 AM 10.32 50.576 0.589 7.92 1.4 10.25
11/5/2022 10:00:00 AM 10.38 50.684 0.589 7.91 1.38 10.33
11/5/2022 10:15:00 AM 10.43 50.774 0.589 7.95 1.41 10.47
11/5/2022 10:30:00 AM 10.48 50.864 0.588 7.97 1.6 10.69
11/5/2022 10:45:00 AM 10.6 51.08 0.588 7.98 1.35 10.77
11/5/2022 11:00:00 AM 10.66 51.188 0.588 7.98 1.28 10.79
11/5/2022 11:15:00 AM 10.69 51.242 0.587 7.99 2.59 10.93
11/5/2022 11:30:00 AM 10.75 51.35 0.587 8.02 1.27 11.09
11/5/2022 11:45:00 AM 10.85 51.53 0.586 8.02 2.57 11.17
11/5/2022 12:00:00 PM 10.93 51.674 0.586 7.99 1.27 11.03
11/5/2022 12:15:00 PM 11.05 51.89 0.585 8.04 1.34 11.25
11/5/2022 12:30:00 PM 11.18 52.124 0.585 8.06 1.36 11.34
11/5/2022 12:45:00 PM 11.33 52.394 0.585 8.07 1.38 11.47
11/5/2022 1:00:00 PM 11.43 52.574 0.584 8.11 2.09 11.54
11/5/2022 1:15:00 PM 11.49 52.682 0.584 8.13 1.3 11.61
11/5/2022 1:30:00 PM 11.48 52.664 0.584 8.09 3.2 11.6
11/5/2022 1:45:00 PM 11.44 52.592 0.585 8.02 1.09 11.48
11/5/2022 2:00:00 PM 11.42 52.556 0.585 7.98 1.07 11.26
11/5/2022 2:15:00 PM 11.35 52.43 0.585 7.98 1.06 11.3
11/5/2022 2:30:00 PM 11.32 52.376 0.584 7.98 1.06 11.35
11/5/2022 2:45:00 PM 11.29 52.322 0.585 8.01 1.09 11.46
11/5/2022 3:00:00 PM 11.3 52.34 0.585 8 1.01 11.41
11/5/2022 3:15:00 PM 11.3 52.34 0.585 8.01 1.62 11.39
11/5/2022 3:30:00 PM 11.29 52.322 0.585 7.96 0.98 11.09
11/5/2022 3:45:00 PM 11.29 52.322 0.585 7.92 1.02 10.87
11/5/2022 4:00:00 PM 11.3 52.34 0.585 7.91 1 10.72
11/5/2022 4:15:00 PM 11.32 52.376 0.585 7.91 0.94 10.62
11/5/2022 4:30:00 PM 11.34 52.412 0.585 7.85 0.97 10.4
11/5/2022 4:45:00 PM 11.36 52.448 0.585 7.86 0.93 10.31
11/5/2022 5:00:00 PM 11.38 52.484 0.585 7.85 0.94 10.27
11/5/2022 5:15:00 PM 11.4 52.52 0.585 7.83 0.9 10.18
11/5/2022 5:30:00 PM 11.43 52.574 0.585 7.82 0.89 10.12
11/5/2022 5:45:00 PM 11.45 52.61 0.584 7.82 0.98 10.07
11/5/2022 6:00:00 PM 11.47 52.646 0.584 7.8 0.92 9.97
11/5/2022 6:15:00 PM 11.49 52.682 0.584 7.79 0.89 9.87
11/5/2022 6:30:00 PM 11.51 52.718 0.584 7.77 0.85 9.77
11/5/2022 6:45:00 PM 11.55 52.79 0.584 7.75 1.14 9.67
11/5/2022 7:00:00 PM 11.57 52.826 0.584 7.72 0.87 9.27
11/5/2022 7:15:00 PM 11.59 52.862 0.584 7.73 4.7 9.33
11/5/2022 7:30:00 PM 11.63 52.934 0.584 7.7 4.3 9.19
11/5/2022 7:45:00 PM 11.65 52.97 0.583 7.7 1.04 9.17
11/5/2022 8:00:00 PM 11.68 53.024 0.583 7.69 2.1 9.15
11/5/2022 8:15:00 PM 11.7 53.06 0.583 7.7 0.86 9.09
11/5/2022 8:30:00 PM 11.71 53.078 0.583 7.71 1.02 9.21
11/5/2022 8:45:00 PM 11.74 53.132 0.583 7.7 0.97 9.17
11/5/2022 9:00:00 PM 11.78 53.204 0.583 7.69 0.88 9.08
11/5/2022 9:15:00 PM 11.82 53.276 0.583 7.69 0.96 9.07
11/5/2022 9:30:00 PM 11.86 53.348 0.582 7.69 1.02 9.01
11/5/2022 9:45:00 PM 11.91 53.438 0.583 7.68 0.91 8.85
11/5/2022 10:00:00 PM 11.96 53.528 0.582 7.66 1.16 8.66
11/5/2022 10:15:00 PM 12 53.6 0.582 7.68 1.28 8.65
11/5/2022 10:30:00 PM 12.04 53.672 0.582 7.68 0.96 8.73
11/5/2022 10:45:00 PM 12.07 53.726 0.582 7.67 0.88 8.65
11/5/2022 11:00:00 PM 12.1 53.78 0.582 7.67 2.09 8.62
11/5/2022 11:15:00 PM 12.12 53.816 0.582 7.67 0.96 8.61
11/5/2022 11:30:00 PM 12.15 53.87 0.582 7.66 0.86 8.49
11/5/2022 11:45:00 PM 12.18 53.924 0.582 7.66 0.84 8.44
11/6/2022 12:00:00 AM 12.18 53.924 0.583 7.67 1.11 8.38
11/6/2022 12:15:00 AM 12.22 53.996 0.583 7.66 0.86 8.37
11/6/2022 12:30:00 AM 12.26 54.068 0.583 7.64 0.87 8.22
11/6/2022 12:45:00 AM 12.28 54.104 0.583 7.65 0.91 8.17
11/6/2022 1:00:00 AM 12.29 54.122 0.583 7.65 0.86 8.18
11/6/2022 1:15:00 AM 12.31 54.158 0.583 7.68 0.87 8.21
11/6/2022 1:30:00 AM 12.33 54.194 0.583 7.64 0.88 8.03
11/6/2022 1:45:00 AM 12.34 54.212 0.583 7.66 0.94 8.02
11/6/2022 2:00:00 AM 12.37 54.266 0.584 7.65 0.94 7.92
11/6/2022 2:15:00 AM 12.41 54.338 0.584 7.63 0.86 7.82
11/6/2022 2:30:00 AM 12.44 54.392 0.584 7.64 0.88 7.78
11/6/2022 2:45:00 AM 12.47 54.446 0.585 7.63 1 7.7
11/6/2022 3:00:00 AM 12.48 54.464 0.585 7.62 0.9 7.66
11/6/2022 3:15:00 AM 12.55 54.59 0.585 7.63 0.88 7.66
11/6/2022 3:30:00 AM 12.52 54.536 0.585 7.62 0.91 7.53
11/6/2022 3:45:00 AM 12.55 54.59 0.586 7.63 0.79 7.47
11/6/2022 4:00:00 AM 12.59 54.662 0.586 7.62 0.89 7.45
11/6/2022 4:15:00 AM 12.67 54.806 0.588 7.62 2.43 7.26
11/6/2022 4:30:00 AM 12.67 54.806 0.588 7.61 2.35 7.2
11/6/2022 4:45:00 AM 12.69 54.842 0.588 7.62 0.91 7.14
11/6/2022 5:00:00 AM 12.72 54.896 0.588 7.6 2.42 7.14
11/6/2022 5:15:00 AM 12.7 54.86 0.588 7.62 0.94 7.12
11/6/2022 5:30:00 AM 12.75 54.95 0.588 7.63 0.97 7.17
11/6/2022 5:45:00 AM 12.76 54.968 0.589 7.62 0.95 7.14
11/6/2022 6:00:00 AM 12.75 54.95 0.589 7.61 1.2 7.03
11/6/2022 6:15:00 AM 12.77 54.986 0.589 7.61 1.02 7.05
11/6/2022 6:30:00 AM 12.79 55.022 0.589 7.6 4.5 7
11/6/2022 6:45:00 AM 12.79 55.022 0.59 7.61 1.16 6.94
11/6/2022 7:00:00 AM 12.8 55.04 0.59 7.6 1.15 6.96
11/6/2022 7:15:00 AM 12.82 55.076 0.59 7.6 0.93 6.95
11/6/2022 7:30:00 AM 12.85 55.13 0.59 7.61 1.14 6.98
11/6/2022 7:45:00 AM 12.88 55.184 0.59 7.61 0.89 7.05
11/6/2022 8:00:00 AM 12.92 55.256 0.591 7.61 0.92 7.12
11/6/2022 8:15:00 AM 12.96 55.328 0.591 7.63 0.89 7.23
11/6/2022 8:30:00 AM 12.97 55.346 0.59 7.65 0.88 7.29
11/6/2022 8:45:00 AM 13.01 55.418 0.591 7.65 0.89 7.4
11/6/2022 9:00:00 AM 13.02 55.436 0.591 7.66 0.82 7.46
11/6/2022 9:15:00 AM 13.06 55.508 0.591 7.67 0.95 7.56
11/6/2022 9:30:00 AM 13.08 55.544 0.591 7.67 1.87 7.65
11/6/2022 9:45:00 AM 13.12 55.616 0.591 7.69 0.9 7.74
11/6/2022 10:00:00 AM 13.18 55.724 0.591 7.69 0.95 7.91
11/6/2022 10:15:00 AM 13.3 55.94 0.591 7.69 0.9 8.17
11/6/2022 10:30:00 AM 13.39 56.102 0.591 7.72 1.3 8.32
11/6/2022 10:45:00 AM 13.39 56.102 0.591 7.75 1.26 8.33
11/6/2022 11:00:00 AM 13.48 56.264 0.591 7.76 1.32 8.59
11/6/2022 11:15:00 AM 13.63 56.534 0.591 7.78 1 8.96
11/6/2022 11:30:00 AM 13.68 56.624 0.59 7.8 1.58 9.06
11/6/2022 11:45:00 AM 13.62 56.516 0.59 7.81 1.15 9.16
11/6/2022 12:00:00 PM 13.63 56.534 0.589 7.83 2.09 9.29
11/6/2022 12:15:00 PM 13.64 56.552 0.59 7.86 2.38 9.48
11/6/2022 12:30:00 PM 13.64 56.552 0.589 7.86 1.69 9.55
11/6/2022 12:45:00 PM 13.67 56.606 0.589 7.87 1.46 9.51
11/6/2022 1:00:00 PM 13.66 56.588 0.588 7.9 2.29 9.77
11/6/2022 1:15:00 PM 13.77 56.786 0.589 7.87 2.92 9.8
11/6/2022 1:30:00 PM 13.78 56.804 0.588 7.86 1.58 9.72
11/6/2022 1:45:00 PM 13.8 56.84 0.589 7.85 1.73 9.67
11/6/2022 2:00:00 PM 13.75 56.75 0.587 7.86 3.07 9.8
11/6/2022 2:15:00 PM 13.75 56.75 0.588 7.88 2.15 9.93
11/6/2022 2:30:00 PM 13.8 56.84 0.588 7.85 1.83 9.84
11/6/2022 2:45:00 PM 13.84 56.912 0.588 7.84 1.71 9.74
11/6/2022 3:00:00 PM 13.86 56.948 0.588 7.84 1.49 9.79
11/6/2022 3:15:00 PM 13.9 57.02 0.588 7.84 1.39 9.73
11/6/2022 3:30:00 PM 13.92 57.056 0.587 7.84 1.4 9.76
11/6/2022 3:45:00 PM 13.92 57.056 0.587 7.83 1.23 9.68
11/6/2022 4:00:00 PM 13.96 57.128 0.587 7.82 1.11 9.6
11/6/2022 4:15:00 PM 13.97 57.146 0.587 7.81 1.04 9.51
11/6/2022 4:30:00 PM 14.01 57.218 0.587 7.78 0.87 9.41
11/6/2022 4:45:00 PM 14.04 57.272 0.587 7.78 0.85 9.25
11/6/2022 5:00:00 PM 14.09 57.362 0.587 7.76 2.3 9.12
11/6/2022 5:15:00 PM 14.13 57.434 0.587 7.76 1.18 9.03
11/6/2022 5:30:00 PM 14.17 57.506 0.587 7.74 1.06 8.92
11/6/2022 5:45:00 PM 14.2 57.56 0.586 7.74 0.99 8.81
11/6/2022 6:00:00 PM 14.21 57.578 0.586 7.72 1.3 8.58
11/6/2022 6:15:00 PM 14.23 57.614 0.586 7.71 0.96 8.5
11/6/2022 6:30:00 PM 14.25 57.65 0.586 7.7 1.35 8.38
11/6/2022 6:45:00 PM 14.31 57.758 0.586 7.67 2.23 8.19
11/6/2022 7:00:00 PM 14.32 57.776 0.586 7.66 1.33 8.05
11/6/2022 7:15:00 PM 14.34 57.812 0.585 7.65 1.02 7.93
11/6/2022 7:30:00 PM 14.36 57.848 0.585 7.64 0.96 7.86
11/6/2022 7:45:00 PM 14.39 57.902 0.585 7.64 1.04 7.77
11/6/2022 8:00:00 PM 14.43 57.974 0.585 7.62 1.01 7.63
11/6/2022 8:15:00 PM 14.45 58.01 0.585 7.64 1.04 7.64
11/6/2022 8:30:00 PM 14.48 58.064 0.585 7.63 0.97 7.68
11/6/2022 8:45:00 PM 14.53 58.154 0.585 7.64 1.56 7.71
11/6/2022 9:00:00 PM 14.58 58.244 0.584 7.64 0.94 7.7
11/6/2022 9:15:00 PM 14.61 58.298 0.584 7.64 1.16 7.68
11/6/2022 9:30:00 PM 14.66 58.388 0.584 7.64 1.23 7.65
11/6/2022 9:45:00 PM 14.64 58.352 0.583 7.65 1.23 7.76
11/6/2022 10:00:00 PM 14.8 58.64 0.583 7.65 2.6 7.72
11/6/2022 10:15:00 PM 14.83 58.694 0.583 7.65 1.59 7.62
11/6/2022 10:30:00 PM 14.81 58.658 0.582 7.65 1.19 7.59
11/6/2022 10:45:00 PM 14.81 58.658 0.583 7.65 1.39 7.58
11/6/2022 11:00:00 PM 14.8 58.64 0.583 7.64 1.39 7.47
11/6/2022 11:15:00 PM 14.8 58.64 0.583 7.64 1.59 7.44
11/6/2022 11:30:00 PM 14.78 58.604 0.583 7.64 1.15 7.42
11/6/2022 11:45:00 PM 14.76 58.568 0.583 7.69 1.34 7.39
11/7/2022 12:00:00 AM 14.79 58.622 0.583 7.73 1.91 7.67
11/7/2022 12:15:00 AM 14.79 58.622 0.583 7.75 1.93 7.79
11/7/2022 12:30:00 AM 14.82 58.676 0.582 7.79 1.57 7.93
11/7/2022 12:45:00 AM 14.79 58.622 0.582 7.82 1.77 8.17
11/7/2022 1:00:00 AM 14.75 58.55 0.582 7.84 2.09 8.16
11/7/2022 1:15:00 AM 14.74 58.532 0.582 7.85 1.83 8.21
11/7/2022 1:30:00 AM 14.71 58.478 0.582 7.85 1.87 8.24
11/7/2022 1:45:00 AM 14.66 58.388 0.582 7.85 2.99 8.23
11/7/2022 2:00:00 AM 14.6 58.28 0.583 7.83 2.9 8.22
11/7/2022 2:15:00 AM 14.52 58.136 0.583 7.84 1.59 8.26
11/7/2022 2:30:00 AM 14.4 57.92 0.583 7.82 3.2 8.23
11/7/2022 2:45:00 AM 14.29 57.722 0.584 7.82 1.8 8.23
11/7/2022 3:00:00 AM 14.2 57.56 0.584 7.79 2.02 8.15
11/7/2022 3:15:00 AM 14.09 57.362 0.585 7.8 1.77 8.18
11/7/2022 3:30:00 AM 13.99 57.182 0.585 7.78 2.17 8.11
11/7/2022 3:45:00 AM 13.9 57.02 0.586 7.77 2.25 8.08
11/7/2022 4:00:00 AM 13.77 56.786 0.586 7.78 1.73 8.17
11/7/2022 4:15:00 AM 13.65 56.57 0.586 7.78 1.88 8.18
11/7/2022 4:30:00 AM 13.54 56.372 0.587 7.78 1.99 8.16
11/7/2022 4:45:00 AM 13.43 56.174 0.587 7.77 1.81 8.18
11/7/2022 5:00:00 AM 13.31 55.958 0.587 7.78 1.6 8.23
11/7/2022 5:15:00 AM 13.21 55.778 0.588 7.77 1.77 8.25
11/7/2022 5:30:00 AM 13.12 55.616 0.588 7.76 3.71 8.24
11/7/2022 5:45:00 AM 13 55.4 0.588 7.77 1.95 8.3
11/7/2022 6:00:00 AM 12.93 55.274 0.588 7.75 1.74 8.28
11/7/2022 6:15:00 AM 12.85 55.13 0.588 7.76 2.13 8.28
11/7/2022 6:30:00 AM 12.74 54.932 0.588 7.75 1.55 8.33
11/7/2022 6:45:00 AM 12.66 54.788 0.588 7.76 2.91 8.33
11/7/2022 7:00:00 AM 12.56 54.608 0.588 7.76 1.61 8.38
11/7/2022 7:15:00 AM 12.46 54.428 0.588 7.76 1.41 8.47
11/7/2022 7:30:00 AM 12.35 54.23 0.588 7.78 2.52 8.61
11/7/2022 7:45:00 AM 12.29 54.122 0.587 7.79 1.49 8.7
11/7/2022 8:00:00 AM 12.24 54.032 0.587 7.8 1.82 8.82
11/7/2022 8:15:00 AM 12.21 53.978 0.587 7.81 3.22 8.98
11/7/2022 8:30:00 AM 12.2 53.96 0.587 7.82 1.35 9.05
11/7/2022 8:45:00 AM 12.14 53.852 0.587 7.84 1.3 9.24
11/7/2022 9:00:00 AM 12.21 53.978 0.587 7.84 1.39 9.27
11/7/2022 9:15:00 AM 12.37 54.266 0.586 7.9 1.88 9.7
11/7/2022 9:30:00 AM 12.49 54.482 0.586 7.93 1.26 9.95
11/7/2022 9:45:00 AM 12.62 54.716 0.585 7.96 1.3 10.15
11/7/2022 10:00:00 AM 12.73 54.914 0.585 7.98 1.28 10.27
11/7/2022 10:15:00 AM 12.84 55.112 0.585 8.01 2.35 10.46
11/7/2022 10:30:00 AM 12.93 55.274 0.584 8.03 1.41 10.61
11/7/2022 10:45:00 AM 13 55.4 0.584 8.02 1.32 10.6
11/7/2022 11:00:00 AM 13.04 55.472 0.584 8.01 1.58 10.59
11/7/2022 11:15:00 AM 13.07 55.526 0.583 8.03 1.32 10.7
11/7/2022 11:30:00 AM 13.09 55.562 0.584 8.04 1.27 10.69
11/7/2022 11:45:00 AM 13.13 55.634 0.583 8.05 2.59 10.76
11/7/2022 12:00:00 PM 13.22 55.796 0.583 8.09 1.25 10.89
11/7/2022 12:15:00 PM 13.38 56.084 0.583 8.11 3.39 11.05
11/7/2022 12:30:00 PM 13.55 56.39 0.582 8.16 1.39 11.23
11/7/2022 12:45:00 PM 13.65 56.57 0.582 8.15 1.35 11.23
11/7/2022 1:00:00 PM 13.73 56.714 0.581 8.17 1.28 11.27
11/7/2022 1:15:00 PM 13.83 56.894 0.58 8.22 1.98 11.47
11/7/2022 1:30:00 PM 13.87 56.966 0.58 8.23 1.8 11.55
11/7/2022 1:45:00 PM 13.89 57.002 0.581 8.17 1.3 11.37
11/7/2022 2:00:00 PM 13.9 57.02 0.579 8.21 1.35 11.37
11/7/2022 2:15:00 PM 13.89 57.002 0.58 8.18 1.51 11.3
11/7/2022 2:30:00 PM 13.89 57.002 0.579 8.19 2.66 11.29
11/7/2022 2:45:00 PM 13.87 56.966 0.579 8.21 2.29 11.27
11/7/2022 3:00:00 PM 13.84 56.912 0.579 8.18 2.95 11.15
11/7/2022 3:15:00 PM 13.8 56.84 0.578 8.21 1.35 11.2
11/7/2022 3:30:00 PM 13.77 56.786 0.578 8.21 1.78 11.17
11/7/2022 3:45:00 PM 13.73 56.714 0.578 8.2 1.4 11.1
11/7/2022 4:00:00 PM 13.67 56.606 0.578 8.14 1.3 10.94
11/7/2022 4:15:00 PM 13.63 56.534 0.577 8.19 1.34 10.99
11/7/2022 4:30:00 PM 13.58 56.444 0.576 8.23 1.43 11.06
11/7/2022 4:45:00 PM 13.5 56.3 0.575 8.23 1.43 10.97
11/7/2022 5:00:00 PM 13.43 56.174 0.575 8.19 2.83 10.8
11/7/2022 5:15:00 PM 13.4 56.12 0.575 8.23 1.31 10.78
11/7/2022 5:30:00 PM 13.33 55.994 0.574 8.23 3.04 10.75
11/7/2022 5:45:00 PM 13.27 55.886 0.574 8.22 2.77 10.68
11/7/2022 6:00:00 PM 13.19 55.742 0.574 8.22 3.39 10.63
11/7/2022 6:15:00 PM 13.11 55.598 0.574 8.2 1.57 10.56
11/7/2022 6:30:00 PM 13.02 55.436 0.574 8.18 1.55 10.46
11/7/2022 6:45:00 PM 12.94 55.292 0.574 8.17 1.54 10.39
11/7/2022 7:00:00 PM 12.87 55.166 0.574 8.17 1.49 10.38
11/7/2022 7:15:00 PM 12.79 55.022 0.574 8.16 1.54 10.32
11/7/2022 7:30:00 PM 12.72 54.896 0.574 8.13 1.51 10.26
11/7/2022 7:45:00 PM 12.64 54.752 0.574 8.14 1.43 10.21
11/7/2022 8:00:00 PM 12.57 54.626 0.573 8.13 1.6 10.19
11/7/2022 8:15:00 PM 12.51 54.518 0.574 8.13 1.54 10.14
11/7/2022 8:30:00 PM 12.43 54.374 0.574 8.12 1.36 10.09
11/7/2022 8:45:00 PM 12.36 54.248 0.574 8.1 1.39 10.03
11/7/2022 9:00:00 PM 12.26 54.068 0.574 8.08 1.35 9.95
11/7/2022 9:15:00 PM 12.14 53.852 0.574 8.1 1.38 9.96
11/7/2022 9:30:00 PM 12.05 53.69 0.574 8.08 1.45 9.89
11/7/2022 9:45:00 PM 11.95 53.51 0.574 8.07 1.41 9.83
11/7/2022 10:00:00 PM 11.78 53.204 0.575 8.06 1.54 9.83
11/7/2022 10:15:00 PM 11.6 52.88 0.575 8.07 1.63 9.8
11/7/2022 10:30:00 PM 11.46 52.628 0.576 8.03 1.61 9.73
11/7/2022 10:45:00 PM 11.31 52.358 0.576 8.02 1.41 9.67
11/7/2022 11:00:00 PM 11.15 52.07 0.577 8.01 2.66 9.66
11/7/2022 11:15:00 PM 11.03 51.854 0.577 8 1.35 9.65
11/7/2022 11:30:00 PM 10.93 51.674 0.577 7.98 1.4 9.6
11/7/2022 11:45:00 PM 10.78 51.404 0.577 7.98 2.67 9.62
11/8/2022 12:00:00 AM 10.72 51.296 0.578 7.97 1.34 9.59
11/8/2022 12:15:00 AM 10.63 51.134 0.578 7.96 2.28 9.56
11/8/2022 12:30:00 AM 10.5 50.9 0.578 7.95 1.51 9.56
11/8/2022 12:45:00 AM 10.36 50.648 0.578 7.95 1.39 9.57
11/8/2022 1:00:00 AM 10.24 50.432 0.579 7.93 1.41 9.57
11/8/2022 1:15:00 AM 10.14 50.252 0.579 7.92 1.47 9.55
11/8/2022 1:30:00 AM 10.04 50.072 0.579 7.91 1.56 9.55
11/8/2022 1:45:00 AM 9.91 49.838 0.579 7.9 1.42 9.58
11/8/2022 2:00:00 AM 9.81 49.658 0.58 7.9 1.47 9.58
11/8/2022 2:15:00 AM 9.71 49.478 0.58 7.89 1.42 9.59
11/8/2022 2:30:00 AM 9.61 49.298 0.58 7.9 2.91 9.64
11/8/2022 2:45:00 AM 9.55 49.19 0.58 7.9 1.4 9.68
11/8/2022 3:00:00 AM 9.5 49.1 0.581 7.9 1.37 9.69
11/8/2022 3:15:00 AM 9.42 48.956 0.581 7.88 1.35 9.64
11/8/2022 3:30:00 AM 9.24 48.632 0.582 7.88 2.57 9.71
11/8/2022 3:45:00 AM 9.13 48.434 0.582 7.88 1.49 9.74
11/8/2022 4:00:00 AM 9.01 48.218 0.582 7.86 1.39 9.76
11/8/2022 4:15:00 AM 8.91 48.038 0.583 7.87 1.32 9.78
11/8/2022 4:30:00 AM 8.82 47.876 0.583 7.87 1.29 9.82
11/8/2022 4:45:00 AM 8.77 47.786 0.584 7.87 1.36 9.83
11/8/2022 5:00:00 AM 8.75 47.75 0.585 7.86 1.4 9.86
11/8/2022 5:15:00 AM 8.73 47.714 0.585 7.87 1.35 9.87
11/8/2022 5:30:00 AM 8.72 47.696 0.585 7.85 1.31 9.86
11/8/2022 5:45:00 AM 8.66 47.588 0.586 7.86 1.33 9.89
11/8/2022 6:00:00 AM 8.57 47.426 0.586 7.86 1.39 9.95
11/8/2022 6:15:00 AM 8.52 47.336 0.587 7.86 1.56 9.97
11/8/2022 6:30:00 AM 8.5 47.3 0.587 7.85 2.29 9.95
11/8/2022 6:45:00 AM 8.36 47.048 0.588 7.85 3.63 10
11/8/2022 7:00:00 AM 8.19 46.742 0.588 7.85 1.3 10.1
11/8/2022 7:15:00 AM 8.13 46.634 0.589 7.85 1.27 10.19
11/8/2022 7:30:00 AM 8.05 46.49 0.589 7.87 1.25 10.32
11/8/2022 7:45:00 AM 7.99 46.382 0.589 7.88 1.3 10.44
11/8/2022 8:00:00 AM 7.92 46.256 0.589 7.89 1.26 10.56
11/8/2022 8:15:00 AM 7.88 46.184 0.59 7.9 2.51 10.7
11/8/2022 8:30:00 AM 7.93 46.274 0.59 7.91 1.28 10.78
11/8/2022 8:45:00 AM 7.85 46.13 0.59 7.94 1.27 10.92
11/8/2022 9:00:00 AM 7.85 46.13 0.59 7.94 1.33 11.06
11/8/2022 9:15:00 AM 8.01 46.418 0.591 7.98 3.71 11.31
11/8/2022 9:30:00 AM 8.13 46.634 0.59 8 1.26 11.43
11/8/2022 9:45:00 AM 8.1 46.58 0.591 8.03 1.28 11.63
11/8/2022 10:00:00 AM 8.25 46.85 0.59 8.07 1.27 11.92
11/8/2022 10:15:00 AM 8.49 47.282 0.59 8.07 2.06 11.97
11/8/2022 10:30:00 AM 8.65 47.57 0.59 8.07 4.32 12.02
11/8/2022 10:45:00 AM 8.79 47.822 0.59 8.08 2.05 12.04
11/8/2022 11:00:00 AM 8.85 47.93 0.59 8.08 2.64 12.06
11/8/2022 11:15:00 AM 8.92 48.056 0.59 8.1 4.34 12.1
11/8/2022 11:30:00 AM 9.02 48.236 0.589 8.1 1.28 12.15
11/8/2022 11:45:00 AM 9.1 48.38 0.589 8.12 2.89 12.23
11/8/2022 12:00:00 PM 9.18 48.524 0.588 8.12 3.25 12.34
11/8/2022 12:15:00 PM 9.38 48.884 0.589 8.15 1.21 12.36
11/8/2022 12:30:00 PM 9.5 49.1 0.588 8.17 1.6 12.47
11/8/2022 12:45:00 PM 9.68 49.424 0.588 8.17 2.07 12.52
11/8/2022 1:00:00 PM 9.86 49.748 0.588 8.18 1.77 12.47
11/8/2022 1:15:00 PM 9.96 49.928 0.587 8.18 1.61 12.52
11/8/2022 1:30:00 PM 10.03 50.054 0.587 8.21 1.23 12.53
11/8/2022 1:45:00 PM 10.1 50.18 0.587 8.19 1.22 12.47
11/8/2022 2:00:00 PM 10.16 50.288 0.586 8.19 1.17 12.48
11/8/2022 2:15:00 PM 10.21 50.378 0.586 8.19 1.11 12.45
11/8/2022 2:30:00 PM 10.26 50.468 0.585 8.19 1.19 12.4
11/8/2022 2:45:00 PM 10.29 50.522 0.584 8.16 1.11 12.32
11/8/2022 3:00:00 PM 10.31 50.558 0.584 8.16 1.26 12.28
11/8/2022 3:15:00 PM 10.31 50.558 0.584 8.19 1.18 12.25
11/8/2022 3:30:00 PM 10.33 50.594 0.583 8.14 2.71 12.1
11/8/2022 3:45:00 PM 10.33 50.594 0.583 8.16 1.13 12.11
11/8/2022 4:00:00 PM 10.31 50.558 0.582 8.18 1.3 12.15
11/8/2022 4:15:00 PM 10.3 50.54 0.582 8.14 3.45 12.04
11/8/2022 4:30:00 PM 10.28 50.504 0.581 8.18 1.32 12.04
11/8/2022 4:45:00 PM 10.25 50.45 0.581 8.17 1.19 12
11/8/2022 5:00:00 PM 10.23 50.414 0.581 8.16 1.19 11.9
11/8/2022 5:15:00 PM 10.17 50.306 0.581 8.14 1.16 11.77
11/8/2022 5:30:00 PM 10.13 50.234 0.581 8.14 1.26 11.7
11/8/2022 5:45:00 PM 10.1 50.18 0.581 8.13 1.24 11.6
11/8/2022 6:00:00 PM 10.02 50.036 0.58 8.11 1.21 11.52
11/8/2022 6:15:00 PM 9.96 49.928 0.58 8.13 1.25 11.53
11/8/2022 6:30:00 PM 9.93 49.874 0.58 8.12 1.27 11.51
11/8/2022 6:45:00 PM 9.91 49.838 0.58 8.11 1.28 11.44
11/8/2022 7:00:00 PM 9.88 49.784 0.58 8.1 1.38 11.44
11/8/2022 7:15:00 PM 9.86 49.748 0.58 8.1 2.52 11.42
11/8/2022 7:30:00 PM 9.79 49.622 0.58 8.11 1.92 11.42
11/8/2022 7:45:00 PM 9.73 49.514 0.579 8.11 1.31 11.42
11/8/2022 8:00:00 PM 9.66 49.388 0.579 8.1 1.51 11.38
11/8/2022 8:15:00 PM 9.62 49.316 0.579 8.11 1.26 11.37
11/8/2022 8:30:00 PM 9.58 49.244 0.579 8.09 1.44 11.36
11/8/2022 8:45:00 PM 9.54 49.172 0.578 8.1 1.32 11.3
11/8/2022 9:00:00 PM 9.45 49.01 0.578 8.1 1.26 11.3
11/8/2022 9:15:00 PM 9.39 48.902 0.578 8.08 1.37 11.22
11/8/2022 9:30:00 PM 9.26 48.668 0.578 8.09 1.21 11.18
11/8/2022 9:45:00 PM 9.17 48.506 0.578 8.08 1.3 11.13
11/8/2022 10:00:00 PM 9.08 48.344 0.578 8.06 1.19 11.07
11/8/2022 10:15:00 PM 8.97 48.146 0.578 8.06 1.28 11.04
11/8/2022 10:30:00 PM 8.9 48.02 0.579 8.04 1.22 10.97
11/8/2022 10:45:00 PM 8.76 47.768 0.579 8.04 1.28 10.93
11/8/2022 11:00:00 PM 8.59 47.462 0.578 8.05 1.29 10.94
11/8/2022 11:15:00 PM 8.45 47.21 0.579 8.03 1.28 10.89
11/8/2022 11:30:00 PM 8.32 46.976 0.579 8.02 1.21 10.86
11/8/2022 11:45:00 PM 8.18 46.724 0.579 8.02 1.24 10.84
11/9/2022 12:00:00 AM 8.05 46.49 0.579 7.99 1.32 10.78
11/9/2022 12:15:00 AM 7.9 46.22 0.579 7.99 1.23 10.78
11/9/2022 12:30:00 AM 7.76 45.968 0.58 7.98 1.34 10.77
11/9/2022 12:45:00 AM 7.64 45.752 0.58 7.96 2.46 10.75
11/9/2022 1:00:00 AM 7.55 45.59 0.58 7.95 1.29 10.72
11/9/2022 1:15:00 AM 7.33 45.194 0.58 7.96 1.29 10.78
11/9/2022 1:30:00 AM 7.24 45.032 0.58 7.94 1.49 10.78
11/9/2022 1:45:00 AM 7.12 44.816 0.58 7.94 1.28 10.79
11/9/2022 2:00:00 AM 7.01 44.618 0.58 7.94 1.39 10.81
11/9/2022 2:15:00 AM 6.88 44.384 0.58 7.93 1.29 10.84
11/9/2022 2:30:00 AM 6.77 44.186 0.58 7.93 1.35 10.86
11/9/2022 2:45:00 AM 6.7 44.06 0.58 7.9 1.29 10.85
11/9/2022 3:00:00 AM 6.55 43.79 0.58 7.92 1.37 10.91
11/9/2022 3:15:00 AM 6.45 43.61 0.58 7.91 1.25 10.92
11/9/2022 3:30:00 AM 6.34 43.412 0.58 7.91 1.32 10.96
11/9/2022 3:45:00 AM 6.24 43.232 0.581 7.91 1.34 10.98
11/9/2022 4:00:00 AM 6.13 43.034 0.581 7.9 2.07 11.01
11/9/2022 4:15:00 AM 5.96 42.728 0.581 7.91 1.34 11.09
11/9/2022 4:30:00 AM 5.94 42.692 0.582 7.9 1.27 11.05
11/9/2022 4:45:00 AM 5.91 42.638 0.583 7.88 1.3 11.03
11/9/2022 5:00:00 AM 5.74 42.332 0.583 7.89 1.29 11.1
11/9/2022 5:15:00 AM 5.65 42.17 0.583 7.88 1.31 11.13
11/9/2022 5:30:00 AM 5.54 41.972 0.584 7.89 1.35 11.17
11/9/2022 5:45:00 AM 5.43 41.774 0.584 7.9 1.28 11.21
11/9/2022 6:00:00 AM 5.37 41.666 0.585 7.89 1.23 11.23
11/9/2022 6:15:00 AM 5.27 41.486 0.585 7.89 1.32 11.28
11/9/2022 6:30:00 AM 5.2 41.36 0.586 7.89 1.24 11.3
11/9/2022 6:45:00 AM 5.11 41.198 0.586 7.89 1.21 11.34
11/9/2022 7:00:00 AM 5.03 41.054 0.587 7.89 1.23 11.38
11/9/2022 7:15:00 AM 4.94 40.892 0.587 7.89 1.26 11.44
11/9/2022 7:30:00 AM 4.88 40.784 0.588 7.9 1.29 11.55
11/9/2022 7:45:00 AM 4.83 40.694 0.588 7.9 1.22 11.65
11/9/2022 8:00:00 AM 4.77 40.586 0.589 7.92 1.17 11.75
11/9/2022 8:15:00 AM 4.76 40.568 0.589 7.93 1.19 11.84
11/9/2022 8:30:00 AM 4.74 40.532 0.59 7.92 1.2 11.95
11/9/2022 8:45:00 AM 4.74 40.532 0.59 7.95 1.2 12.01
11/9/2022 9:00:00 AM 4.73 40.514 0.59 7.95 1.18 12.09
11/9/2022 9:15:00 AM 4.89 40.802 0.59 7.98 1.17 12.24
11/9/2022 9:30:00 AM 5.15 41.27 0.59 7.99 1.18 12.39
11/9/2022 9:45:00 AM 5.3 41.54 0.59 8.02 1.19 12.51
11/9/2022 10:00:00 AM 5.46 41.828 0.589 8.04 1.23 12.64
11/9/2022 10:15:00 AM 5.62 42.116 0.589 8.06 1.19 12.74
11/9/2022 10:30:00 AM 5.78 42.404 0.589 8.07 1.15 12.84
11/9/2022 10:45:00 AM 5.87 42.566 0.589 8.09 1.18 12.94
11/9/2022 11:00:00 AM 5.98 42.764 0.589 8.09 1.19 12.91
11/9/2022 11:15:00 AM 6.06 42.908 0.589 8.09 1.19 12.91
11/9/2022 11:30:00 AM 6.11 42.998 0.589 8.08 1.15 12.92
11/9/2022 11:45:00 AM 6.18 43.124 0.589 8.1 1.16 12.93
11/9/2022 12:00:00 PM 6.36 43.448 0.589 8.09 1.13 12.97
11/9/2022 12:15:00 PM 6.47 43.646 0.588 8.1 1.17 13.04
11/9/2022 12:30:00 PM 6.63 43.934 0.588 8.1 1.16 13.07
11/9/2022 12:45:00 PM 6.8 44.24 0.588 8.1 1.13 13.1
11/9/2022 1:00:00 PM 7.02 44.636 0.587 8.11 1.15 13.08
11/9/2022 1:15:00 PM 7.09 44.762 0.587 8.12 1.11 13.08
11/9/2022 1:30:00 PM 7.2 44.96 0.587 8.11 1.08 13.06
11/9/2022 1:45:00 PM 7.3 45.14 0.586 8.1 1.09 13.03
11/9/2022 2:00:00 PM 7.4 45.32 0.586 8.1 1.14 13.02
11/9/2022 2:15:00 PM 7.48 45.464 0.586 8.11 1.14 12.97
11/9/2022 2:30:00 PM 7.54 45.572 0.586 8.1 2.37 12.9
11/9/2022 2:45:00 PM 7.61 45.698 0.585 8.08 1.05 12.8
11/9/2022 3:00:00 PM 7.66 45.788 0.585 8.09 1.58 12.8
11/9/2022 3:15:00 PM 7.69 45.842 0.585 8.09 1.1 12.76
11/9/2022 3:30:00 PM 7.72 45.896 0.585 8.07 1.67 12.69
11/9/2022 3:45:00 PM 7.77 45.986 0.585 8.06 1.93 12.58
11/9/2022 4:00:00 PM 7.81 46.058 0.585 8.06 1.91 12.5
11/9/2022 4:15:00 PM 7.83 46.094 0.585 8.08 2.08 12.57
11/9/2022 4:30:00 PM 7.89 46.202 0.584 8.07 1.94 12.42
11/9/2022 4:45:00 PM 7.92 46.256 0.584 8.08 3.73 12.44
11/9/2022 5:00:00 PM 7.98 46.364 0.584 8.05 3.48 12.29
11/9/2022 5:15:00 PM 8.02 46.436 0.584 8.01 1.06 12.09
11/9/2022 5:30:00 PM 8.04 46.472 0.583 8.05 1.04 12.12
11/9/2022 5:45:00 PM 8.05 46.49 0.583 8.06 1.1 12.06
11/9/2022 6:00:00 PM 8.05 46.49 0.583 8.07 1.15 12.08
11/9/2022 6:15:00 PM 8.05 46.49 0.583 8.07 1.09 12.04
11/9/2022 6:30:00 PM 8.05 46.49 0.582 8.04 1.11 11.99
11/9/2022 6:45:00 PM 8.05 46.49 0.582 8.09 1.09 12.03
11/9/2022 7:00:00 PM 8.04 46.472 0.582 8.08 1.22 11.98
11/9/2022 7:15:00 PM 8.03 46.454 0.582 8.07 1.16 11.96
11/9/2022 7:30:00 PM 8.04 46.472 0.582 8.05 1.14 11.88
11/9/2022 7:45:00 PM 8.03 46.454 0.581 8.08 1.2 11.93
11/9/2022 8:00:00 PM 8.01 46.418 0.581 8.07 1.17 11.93
11/9/2022 8:15:00 PM 7.99 46.382 0.581 8.09 1.12 11.95
11/9/2022 8:30:00 PM 7.97 46.346 0.582 8.08 2.45 11.94
11/9/2022 8:45:00 PM 7.94 46.292 0.581 8.1 1.15 11.96
11/9/2022 9:00:00 PM 7.91 46.238 0.581 8.09 2.37 11.96
11/9/2022 9:15:00 PM 7.87 46.166 0.581 8.1 1.18 11.94
11/9/2022 9:30:00 PM 7.84 46.112 0.581 8.1 1.23 11.89
11/9/2022 9:45:00 PM 7.81 46.058 0.581 8.09 1.13 11.84
11/9/2022 10:00:00 PM 7.76 45.968 0.581 8.08 1.19 11.78
11/9/2022 10:15:00 PM 7.69 45.842 0.581 8.08 1.17 11.73
11/9/2022 10:30:00 PM 7.61 45.698 0.581 8.08 1.15 11.7
11/9/2022 10:45:00 PM 7.53 45.554 0.581 8.06 1.15 11.62
11/9/2022 11:00:00 PM 7.47 45.446 0.582 8.06 1.11 11.56
11/9/2022 11:15:00 PM 7.4 45.32 0.582 8.05 1.18 11.51
11/9/2022 11:30:00 PM 7.31 45.158 0.582 8.04 1.2 11.46
11/9/2022 11:45:00 PM 7.23 45.014 0.582 8.03 1.2 11.4
11/10/2022 12:00:00 AM 7.13 44.834 0.583 8.01 1.22 11.33
11/10/2022 12:15:00 AM 7.04 44.672 0.583 8 1.15 11.29
11/10/2022 12:30:00 AM 6.92 44.456 0.583 7.99 1.21 11.25
11/10/2022 12:45:00 AM 6.85 44.33 0.584 7.97 1.18 11.21
11/10/2022 1:00:00 AM 6.73 44.114 0.583 7.97 1.15 11.2
11/10/2022 1:15:00 AM 6.65 43.97 0.584 7.97 1.18 11.18
11/10/2022 1:30:00 AM 6.57 43.826 0.584 7.96 1.21 11.16
11/10/2022 1:45:00 AM 6.48 43.664 0.584 7.96 1.19 11.16
11/10/2022 2:00:00 AM 6.42 43.556 0.584 7.95 1.19 11.15
11/10/2022 2:15:00 AM 6.34 43.412 0.584 7.94 1.2 11.15
11/10/2022 2:30:00 AM 6.29 43.322 0.584 7.94 1.18 11.14
11/10/2022 2:45:00 AM 6.21 43.178 0.584 7.94 1.18 11.16
11/10/2022 3:00:00 AM 6.12 43.016 0.584 7.94 1.16 11.19
11/10/2022 3:15:00 AM 6.1 42.98 0.584 7.93 1.48 11.15
11/10/2022 3:30:00 AM 6 42.8 0.584 7.93 1.28 11.19
11/10/2022 3:45:00 AM 6 42.8 0.585 7.92 1.24 11.13
11/10/2022 4:00:00 AM 5.88 42.584 0.584 7.93 1.15 11.22
11/10/2022 4:15:00 AM 5.82 42.476 0.585 7.93 1.19 11.23
11/10/2022 4:30:00 AM 5.76 42.368 0.585 7.92 1.3 11.24
11/10/2022 4:45:00 AM 5.72 42.296 0.585 7.91 1.19 11.22
11/10/2022 5:00:00 AM 5.63 42.134 0.586 7.92 1.15 11.26
11/10/2022 5:15:00 AM 5.58 42.044 0.586 7.91 1.19 11.26
11/10/2022 5:30:00 AM 5.5 41.9 0.586 7.91 1.19 11.28
11/10/2022 5:45:00 AM 5.43 41.774 0.586 7.91 1.14 11.32
11/10/2022 6:00:00 AM 5.41 41.738 0.587 7.9 1.13 11.3
11/10/2022 6:15:00 AM 5.3 41.54 0.587 7.91 1.17 11.35
11/10/2022 6:30:00 AM 5.28 41.504 0.587 7.9 1.26 11.34
11/10/2022 6:45:00 AM 5.2 41.36 0.588 7.89 1.14 11.37
11/10/2022 7:00:00 AM 5.18 41.324 0.588 7.9 1.18 11.37
11/10/2022 7:15:00 AM 5.1 41.18 0.588 7.91 1.15 11.43
11/10/2022 7:30:00 AM 5.06 41.108 0.589 7.91 1.11 11.52
11/10/2022 7:45:00 AM 5.06 41.108 0.589 7.91 1.66 11.57
11/10/2022 8:00:00 AM 5 41 0.589 7.92 1.15 11.68
11/10/2022 8:15:00 AM 4.98 40.964 0.589 7.94 1.18 11.79
11/10/2022 8:30:00 AM 4.97 40.946 0.589 7.96 1.1 11.92
11/10/2022 8:45:00 AM 4.99 40.982 0.59 7.96 1.18 11.97
11/10/2022 9:00:00 AM 5.06 41.108 0.59 7.96 1.15 11.98
11/10/2022 9:15:00 AM 5.19 41.342 0.59 7.98 1.18 12.16
11/10/2022 9:30:00 AM 5.49 41.882 0.59 8 1.18 12.25
11/10/2022 9:45:00 AM 5.79 42.422 0.589 8.02 1.15 12.34
11/10/2022 10:00:00 AM 5.98 42.764 0.589 8.06 1.13 12.54
11/10/2022 10:15:00 AM 6.18 43.124 0.589 8.06 1.14 12.61
11/10/2022 10:30:00 AM 6.34 43.412 0.589 8.09 1.14 12.74
11/10/2022 10:45:00 AM 6.49 43.682 0.589 8.09 1.13 12.74
11/10/2022 11:00:00 AM 6.58 43.844 0.589 8.09 1.17 12.76
11/10/2022 11:15:00 AM 6.65 43.97 0.589 8.09 1.29 12.77
11/10/2022 11:30:00 AM 6.74 44.132 0.589 8.1 1.1 12.78
11/10/2022 11:45:00 AM 6.85 44.33 0.589 8.09 1.13 12.73
11/10/2022 12:00:00 PM 7.06 44.708 0.589 8.08 1.02 12.72
11/10/2022 12:15:00 PM 7.27 45.086 0.589 8.09 1.05 12.75
11/10/2022 12:30:00 PM 7.47 45.446 0.589 8.1 2.02 12.76
11/10/2022 12:45:00 PM 7.65 45.77 0.589 8.12 1.23 12.78
11/10/2022 1:00:00 PM 7.85 46.13 0.588 8.13 3.12 12.85
11/10/2022 1:15:00 PM 7.96 46.328 0.588 8.12 1.13 12.87
11/10/2022 1:30:00 PM 8.11 46.598 0.587 8.15 1.12 12.9
11/10/2022 1:45:00 PM 8.2 46.76 0.587 8.14 1.13 12.85
11/10/2022 2:00:00 PM 8.32 46.976 0.587 8.15 1.07 12.85
11/10/2022 2:15:00 PM 8.35 47.03 0.587 8.11 1.07 12.7
11/10/2022 2:30:00 PM 8.38 47.084 0.587 8.1 0.99 12.67
11/10/2022 2:45:00 PM 8.34 47.012 0.587 7.98 0.95 12.17
11/10/2022 3:00:00 PM 8.31 46.958 0.587 7.91 1.81 11.97
11/10/2022 3:15:00 PM 8.29 46.922 0.587 7.86 1.98 11.73
11/10/2022 3:30:00 PM 8.28 46.904 0.587 7.85 3.16 11.64
11/10/2022 3:45:00 PM 8.26 46.868 0.587 7.85 1.29 11.66
11/10/2022 4:00:00 PM 8.25 46.85 0.587 7.83 0.93 11.54
11/10/2022 4:15:00 PM 8.22 46.796 0.587 7.85 0.93 11.55
11/10/2022 4:30:00 PM 8.19 46.742 0.587 7.85 0.92 11.54
11/10/2022 4:45:00 PM 8.18 46.724 0.587 7.84 0.88 11.47
11/10/2022 5:00:00 PM 8.18 46.724 0.587 7.83 0.87 11.42
11/10/2022 5:15:00 PM 8.18 46.724 0.587 7.82 0.88 11.37
11/10/2022 5:30:00 PM 8.21 46.778 0.587 7.81 0.93 11.25
11/10/2022 5:45:00 PM 8.23 46.814 0.587 7.79 1.01 11.1
11/10/2022 6:00:00 PM 8.24 46.832 0.587 7.78 0.89 11.07
11/10/2022 6:15:00 PM 8.26 46.868 0.587 7.78 0.98 11
11/10/2022 6:30:00 PM 8.27 46.886 0.587 7.78 0.9 10.99
11/10/2022 6:45:00 PM 8.29 46.922 0.587 7.77 0.91 10.92
11/10/2022 7:00:00 PM 8.31 46.958 0.587 7.75 0.94 10.8
11/10/2022 7:15:00 PM 8.33 46.994 0.587 7.74 0.9 10.68
11/10/2022 7:30:00 PM 8.35 47.03 0.586 7.74 0.92 10.6
11/10/2022 7:45:00 PM 8.37 47.066 0.586 7.73 0.91 10.59
11/10/2022 8:00:00 PM 8.4 47.12 0.587 7.74 0.87 10.56
11/10/2022 8:15:00 PM 8.42 47.156 0.587 7.73 0.88 10.52
11/10/2022 8:30:00 PM 8.48 47.264 0.586 7.72 1.64 10.39
11/10/2022 8:45:00 PM 8.51 47.318 0.586 7.69 1.16 10.32
11/10/2022 9:00:00 PM 8.56 47.408 0.586 7.69 1.01 10.18
11/10/2022 9:15:00 PM 8.6 47.48 0.586 7.68 0.95 10.16
11/10/2022 9:30:00 PM 8.63 47.534 0.586 7.68 0.89 10.13
11/10/2022 9:45:00 PM 8.65 47.57 0.586 7.68 0.85 10.11
11/10/2022 10:00:00 PM 8.7 47.66 0.586 7.71 0.95 10.13
11/10/2022 10:15:00 PM 8.72 47.696 0.586 7.72 0.91 10.19
11/10/2022 10:30:00 PM 8.73 47.714 0.586 7.7 1.04 10.1
11/10/2022 10:45:00 PM 8.76 47.768 0.586 7.75 0.97 10.12
11/10/2022 11:00:00 PM 8.81 47.858 0.586 7.82 2.56 10.22
11/10/2022 11:15:00 PM 8.84 47.912 0.586 7.91 1.31 10.5
11/10/2022 11:30:00 PM 8.88 47.984 0.585 8 1.5 10.67
11/10/2022 11:45:00 PM 8.86 47.948 0.585 8.01 2.09 10.73
11/11/2022 12:00:00 AM 8.85 47.93 0.585 7.98 1.8 10.65
11/11/2022 12:15:00 AM 8.79 47.822 0.585 7.99 1.3 10.64
11/11/2022 12:30:00 AM 8.71 47.678 0.585 7.98 2.39 10.63
11/11/2022 12:45:00 AM 8.66 47.588 0.586 7.98 1.26 10.59
11/11/2022 1:00:00 AM 8.58 47.444 0.586 7.98 1.18 10.55
11/11/2022 1:15:00 AM 8.5 47.3 0.586 7.96 1.19 10.55
11/11/2022 1:30:00 AM 8.42 47.156 0.586 7.95 1.19 10.53
11/11/2022 1:45:00 AM 8.36 47.048 0.587 7.94 4.67 10.48
11/11/2022 2:00:00 AM 8.27 46.886 0.587 7.94 1.56 10.49
11/11/2022 2:15:00 AM 8.21 46.778 0.587 7.94 2.05 10.48
11/11/2022 2:30:00 AM 8.19 46.742 0.587 7.93 2.44 10.41
11/11/2022 2:45:00 AM 8.2 46.76 0.587 7.92 1.35 10.43
11/11/2022 3:00:00 AM 8.17 46.706 0.587 7.92 1.29 10.45
11/11/2022 3:15:00 AM 8.16 46.688 0.587 7.91 1.45 10.43
11/11/2022 3:30:00 AM 8.13 46.634 0.587 7.91 1.28 10.43
11/11/2022 3:45:00 AM 8.12 46.616 0.588 7.9 1.19 10.43
11/11/2022 4:00:00 AM 8.11 46.598 0.588 7.9 3.26 10.42
11/11/2022 4:15:00 AM 8.09 46.562 0.588 7.91 1.8 10.43
11/11/2022 4:30:00 AM 8.09 46.562 0.588 7.9 1.53 10.41
11/11/2022 4:45:00 AM 8.1 46.58 0.588 7.9 1.23 10.41
11/11/2022 5:00:00 AM 8.09 46.562 0.588 7.9 1.33 10.43
11/11/2022 5:15:00 AM 8.1 46.58 0.589 7.9 1.09 10.44
11/11/2022 5:30:00 AM 8.12 46.616 0.589 7.9 1.17 10.42
11/11/2022 5:45:00 AM 8.12 46.616 0.589 7.88 1.33 10.41
11/11/2022 6:00:00 AM 8.1 46.58 0.589 7.89 1.44 10.42
11/11/2022 6:15:00 AM 8.08 46.544 0.589 7.89 1.23 10.45
11/11/2022 6:30:00 AM 8.09 46.562 0.59 7.88 1.37 10.45
11/11/2022 6:45:00 AM 8.1 46.58 0.59 7.88 1.33 10.43
11/11/2022 7:00:00 AM 8.1 46.58 0.591 7.89 1.17 10.45
11/11/2022 7:15:00 AM 8.11 46.598 0.591 7.89 1.24 10.49
11/11/2022 7:30:00 AM 8.11 46.598 0.591 7.89 1.17 10.53
11/11/2022 7:45:00 AM 8.14 46.652 0.592 7.89 1.37 10.56
11/11/2022 8:00:00 AM 8.16 46.688 0.592 7.9 1.12 10.63
11/11/2022 8:15:00 AM 8.17 46.706 0.592 7.89 1.15 10.67
11/11/2022 8:30:00 AM 8.21 46.778 0.592 7.91 1.29 10.68
11/11/2022 8:45:00 AM 8.27 46.886 0.592 7.9 1.29 10.71
11/11/2022 9:00:00 AM 8.35 47.03 0.591 7.9 1.17 10.69
11/11/2022 9:15:00 AM 8.33 46.994 0.59 7.91 1.19 10.78
11/11/2022 9:30:00 AM 8.37 47.066 0.588 7.94 1.15 10.88
11/11/2022 9:45:00 AM 8.48 47.264 0.586 7.94 1.18 10.93
11/11/2022 10:00:00 AM 8.59 47.462 0.586 7.94 1.13 10.95
11/11/2022 10:15:00 AM 8.7 47.66 0.585 7.96 1.23 11.07
11/11/2022 10:30:00 AM 8.79 47.822 0.584 7.98 1.21 11.14
11/11/2022 10:45:00 AM 8.86 47.948 0.582 7.99 2.12 11.15
11/11/2022 11:00:00 AM 8.96 48.128 0.582 7.98 1.2 11.13
11/11/2022 11:15:00 AM 9 48.2 0.582 8.01 1.19 11.25
11/11/2022 11:30:00 AM 9.07 48.326 0.58 8.03 1.19 11.35
11/11/2022 11:45:00 AM 9.17 48.506 0.579 8.04 1.58 11.45
11/11/2022 12:00:00 PM 9.23 48.614 0.579 8.06 1.15 11.5
11/11/2022 12:15:00 PM 9.32 48.776 0.579 8.08 1.22 11.57
11/11/2022 12:30:00 PM 9.4 48.92 0.578 8.09 1.23 11.55
11/11/2022 12:45:00 PM 9.53 49.154 0.576 8.1 1.21 11.56
11/11/2022 1:00:00 PM 9.61 49.298 0.574 8.1 1.22 11.54
11/11/2022 1:15:00 PM 9.67 49.406 0.571 8.1 1.27 11.54
11/11/2022 1:30:00 PM 9.75 49.55 0.569 8.13 1.33 11.62
11/11/2022 1:45:00 PM 9.82 49.676 0.566 8.11 1.38 11.58
11/11/2022 2:00:00 PM 9.94 49.892 0.563 8.15 1.56 11.61
11/11/2022 2:15:00 PM 10.04 50.072 0.561 8.17 1.47 11.65
11/11/2022 2:30:00 PM 10.12 50.216 0.559 8.17 1.5 11.66
11/11/2022 2:45:00 PM 10.24 50.432 0.557 8.17 1.43 11.6
11/11/2022 3:00:00 PM 10.32 50.576 0.556 8.17 1.57 11.56
11/11/2022 3:15:00 PM 10.31 50.558 0.558 8.17 1.56 11.56
11/11/2022 3:30:00 PM 10.38 50.684 0.555 8.17 1.59 11.53
11/11/2022 3:45:00 PM 10.44 50.792 0.555 8.17 1.98 11.52
11/11/2022 4:00:00 PM 10.46 50.828 0.554 8.17 1.98 11.5
11/11/2022 4:15:00 PM 10.52 50.936 0.552 8.17 1.71 11.47
11/11/2022 4:30:00 PM 10.51 50.918 0.553 8.16 2.47 11.43
11/11/2022 4:45:00 PM 10.57 51.026 0.55 8.16 1.95 11.36
11/11/2022 5:00:00 PM 10.6 51.08 0.55 8.15 2.79 11.29
11/11/2022 5:15:00 PM 10.61 51.098 0.55 8.14 1.76 11.24
11/11/2022 5:30:00 PM 10.61 51.098 0.55 8.13 2.01 11.18
11/11/2022 5:45:00 PM 10.64 51.152 0.55 8.12 1.82 11.12
11/11/2022 6:00:00 PM 10.7 51.26 0.55 8.12 2.18 11.04
11/11/2022 6:15:00 PM 10.7 51.26 0.551 8.11 2.35 10.97
11/11/2022 6:30:00 PM 10.73 51.314 0.551 8.1 2.68 10.87
11/11/2022 6:45:00 PM 10.78 51.404 0.552 8.1 2.81 10.81
11/11/2022 7:00:00 PM 10.81 51.458 0.553 8.08 2.59 10.71
11/11/2022 7:15:00 PM 10.8 51.44 0.554 8.07 2.49 10.65
11/11/2022 7:30:00 PM 10.87 51.566 0.553 8.06 3.02 10.56
11/11/2022 7:45:00 PM 10.93 51.674 0.554 8.05 2.59 10.48
11/11/2022 8:00:00 PM 10.93 51.674 0.556 8.04 2.6 10.45
11/11/2022 8:15:00 PM 10.93 51.674 0.557 8.03 3.58 10.42
11/11/2022 8:30:00 PM 11 51.8 0.558 8.03 6.61 10.35
11/11/2022 8:45:00 PM 11.02 51.836 0.557 8.02 11.56 10.3
11/11/2022 9:00:00 PM 11.05 51.89 0.557 8.02 2.46 10.28
11/11/2022 9:15:00 PM 11.11 51.998 0.554 8.01 3.01 10.25
11/11/2022 9:30:00 PM 11.08 51.944 0.553 8.01 3.53 10.24
11/11/2022 9:45:00 PM 11.11 51.998 0.55 8.02 4.09 10.23
11/11/2022 10:00:00 PM 11.09 51.962 0.551 7.99 5.28 10.19
11/11/2022 10:15:00 PM 11.14 52.052 0.546 8.02 3.68 10.23
11/11/2022 10:30:00 PM 11.21 52.178 0.543 8.02 3.73 10.21
11/11/2022 10:45:00 PM 11.2 52.16 0.542 8 3.92 10.18
11/11/2022 11:00:00 PM 11.32 52.376 0.534 8.02 4.99 10.17
11/11/2022 11:15:00 PM 11.4 52.52 0.524 8.03 7.56 10.2
11/11/2022 11:30:00 PM 11.45 52.61 0.519 8.02 10.15 10.19
11/11/2022 11:45:00 PM 11.58 52.844 0.498 8.04 159.25 10.21
11/12/2022 12:00:00 AM 11.6 52.88 0.494 8.01 26.3 10.18
11/12/2022 12:15:00 AM 11.68 53.024 0.482 8.02 36.34 10.15
11/12/2022 12:30:00 AM 11.67 53.006 0.472 8.01 41.29 10.16
11/12/2022 12:45:00 AM 11.51 52.718 0.474 7.99 38.57 10.16
11/12/2022 1:00:00 AM 11.4 52.52 0.478 7.97 30.35 10.2
11/12/2022 1:15:00 AM 11.25 52.25 0.484 7.98 33.5 10.25
11/12/2022 1:30:00 AM 11.03 51.854 0.496 8 31.89 10.36
11/12/2022 1:45:00 AM 10.89 51.602 0.501 8.01 33.79 10.44
11/12/2022 2:00:00 AM 10.93 51.674 0.496 8.01 52.67 10.44
11/12/2022 2:15:00 AM 10.99 51.782 0.494 8.01 69.58 10.41
11/12/2022 2:30:00 AM 11.03 51.854 0.497 7.99 63.95 10.39
11/12/2022 2:45:00 AM 11.01 51.818 0.5 7.99 61.56 10.37
11/12/2022 3:00:00 AM 11.3 52.34 0.485 7.93 126.62 10.23
11/12/2022 3:15:00 AM 11.87 53.366 0.425 7.86 222.93 10.03
11/12/2022 3:30:00 AM 12.06 53.708 0.402 7.82 246.05 9.97
11/12/2022 3:45:00 AM 11.92 53.456 0.374 7.83 246.96 10.06
11/12/2022 4:00:00 AM 11.71 53.078 0.348 7.78 263.35 10.12
11/12/2022 4:15:00 AM 11.67 53.006 0.325 7.7 289.23 10.1
11/12/2022 4:30:00 AM 11.69 53.042 0.309 7.68 291.06 10.09
11/12/2022 4:45:00 AM 11.72 53.096 0.303 7.68 314.25 10.11
11/12/2022 5:00:00 AM 11.74 53.132 0.309 7.68 328.34 10.14
11/12/2022 5:15:00 AM 11.76 53.168 0.319 7.75 333.93 10.17
11/12/2022 5:30:00 AM 11.77 53.186 0.325 7.75 355.22 10.2
11/12/2022 5:45:00 AM 11.76 53.168 0.33 7.78 331.2 10.23
11/12/2022 6:00:00 AM 11.74 53.132 0.332 7.79 290.77 10.26
11/12/2022 6:15:00 AM 11.72 53.096 0.332 7.81 269.59 10.28
11/12/2022 6:30:00 AM 11.7 53.06 0.331 7.78 259.13 10.3
11/12/2022 6:45:00 AM 11.69 53.042 0.329 7.81 251.59 10.31
11/12/2022 7:00:00 AM 11.66 52.988 0.328 7.81 264.32 10.32
11/12/2022 7:15:00 AM 11.64 52.952 0.328 7.79 230.66 10.34
11/12/2022 7:30:00 AM 11.61 52.898 0.33 7.82 219.23 10.35
11/12/2022 7:45:00 AM 11.58 52.844 0.332 7.81 215.87 10.37
11/12/2022 8:00:00 AM 11.55 52.79 0.335 7.83 194.45 10.38
11/12/2022 8:15:00 AM 11.52 52.736 0.336 7.83 180.22 10.4
11/12/2022 8:30:00 AM 11.5 52.7 0.337 7.84 163.54 10.42
11/12/2022 8:45:00 AM 11.49 52.682 0.338 7.84 157.47 10.43
11/12/2022 9:00:00 AM 11.47 52.646 0.338 7.86 144.19 10.44
11/12/2022 9:15:00 AM 11.48 52.664 0.338 7.86 132.56 10.46
11/12/2022 9:30:00 AM 11.53 52.754 0.338 7.86 129.96 10.47
11/12/2022 9:45:00 AM 11.5 52.7 0.338 7.87 119.94 10.48
11/12/2022 10:00:00 AM 11.46 52.628 0.339 7.88 115.07 10.49
11/12/2022 10:15:00 AM 11.48 52.664 0.339 7.87 112.27 10.5
11/12/2022 10:30:00 AM 11.49 52.682 0.339 7.89 102.8 10.51
11/12/2022 10:45:00 AM 11.52 52.736 0.339 7.9 98.64 10.53
11/12/2022 11:00:00 AM 11.56 52.808 0.34 7.9 91.72 10.54
11/12/2022 11:15:00 AM 11.63 52.934 0.34 7.9 80.07 10.54
11/12/2022 11:30:00 AM 11.67 53.006 0.341 7.91 81.61 10.55
11/12/2022 11:45:00 AM 11.67 53.006 0.342 7.92 79.27 10.55
11/12/2022 12:00:00 PM 11.69 53.042 0.343 7.93 79.2 10.55
11/12/2022 12:15:00 PM 11.68 53.024 0.344 7.92 71.43 10.55
11/12/2022 12:30:00 PM 11.71 53.078 0.344 7.94 71.25 10.54
11/12/2022 12:45:00 PM 11.7 53.06 0.345 7.94 69.31 10.54
11/12/2022 1:00:00 PM 11.81 53.258 0.346 7.95 59.87 10.54
11/12/2022 1:15:00 PM 11.94 53.492 0.347 7.96 63.35 10.55
11/12/2022 1:30:00 PM 12.05 53.69 0.348 7.96 61.77 10.55
11/12/2022 1:45:00 PM 12.15 53.87 0.349 7.97 57.25 10.54
11/12/2022 2:00:00 PM 12.14 53.852 0.35 7.97 56.64 10.53
11/12/2022 2:15:00 PM 12.08 53.744 0.351 7.98 56.07 10.5
11/12/2022 2:30:00 PM 12.02 53.636 0.352 7.98 51.54 10.48
11/12/2022 2:45:00 PM 11.96 53.528 0.353 7.97 42 10.46
11/12/2022 3:00:00 PM 11.93 53.474 0.354 7.97 48.34 10.44
11/12/2022 3:15:00 PM 11.87 53.366 0.355 7.95 47.88 10.43
11/12/2022 3:30:00 PM 11.81 53.258 0.356 7.96 45.81 10.43
11/12/2022 3:45:00 PM 11.75 53.15 0.357 7.96 45.73 10.43
11/12/2022 4:00:00 PM 11.71 53.078 0.357 7.95 43.74 10.44
11/12/2022 4:15:00 PM 11.69 53.042 0.358 7.94 41.86 10.43
11/12/2022 4:30:00 PM 11.66 52.988 0.359 7.95 39.88 10.42
11/12/2022 4:45:00 PM 11.64 52.952 0.36 7.95 39.58 10.42
11/12/2022 5:00:00 PM 11.6 52.88 0.361 7.95 37.52 10.42
11/12/2022 5:15:00 PM 11.56 52.808 0.361 7.94 37.65 10.42
11/12/2022 5:30:00 PM 11.51 52.718 0.362 7.94 36.53 10.42
11/12/2022 5:45:00 PM 11.45 52.61 0.363 7.93 35.89 10.42
11/12/2022 6:00:00 PM 11.4 52.52 0.364 7.93 34.59 10.42
11/12/2022 6:15:00 PM 11.35 52.43 0.364 7.92 67.54 10.43
11/12/2022 6:30:00 PM 11.29 52.322 0.365 7.93 33.26 10.44
11/12/2022 6:45:00 PM 11.23 52.214 0.366 7.93 32.09 10.45
11/12/2022 7:00:00 PM 11.18 52.124 0.366 7.91 30.95 10.47
11/12/2022 7:15:00 PM 11.12 52.016 0.367 7.93 29.83 10.48
11/12/2022 7:30:00 PM 11.07 51.926 0.367 7.91 29.66 10.49
11/12/2022 7:45:00 PM 11 51.8 0.368 7.93 28.37 10.51
11/12/2022 8:00:00 PM 10.92 51.656 0.368 7.92 27.86 10.52
11/12/2022 8:15:00 PM 10.85 51.53 0.369 7.92 27.32 10.54
11/12/2022 8:30:00 PM 10.8 51.44 0.369 7.92 26.59 10.56
11/12/2022 8:45:00 PM 10.74 51.332 0.37 7.92 24.92 10.57
11/12/2022 9:00:00 PM 10.68 51.224 0.37 7.92 26.03 10.58
11/12/2022 9:15:00 PM 10.62 51.116 0.371 7.92 24.28 10.6
11/12/2022 9:30:00 PM 10.56 51.008 0.372 7.92 24.17 10.62
11/12/2022 9:45:00 PM 10.5 50.9 0.372 7.92 25.41 10.63
11/12/2022 10:00:00 PM 10.42 50.756 0.373 7.92 23.69 10.65
11/12/2022 10:15:00 PM 10.34 50.612 0.374 7.92 24.41 10.67
11/12/2022 10:30:00 PM 10.28 50.504 0.374 7.91 22.45 10.68
11/12/2022 10:45:00 PM 10.22 50.396 0.375 7.92 22.53 10.69
11/12/2022 11:00:00 PM 10.15 50.27 0.375 7.92 21.99 10.71
11/12/2022 11:15:00 PM 10.1 50.18 0.375 7.93 22 10.73
11/12/2022 11:30:00 PM 10.04 50.072 0.376 7.93 20.44 10.74
11/12/2022 11:45:00 PM 9.97 49.946 0.376 7.92 20.73 10.76
11/13/2022 12:00:00 AM 9.87 49.766 0.377 7.91 19.36 10.78
11/13/2022 12:15:00 AM 9.8 49.64 0.378 7.93 20.19 10.8
11/13/2022 12:30:00 AM 9.73 49.514 0.378 7.92 20.65 10.82
11/13/2022 12:45:00 AM 9.65 49.37 0.379 7.91 17.4 10.84
11/13/2022 1:00:00 AM 9.57 49.226 0.379 7.92 18.37 10.86
11/13/2022 1:15:00 AM 9.48 49.064 0.38 7.93 19.35 10.89
11/13/2022 1:30:00 AM 9.41 48.938 0.38 7.91 19.07 10.9
11/13/2022 1:45:00 AM 9.33 48.794 0.381 7.92 18.95 10.92
11/13/2022 2:00:00 AM 9.25 48.65 0.381 7.92 19.27 10.94
11/13/2022 2:15:00 AM 9.2 48.56 0.382 7.92 18.09 10.96
11/13/2022 2:30:00 AM 9.16 48.488 0.382 7.93 16.91 10.98
11/13/2022 2:45:00 AM 9.11 48.398 0.383 7.91 16.76 10.99
11/13/2022 3:00:00 AM 9.05 48.29 0.384 7.92 17.15 11.02
11/13/2022 3:15:00 AM 9.01 48.218 0.384 7.91 16.37 11.03
11/13/2022 3:30:00 AM 8.97 48.146 0.385 7.93 16.72 11.04
11/13/2022 3:45:00 AM 8.92 48.056 0.385 7.91 15.73 11.06
11/13/2022 4:00:00 AM 8.87 47.966 0.386 7.93 17 11.07
11/13/2022 4:15:00 AM 8.83 47.894 0.386 7.93 15.22 11.09
11/13/2022 4:30:00 AM 8.8 47.84 0.387 7.92 15.78 11.09
11/13/2022 4:45:00 AM 8.75 47.75 0.387 7.92 15.63 11.11
11/13/2022 5:00:00 AM 8.71 47.678 0.388 7.93 16.18 11.13
11/13/2022 5:15:00 AM 8.67 47.606 0.388 7.92 16.23 11.14
11/13/2022 5:30:00 AM 8.63 47.534 0.389 7.93 15.53 11.15
11/13/2022 5:45:00 AM 8.59 47.462 0.389 7.92 15.01 11.16
11/13/2022 6:00:00 AM 8.54 47.372 0.39 7.93 14 11.18
11/13/2022 6:15:00 AM 8.5 47.3 0.39 7.93 14.59 11.19
11/13/2022 6:30:00 AM 8.46 47.228 0.39 7.92 14.64 11.21
11/13/2022 6:45:00 AM 8.42 47.156 0.391 7.93 13.4 11.22
11/13/2022 7:00:00 AM 8.39 47.102 0.391 7.93 13.08 11.23
11/13/2022 7:15:00 AM 8.35 47.03 0.392 7.92 13.24 11.24
11/13/2022 7:30:00 AM 8.3 46.94 0.392 7.93 13.7 11.27
11/13/2022 7:45:00 AM 8.27 46.886 0.392 7.93 12.8 11.29
11/13/2022 8:00:00 AM 8.23 46.814 0.393 7.93 11.88 11.33
11/13/2022 8:15:00 AM 8.2 46.76 0.393 7.93 10.93 11.37
11/13/2022 8:30:00 AM 8.18 46.724 0.393 7.94 11.53 11.4
11/13/2022 8:45:00 AM 8.14 46.652 0.394 7.95 11.1 11.45
11/13/2022 9:00:00 AM 8.12 46.616 0.394 7.95 10.54 11.48
11/13/2022 9:15:00 AM 8.07 46.526 0.394 7.96 11.02 11.51
11/13/2022 9:30:00 AM 8.02 46.436 0.394 7.97 10.27 11.54
11/13/2022 9:45:00 AM 7.96 46.328 0.394 7.97 10.49 11.57
11/13/2022 10:00:00 AM 7.99 46.382 0.394 7.98 10.46 11.62
11/13/2022 10:15:00 AM 8.02 46.436 0.395 7.99 9.89 11.68
11/13/2022 10:30:00 AM 8.05 46.49 0.395 8 9.1 11.71
11/13/2022 10:45:00 AM 8.05 46.49 0.395 8 9.03 11.74
11/13/2022 11:00:00 AM 8.1 46.58 0.396 8.01 9.16 11.76
11/13/2022 11:15:00 AM 8.18 46.724 0.396 8.02 9.07 11.76
11/13/2022 11:30:00 AM 8.26 46.868 0.397 8.02 8.42 11.81
11/13/2022 11:45:00 AM 8.3 46.94 0.397 8.04 8.62 11.84
11/13/2022 12:00:00 PM 8.3 46.94 0.397 8.05 8.27 11.86
11/13/2022 12:15:00 PM 8.32 46.976 0.397 8.05 8.38 11.88
11/13/2022 12:30:00 PM 8.25 46.85 0.398 8.06 8 11.88
11/13/2022 12:45:00 PM 8.3 46.94 0.398 8.07 8.03 11.89
11/13/2022 1:00:00 PM 8.24 46.832 0.399 8.06 8.26 11.89
11/13/2022 1:15:00 PM 8.16 46.688 0.399 8.07 7.24 11.88
11/13/2022 1:30:00 PM 8.13 46.634 0.399 8.06 7.82 11.88
11/13/2022 1:45:00 PM 8.14 46.652 0.399 8.07 7.6 11.91
11/13/2022 2:00:00 PM 8.2 46.76 0.4 8.08 7.38 11.93
11/13/2022 2:15:00 PM 8.19 46.742 0.4 8.09 7.24 11.94
11/13/2022 2:30:00 PM 8.14 46.652 0.4 8.09 7.93 11.93
11/13/2022 2:45:00 PM 8.14 46.652 0.4 8.09 7.03 11.93
11/13/2022 3:00:00 PM 8.13 46.634 0.4 8.09 6.63 11.93
11/13/2022 3:15:00 PM 8.09 46.562 0.4 8.08 6.99 11.92
11/13/2022 3:30:00 PM 8.03 46.454 0.4 8.09 6.71 11.88
11/13/2022 3:45:00 PM 7.97 46.346 0.401 8.08 6.96 11.87
11/13/2022 4:00:00 PM 7.94 46.292 0.401 8.07 6.99 11.85
11/13/2022 4:15:00 PM 7.91 46.238 0.401 8.07 6.92 11.83
11/13/2022 4:30:00 PM 7.84 46.112 0.401 8.06 6.6 11.79
11/13/2022 4:45:00 PM 7.78 46.004 0.402 8.05 6.82 11.73
11/13/2022 5:00:00 PM 7.68 45.824 0.402 8.03 6.82 11.7
11/13/2022 5:15:00 PM 7.61 45.698 0.402 8.03 6.65 11.68
11/13/2022 5:30:00 PM 7.54 45.572 0.403 8.02 6.54 11.65
11/13/2022 5:45:00 PM 7.51 45.518 0.403 8 6.81 11.62
11/13/2022 6:00:00 PM 7.47 45.446 0.403 8 6.92 11.63
11/13/2022 6:15:00 PM 7.45 45.41 0.403 8 6.94 11.63
11/13/2022 6:30:00 PM 7.41 45.338 0.404 7.99 7.93 11.62
11/13/2022 6:45:00 PM 7.4 45.32 0.404 7.98 7.16 11.62
11/13/2022 7:00:00 PM 7.38 45.284 0.404 7.98 6.91 11.61
11/13/2022 7:15:00 PM 7.34 45.212 0.404 7.98 6.77 11.63
11/13/2022 7:30:00 PM 7.28 45.104 0.404 7.96 7.5 11.62
11/13/2022 7:45:00 PM 7.19 44.942 0.404 7.97 6.92 11.65
11/13/2022 8:00:00 PM 7.14 44.852 0.404 7.96 7.31 11.66
11/13/2022 8:15:00 PM 7.09 44.762 0.405 7.96 7.3 11.67
11/13/2022 8:30:00 PM 7.04 44.672 0.405 7.96 6.77 11.68
11/13/2022 8:45:00 PM 7 44.6 0.406 7.96 6.78 11.7
11/13/2022 9:00:00 PM 6.96 44.528 0.406 7.95 7.11 11.71
11/13/2022 9:15:00 PM 6.92 44.456 0.407 7.95 6.7 11.72
11/13/2022 9:30:00 PM 6.87 44.366 0.407 7.95 7.12 11.74
11/13/2022 9:45:00 PM 6.83 44.294 0.408 7.94 7.74 11.75
11/13/2022 10:00:00 PM 6.79 44.222 0.408 7.94 7.17 11.75
11/13/2022 10:15:00 PM 6.74 44.132 0.408 7.95 7.17 11.78
11/13/2022 10:30:00 PM 6.69 44.042 0.408 7.94 7 11.8
11/13/2022 10:45:00 PM 6.64 43.952 0.409 7.94 7.23 11.82
11/13/2022 11:00:00 PM 6.57 43.826 0.409 7.94 6.9 11.84
11/13/2022 11:15:00 PM 6.52 43.736 0.41 7.94 7.09 11.86
11/13/2022 11:30:00 PM 6.46 43.628 0.41 7.94 7.08 11.87
11/13/2022 11:45:00 PM 6.41 43.538 0.41 7.94 6.94 11.89
11/14/2022 12:00:00 AM 6.35 43.43 0.41 7.93 7.07 11.91
11/14/2022 12:15:00 AM 6.29 43.322 0.411 7.93 6.5 11.93
11/14/2022 12:30:00 AM 6.22 43.196 0.411 7.93 7.06 11.94
11/14/2022 12:45:00 AM 6.14 43.052 0.412 7.92 6.73 11.96
11/14/2022 1:00:00 AM 6.03 42.854 0.412 7.93 7.02 11.99
11/14/2022 1:15:00 AM 5.93 42.674 0.413 7.92 6.81 12.02
11/14/2022 1:30:00 AM 5.84 42.512 0.413 7.93 6.49 12.05
11/14/2022 1:45:00 AM 5.77 42.386 0.414 7.92 6.54 12.07
11/14/2022 2:00:00 AM 5.68 42.224 0.414 7.92 6.44 12.1
11/14/2022 2:15:00 AM 5.61 42.098 0.414 7.92 6.91 12.13
11/14/2022 2:30:00 AM 5.53 41.954 0.415 7.92 6.24 12.15
11/14/2022 2:45:00 AM 5.47 41.846 0.415 7.92 6.45 12.18
11/14/2022 3:00:00 AM 5.41 41.738 0.415 7.92 5.86 12.2
11/14/2022 3:15:00 AM 5.35 41.63 0.416 7.91 6.39 12.23
11/14/2022 3:30:00 AM 5.3 41.54 0.416 7.92 5.84 12.26
11/14/2022 3:45:00 AM 5.26 41.468 0.416 7.92 6.01 12.26
11/14/2022 4:00:00 AM 5.21 41.378 0.417 7.92 6.07 12.3
11/14/2022 4:15:00 AM 5.17 41.306 0.417 7.92 5.95 12.32
11/14/2022 4:30:00 AM 5.14 41.252 0.418 7.92 5.72 12.33
11/14/2022 4:45:00 AM 5.1 41.18 0.418 7.92 5.83 12.35
11/14/2022 5:00:00 AM 5.07 41.126 0.419 7.93 6.01 12.36
11/14/2022 5:15:00 AM 5.07 41.126 0.419 7.92 5.2 12.34
11/14/2022 5:30:00 AM 5.02 41.036 0.419 7.93 5.21 12.39
11/14/2022 5:45:00 AM 4.98 40.964 0.419 7.93 5.68 12.4
11/14/2022 6:00:00 AM 4.95 40.91 0.42 7.92 5.33 12.38
11/14/2022 6:15:00 AM 4.91 40.838 0.42 7.93 5.43 12.42
11/14/2022 6:30:00 AM 4.88 40.784 0.42 7.92 5.18 12.42
11/14/2022 6:45:00 AM 4.82 40.676 0.42 7.93 5.22 12.46
11/14/2022 7:00:00 AM 4.78 40.604 0.42 7.93 5.01 12.48
11/14/2022 7:15:00 AM 4.75 40.55 0.42 7.92 5.08 12.51
11/14/2022 7:30:00 AM 4.75 40.55 0.42 7.93 5.17 12.54
11/14/2022 7:45:00 AM 4.75 40.55 0.421 7.94 5.19 12.58
11/14/2022 8:00:00 AM 4.77 40.586 0.421 7.95 5.4 12.63
11/14/2022 8:15:00 AM 4.8 40.64 0.421 7.96 5.04 12.68
11/14/2022 8:30:00 AM 4.83 40.694 0.421 7.97 4.52 12.74
11/14/2022 8:45:00 AM 4.88 40.784 0.421 7.98 5.32 12.8
11/14/2022 9:00:00 AM 4.94 40.892 0.421 7.99 4.77 12.86
11/14/2022 9:15:00 AM 5.01 41.018 0.422 8.01 5.16 12.9
11/14/2022 9:30:00 AM 5.08 41.144 0.422 8.01 4.57 12.95
11/14/2022 9:45:00 AM 5.16 41.288 0.422 8.03 4.8 12.98
11/14/2022 10:00:00 AM 5.33 41.594 0.422 8.03 4.44 12.99
11/14/2022 10:15:00 AM 5.47 41.846 0.422 8.05 4.67 13
11/14/2022 10:30:00 AM 5.65 42.17 0.422 8.05 4.66 12.99
11/14/2022 10:45:00 AM 5.75 42.35 0.422 8.06 4.55 12.99
11/14/2022 11:00:00 AM 5.92 42.656 0.423 8.06 4.08 12.98
11/14/2022 11:15:00 AM 6.14 43.052 0.422 8.07 4.23 12.97
11/14/2022 11:30:00 AM 6.39 43.502 0.422 8.08 4.7 12.97
11/14/2022 11:45:00 AM 6.6 43.88 0.422 8.09 4.29 12.94
11/14/2022 12:00:00 PM 6.62 43.916 0.423 8.1 4 12.92
11/14/2022 12:15:00 PM 6.57 43.826 0.423 8.11 4.12 12.91
11/14/2022 12:30:00 PM 6.42 43.556 0.423 8.1 3.99 12.91
11/14/2022 12:45:00 PM 6.3 43.34 0.424 8.11 3.81 12.94
11/14/2022 1:00:00 PM 6.25 43.25 0.424 8.11 3.71 12.95
11/14/2022 1:15:00 PM 6.2 43.16 0.424 8.11 3.99 12.96
11/14/2022 1:30:00 PM 6.16 43.088 0.424 8.11 4.21 12.96
11/14/2022 1:45:00 PM 6.17 43.106 0.424 8.12 3.99 12.95
11/14/2022 2:00:00 PM 6.17 43.106 0.424 8.13 3.79 12.93
11/14/2022 2:15:00 PM 6.17 43.106 0.424 8.13 3.95 12.92
11/14/2022 2:30:00 PM 6.18 43.124 0.425 8.13 3.79 12.9
11/14/2022 2:45:00 PM 6.18 43.124 0.425 8.13 3.48 12.88
11/14/2022 3:00:00 PM 6.16 43.088 0.425 8.13 3.82 12.87
11/14/2022 3:15:00 PM 6.12 43.016 0.426 8.13 3.53 12.85
11/14/2022 3:30:00 PM 6.08 42.944 0.426 8.14 3.43 12.83
11/14/2022 3:45:00 PM 6.03 42.854 0.426 8.12 3.64 12.8
11/14/2022 4:00:00 PM 5.98 42.764 0.427 8.12 3.47 12.77
11/14/2022 4:15:00 PM 5.94 42.692 0.427 8.12 3.73 12.73
11/14/2022 4:30:00 PM 5.91 42.638 0.427 8.11 3.73 12.68
11/14/2022 4:45:00 PM 5.87 42.566 0.427 8.1 4.15 12.62
11/14/2022 5:00:00 PM 5.83 42.494 0.428 8.09 3.29 12.57
11/14/2022 5:15:00 PM 5.8 42.44 0.428 8.07 3.65 12.52
11/14/2022 5:30:00 PM 5.78 42.404 0.429 8.06 3.82 12.47
11/14/2022 5:45:00 PM 5.76 42.368 0.429 8.05 3.87 12.43
11/14/2022 6:00:00 PM 5.75 42.35 0.43 8.04 4.2 12.4
11/14/2022 6:15:00 PM 5.73 42.314 0.43 8.04 3.95 12.38
11/14/2022 6:30:00 PM 5.72 42.296 0.43 8.03 4.06 12.35
11/14/2022 6:45:00 PM 5.72 42.296 0.431 8.03 4.43 12.34
11/14/2022 7:00:00 PM 5.71 42.278 0.431 8.01 3.69 12.32
11/14/2022 7:15:00 PM 5.72 42.296 0.431 8.01 3.92 12.31
11/14/2022 7:30:00 PM 5.72 42.296 0.431 8.01 4.01 12.3
11/14/2022 7:45:00 PM 5.72 42.296 0.431 8.01 3.94 12.28
11/14/2022 8:00:00 PM 5.73 42.314 0.431 8 8.83 12.26
11/14/2022 8:15:00 PM 5.73 42.314 0.432 7.99 4.22 12.26
11/14/2022 8:30:00 PM 5.73 42.314 0.432 7.99 4.45 12.25
11/14/2022 8:45:00 PM 5.73 42.314 0.432 7.99 4.46 12.24
11/14/2022 9:00:00 PM 5.72 42.296 0.432 7.99 4.03 12.24
11/14/2022 9:15:00 PM 5.71 42.278 0.433 7.99 4.36 12.23
11/14/2022 9:30:00 PM 5.7 42.26 0.433 7.98 4.24 12.23
11/14/2022 9:45:00 PM 5.69 42.242 0.433 7.98 4.59 12.23
11/14/2022 10:00:00 PM 5.67 42.206 0.433 7.98 4.27 12.23
11/14/2022 10:15:00 PM 5.66 42.188 0.433 7.98 4.14 12.24
11/14/2022 10:30:00 PM 5.65 42.17 0.434 7.97 4.32 12.24
11/14/2022 10:45:00 PM 5.63 42.134 0.434 7.97 4.53 12.24
11/14/2022 11:00:00 PM 5.61 42.098 0.434 7.97 4.67 12.25
11/14/2022 11:15:00 PM 5.59 42.062 0.434 7.97 4.67 12.26
11/14/2022 11:30:00 PM 5.56 42.008 0.435 7.97 4.66 12.26
11/14/2022 11:45:00 PM 5.52 41.936 0.435 7.96 4.23 12.28
11/15/2022 12:00:00 AM 5.5 41.9 0.435 7.96 4.52 12.28
11/15/2022 12:15:00 AM 5.46 41.828 0.435 7.96 4.5 12.29
11/15/2022 12:30:00 AM 5.41 41.738 0.435 7.96 4.33 12.31
11/15/2022 12:45:00 AM 5.36 41.648 0.436 7.96 4.51 12.31
11/15/2022 1:00:00 AM 5.32 41.576 0.436 7.95 4.72 12.33
11/15/2022 1:15:00 AM 5.28 41.504 0.436 7.96 5.02 12.35
11/15/2022 1:30:00 AM 5.25 41.45 0.436 7.95 4.31 12.36
11/15/2022 1:45:00 AM 5.22 41.396 0.436 7.95 4.69 12.37
11/15/2022 2:00:00 AM 5.2 41.36 0.437 7.94 4.56 12.38
11/15/2022 2:15:00 AM 5.17 41.306 0.437 7.95 4.17 12.39
11/15/2022 2:30:00 AM 5.14 41.252 0.437 7.95 4.67 12.41
11/15/2022 2:45:00 AM 5.11 41.198 0.437 7.95 4.51 12.42
11/15/2022 3:00:00 AM 5.08 41.144 0.438 7.94 4.25 12.43
11/15/2022 3:15:00 AM 5.05 41.09 0.438 7.95 4.12 12.44
11/15/2022 3:30:00 AM 5.03 41.054 0.439 7.94 4.15 12.45
11/15/2022 3:45:00 AM 5 41 0.439 7.94 4.22 12.46
11/15/2022 4:00:00 AM 4.97 40.946 0.439 7.94 4.31 12.47
11/15/2022 4:15:00 AM 4.94 40.892 0.44 7.94 4.44 12.47
11/15/2022 4:30:00 AM 4.91 40.838 0.44 7.94 4.38 12.48
11/15/2022 4:45:00 AM 4.88 40.784 0.44 7.94 4.32 12.49
11/15/2022 5:00:00 AM 4.85 40.73 0.441 7.95 4.47 12.51
11/15/2022 5:15:00 AM 4.82 40.676 0.441 7.94 4.04 12.52
11/15/2022 5:30:00 AM 4.8 40.64 0.441 7.95 4.21 12.53
11/15/2022 5:45:00 AM 4.77 40.586 0.441 7.95 4.21 12.54
11/15/2022 6:00:00 AM 4.75 40.55 0.442 7.94 4.18 12.55
11/15/2022 6:15:00 AM 4.72 40.496 0.442 7.95 4.03 12.56
11/15/2022 6:30:00 AM 4.7 40.46 0.442 7.95 3.51 12.57
11/15/2022 6:45:00 AM 4.68 40.424 0.442 7.95 3.8 12.58
11/15/2022 7:00:00 AM 4.66 40.388 0.442 7.95 3.67 12.58
11/15/2022 7:15:00 AM 4.65 40.37 0.442 7.95 3.68 12.6
11/15/2022 7:30:00 AM 4.63 40.334 0.443 7.95 3.8 12.62
11/15/2022 7:45:00 AM 4.62 40.316 0.443 7.95 3.76 12.64
11/15/2022 8:00:00 AM 4.6 40.28 0.443 7.96 3.38 12.68
11/15/2022 8:15:00 AM 4.6 40.28 0.443 7.96 3.36 12.73
11/15/2022 8:30:00 AM 4.59 40.262 0.443 7.97 3.39 12.78
11/15/2022 8:45:00 AM 4.6 40.28 0.444 7.98 3.6 12.84
11/15/2022 9:00:00 AM 4.61 40.298 0.444 7.99 3.3 12.89
11/15/2022 9:15:00 AM 4.64 40.352 0.444 8 3.33 12.95
11/15/2022 9:30:00 AM 4.66 40.388 0.445 8.02 3.27 13.01
11/15/2022 9:45:00 AM 4.69 40.442 0.445 8.02 3.19 13.07
11/15/2022 10:00:00 AM 4.73 40.514 0.445 8.04 3.31 13.12
11/15/2022 10:15:00 AM 4.74 40.532 0.445 8.05 3.33 13.16
11/15/2022 10:30:00 AM 4.77 40.586 0.445 8.06 3.33 13.19
11/15/2022 10:45:00 AM 4.78 40.604 0.445 8.07 3.03 13.21
11/15/2022 11:00:00 AM 4.79 40.622 0.445 8.07 3.24 13.22
11/15/2022 11:15:00 AM 4.78 40.604 0.445 8.08 3.07 13.21
11/15/2022 11:30:00 AM 4.79 40.622 0.445 8.08 3.21 13.22
11/15/2022 11:45:00 AM 4.78 40.604 0.445 8.08 3 13.22
11/15/2022 12:00:00 PM 4.8 40.64 0.445 8.08 3.2 13.23
11/15/2022 12:15:00 PM 4.83 40.694 0.445 8.09 3.17 13.24
11/15/2022 12:30:00 PM 4.85 40.73 0.445 8.1 3.18 13.26
11/15/2022 12:45:00 PM 4.85 40.73 0.445 8.1 3.02 13.27
11/15/2022 1:00:00 PM 4.84 40.712 0.445 8.11 3.09 13.28
11/15/2022 1:15:00 PM 4.87 40.766 0.446 8.11 2.96 13.29
11/15/2022 1:30:00 PM 4.86 40.748 0.446 8.12 2.88 13.28
11/15/2022 1:45:00 PM 4.87 40.766 0.446 8.12 2.86 13.29
11/15/2022 2:00:00 PM 4.87 40.766 0.446 8.13 3.35 13.29
11/15/2022 2:15:00 PM 4.88 40.784 0.446 8.13 3.04 13.28
11/15/2022 2:30:00 PM 4.88 40.784 0.447 8.13 2.86 13.26
11/15/2022 2:45:00 PM 4.88 40.784 0.447 8.13 2.85 13.26
11/15/2022 3:00:00 PM 4.85 40.73 0.447 8.13 2.95 13.23
11/15/2022 3:15:00 PM 4.83 40.694 0.448 8.13 2.95 13.21
11/15/2022 3:30:00 PM 4.8 40.64 0.448 8.13 2.72 13.19
11/15/2022 3:45:00 PM 4.75 40.55 0.449 8.12 2.74 13.14
11/15/2022 4:00:00 PM 4.69 40.442 0.449 8.12 2.96 13.08
11/15/2022 4:15:00 PM 4.55 40.19 0.449 8.1 2.77 13.04
11/15/2022 4:30:00 PM 4.44 39.992 0.449 8.09 2.6 12.98
11/15/2022 4:45:00 PM 4.3 39.74 0.448 8.08 2.85 12.94
11/15/2022 5:00:00 PM 4.18 39.524 0.448 8.07 2.77 12.93
11/15/2022 5:15:00 PM 4.07 39.326 0.447 8.06 3.01 12.91
11/15/2022 5:30:00 PM 3.95 39.11 0.446 8.04 2.88 12.89
11/15/2022 5:45:00 PM 3.85 38.93 0.446 8.04 2.85 12.88
11/15/2022 6:00:00 PM 3.75 38.75 0.446 8.02 3.24 12.87
11/15/2022 6:15:00 PM 3.66 38.588 0.445 8.03 3.04 12.87
11/15/2022 6:30:00 PM 3.58 38.444 0.444 8.02 3.13 12.87
11/15/2022 6:45:00 PM 3.53 38.354 0.444 8.01 3.21 12.88
11/15/2022 7:00:00 PM 3.45 38.21 0.444 8.01 3.09 12.89
11/15/2022 7:15:00 PM 3.38 38.084 0.443 8.01 3.28 12.9
11/15/2022 7:30:00 PM 3.35 38.03 0.444 8.01 3.2 12.9
11/15/2022 7:45:00 PM 3.26 37.868 0.443 8 3.1 12.91
11/15/2022 8:00:00 PM 3.19 37.742 0.443 8 2.96 12.93
11/15/2022 8:15:00 PM 3.2 37.76 0.443 8 3 12.94
11/15/2022 8:30:00 PM 3.2 37.76 0.444 8 3 12.94
11/15/2022 8:45:00 PM 3.22 37.796 0.444 8 3.02 12.95
11/15/2022 9:00:00 PM 3.26 37.868 0.445 7.99 3.18 12.95
11/15/2022 9:15:00 PM 3.31 37.958 0.445 7.99 3.1 12.95
11/15/2022 9:30:00 PM 3.34 38.012 0.449 7.99 2.83 12.95
11/15/2022 9:45:00 PM 3.37 38.066 0.451 7.99 2.84 12.95
11/15/2022 10:00:00 PM 3.4 38.12 0.452 7.99 3.19 12.94
11/15/2022 10:15:00 PM 3.44 38.192 0.451 7.99 2.91 12.94
11/15/2022 10:30:00 PM 3.48 38.264 0.451 7.99 2.94 12.93
11/15/2022 10:45:00 PM 3.51 38.318 0.451 7.98 3.02 12.92
11/15/2022 11:00:00 PM 3.53 38.354 0.451 7.99 2.88 12.91
11/15/2022 11:15:00 PM 3.54 38.372 0.45 7.98 3.06 12.91
11/15/2022 11:30:00 PM 3.54 38.372 0.45 7.98 3.47 12.91
11/15/2022 11:45:00 PM 3.54 38.372 0.449 7.98 3 12.91
11/16/2022 12:00:00 AM 3.47 38.246 0.449 7.98 2.87 12.91
11/16/2022 12:15:00 AM 3.46 38.228 0.448 7.97 2.92 12.91
11/16/2022 12:30:00 AM 3.44 38.192 0.448 7.98 2.82 12.91
11/16/2022 12:45:00 AM 3.43 38.174 0.448 7.98 2.83 12.92
11/16/2022 1:00:00 AM 3.39 38.102 0.447 7.97 3.19 12.93
11/16/2022 1:15:00 AM 3.4 38.12 0.447 7.98 3.24 12.93
11/16/2022 1:30:00 AM 3.4 38.12 0.448 7.97 3.14 12.93
11/16/2022 1:45:00 AM 3.39 38.102 0.448 7.97 3.09 12.93
11/16/2022 2:00:00 AM 3.38 38.084 0.447 7.97 3.1 12.94
11/16/2022 2:15:00 AM 3.39 38.102 0.447 7.97 2.86 12.93
11/16/2022 2:30:00 AM 3.4 38.12 0.447 7.97 3.26 12.93
11/16/2022 2:45:00 AM 3.41 38.138 0.446 7.97 3.34 12.93
11/16/2022 3:00:00 AM 3.42 38.156 0.446 7.97 3.14 12.93
11/16/2022 3:15:00 AM 3.42 38.156 0.445 7.96 3.21 12.93
11/16/2022 3:30:00 AM 3.42 38.156 0.444 7.96 3.12 12.93
11/16/2022 3:45:00 AM 3.42 38.156 0.444 7.96 2.75 12.93
11/16/2022 4:00:00 AM 3.42 38.156 0.444 7.97 3.18 12.93
11/16/2022 4:15:00 AM 3.41 38.138 0.444 7.95 2.93 12.93
11/16/2022 4:30:00 AM 3.4 38.12 0.443 7.96 3.05 12.93
11/16/2022 4:45:00 AM 3.38 38.084 0.443 7.96 3.06 12.93
11/16/2022 5:00:00 AM 3.37 38.066 0.442 7.96 3.02 12.94
11/16/2022 5:15:00 AM 3.35 38.03 0.442 7.96 2.7 12.94
11/16/2022 5:30:00 AM 3.33 37.994 0.442 7.96 2.99 12.95
11/16/2022 5:45:00 AM 3.32 37.976 0.442 7.96 2.89 12.95
11/16/2022 6:00:00 AM 3.3 37.94 0.443 7.96 2.96 12.95
11/16/2022 6:15:00 AM 3.29 37.922 0.444 7.96 2.94 12.95
11/16/2022 6:30:00 AM 3.3 37.94 0.444 7.96 2.98 12.95
11/16/2022 6:45:00 AM 3.3 37.94 0.445 7.96 2.84 12.95
11/16/2022 7:00:00 AM 3.3 37.94 0.446 7.95 2.93 12.95
11/16/2022 7:15:00 AM 3.31 37.958 0.447 7.96 2.61 12.95
11/16/2022 7:30:00 AM 3.32 37.976 0.448 7.96 2.68 12.95
11/16/2022 7:45:00 AM 3.33 37.994 0.449 7.96 2.86 12.97
11/16/2022 8:00:00 AM 3.34 38.012 0.449 7.96 2.95 12.99
11/16/2022 8:15:00 AM 3.36 38.048 0.45 7.97 2.79 13.03
11/16/2022 8:30:00 AM 3.45 38.21 0.45 7.97 2.71 13.08
11/16/2022 8:45:00 AM 3.53 38.354 0.45 7.99 2.54 13.14
11/16/2022 9:00:00 AM 3.58 38.444 0.45 8 2.55 13.22
11/16/2022 9:15:00 AM 3.71 38.678 0.45 8.02 2.76 13.28
11/16/2022 9:30:00 AM 3.8 38.84 0.451 8.03 2.79 13.31
11/16/2022 9:45:00 AM 3.92 39.056 0.451 8.04 2.86 13.35
11/16/2022 10:00:00 AM 4.2 39.56 0.45 8.05 2.56 13.37
11/16/2022 10:15:00 AM 4.36 39.848 0.451 8.06 2.61 13.35
11/16/2022 10:30:00 AM 4.48 40.064 0.451 8.08 2.68 13.38
11/16/2022 10:45:00 AM 4.75 40.55 0.451 8.09 2.59 13.38
11/16/2022 11:00:00 AM 5.01 41.018 0.451 8.1 2.91 13.35
11/16/2022 11:15:00 AM 5.16 41.288 0.451 8.11 2.65 13.33
11/16/2022 11:30:00 AM 5.23 41.414 0.451 8.12 2.72 13.32
11/16/2022 11:45:00 AM 5.29 41.522 0.451 8.12 2.68 13.29
11/16/2022 12:00:00 PM 5.35 41.63 0.451 8.14 2.63 13.27
11/16/2022 12:15:00 PM 5.38 41.684 0.451 8.13 2.57 13.24
11/16/2022 12:30:00 PM 5.36 41.648 0.452 8.14 2.37 13.25
11/16/2022 12:45:00 PM 5.36 41.648 0.452 8.14 2.76 13.26
11/16/2022 1:00:00 PM 5.36 41.648 0.452 8.15 2.61 13.26
11/16/2022 1:15:00 PM 5.37 41.666 0.452 8.16 2.39 13.24
11/16/2022 1:30:00 PM 5.31 41.558 0.452 8.16 2.59 13.23
11/16/2022 1:45:00 PM 5.26 41.468 0.452 8.16 2.61 13.22
11/16/2022 2:00:00 PM 5.19 41.342 0.452 8.15 2.72 13.2
11/16/2022 2:15:00 PM 5.11 41.198 0.452 8.16 2.4 13.18
11/16/2022 2:30:00 PM 5.05 41.09 0.451 8.15 2.56 13.15
11/16/2022 2:45:00 PM 4.99 40.982 0.451 8.15 2.58 13.08
11/16/2022 3:00:00 PM 4.94 40.892 0.451 8.14 2.57 13.02
11/16/2022 3:15:00 PM 4.92 40.856 0.451 8.13 2.46 12.99
11/16/2022 3:30:00 PM 4.89 40.802 0.451 8.13 2.57 12.97
11/16/2022 3:45:00 PM 4.86 40.748 0.451 8.13 2.54 12.97
11/16/2022 4:00:00 PM 4.84 40.712 0.451 8.12 2.44 12.93
11/16/2022 4:15:00 PM 4.82 40.676 0.451 8.12 2.52 12.88
11/16/2022 4:30:00 PM 4.78 40.604 0.451 8.1 2.4 12.83
11/16/2022 4:45:00 PM 4.74 40.532 0.451 8.1 2.5 12.78
11/16/2022 5:00:00 PM 4.72 40.496 0.451 8.09 2.81 12.74
11/16/2022 5:15:00 PM 4.69 40.442 0.451 8.07 2.74 12.7
11/16/2022 5:30:00 PM 4.68 40.424 0.452 8.07 2.7 12.66
11/16/2022 5:45:00 PM 4.66 40.388 0.452 8.07 2.83 12.63
11/16/2022 6:00:00 PM 4.63 40.334 0.452 8.06 2.65 12.6
11/16/2022 6:15:00 PM 4.61 40.298 0.453 8.05 2.84 12.58
11/16/2022 6:30:00 PM 4.59 40.262 0.453 8.04 2.71 12.57
11/16/2022 6:45:00 PM 4.57 40.226 0.453 8.04 2.68 12.55
11/16/2022 7:00:00 PM 4.55 40.19 0.453 8.03 2.91 12.55
11/16/2022 7:15:00 PM 4.54 40.172 0.453 8.04 2.8 12.54
11/16/2022 7:30:00 PM 4.53 40.154 0.453 8.02 2.83 12.53
11/16/2022 7:45:00 PM 4.52 40.136 0.453 8.03 3.03 12.53
11/16/2022 8:00:00 PM 4.5 40.1 0.453 8.03 3.03 12.53
11/16/2022 8:15:00 PM 4.49 40.082 0.453 8.02 3.09 12.52
11/16/2022 8:30:00 PM 4.47 40.046 0.453 8.02 3.19 12.52
11/16/2022 8:45:00 PM 4.45 40.01 0.453 8.02 3.06 12.52
11/16/2022 9:00:00 PM 4.44 39.992 0.453 8.01 2.97 12.52
11/16/2022 9:15:00 PM 4.43 39.974 0.452 8.02 3 12.52
11/16/2022 9:30:00 PM 4.42 39.956 0.452 8.01 3.17 12.52
11/16/2022 9:45:00 PM 4.42 39.956 0.452 8.01 3.41 12.51
11/16/2022 10:00:00 PM 4.42 39.956 0.452 8.02 3.91 12.52
11/16/2022 10:15:00 PM 4.4 39.92 0.453 8 4.76 12.52
11/16/2022 10:30:00 PM 4.38 39.884 0.455 8.01 5.91 12.52
11/16/2022 10:45:00 PM 4.37 39.866 0.457 8 6.74 12.52
11/16/2022 11:00:00 PM 4.34 39.812 0.458 8 7.69 12.52
11/16/2022 11:15:00 PM 4.32 39.776 0.458 8 8.3 12.53
11/16/2022 11:30:00 PM 4.29 39.722 0.457 8 8.31 12.54
11/16/2022 11:45:00 PM 4.26 39.668 0.456 8 7.23 12.55
11/17/2022 12:00:00 AM 4.23 39.614 0.455 8 6.71 12.56
11/17/2022 12:15:00 AM 4.2 39.56 0.454 7.99 6.88 12.56
11/17/2022 12:30:00 AM 4.18 39.524 0.452 7.99 7.04 12.57
11/17/2022 12:45:00 AM 4.15 39.47 0.451 7.99 6.33 12.59
11/17/2022 1:00:00 AM 4.1 39.38 0.449 7.99 5.74 12.59
11/17/2022 1:15:00 AM 4.07 39.326 0.448 8 5.66 12.61
11/17/2022 1:30:00 AM 4.03 39.254 0.447 7.99 5.12 12.62
11/17/2022 1:45:00 AM 4 39.2 0.446 7.99 4.99 12.63
11/17/2022 2:00:00 AM 3.98 39.164 0.445 7.99 4.95 12.64
11/17/2022 2:15:00 AM 3.94 39.092 0.444 7.99 4.71 12.65
11/17/2022 2:30:00 AM 3.93 39.074 0.443 7.99 4.42 12.66
11/17/2022 2:45:00 AM 3.9 39.02 0.442 7.99 4.05 12.67
11/17/2022 3:00:00 AM 3.88 38.984 0.442 7.98 4.35 12.68
11/17/2022 3:15:00 AM 3.86 38.948 0.441 7.99 4 12.69
11/17/2022 3:30:00 AM 3.83 38.894 0.44 7.97 3.93 12.7
11/17/2022 3:45:00 AM 3.79 38.822 0.439 7.99 3.95 12.71
11/17/2022 4:00:00 AM 3.76 38.768 0.438 7.97 3.51 12.72
11/17/2022 4:15:00 AM 3.73 38.714 0.437 7.98 3.82 12.73
11/17/2022 4:30:00 AM 3.69 38.642 0.436 7.98 3.58 12.74
11/17/2022 4:45:00 AM 3.66 38.588 0.436 7.98 3.83 12.75
11/17/2022 5:00:00 AM 3.63 38.534 0.435 7.98 3.67 12.76
11/17/2022 5:15:00 AM 3.59 38.462 0.434 7.98 3.7 12.77
11/17/2022 5:30:00 AM 3.56 38.408 0.434 7.98 3.67 12.78
11/17/2022 5:45:00 AM 3.52 38.336 0.433 7.98 3.65 12.8
11/17/2022 6:00:00 AM 3.49 38.282 0.433 7.98 3.33 12.81
11/17/2022 6:15:00 AM 3.47 38.246 0.432 7.98 3.48 12.82
11/17/2022 6:30:00 AM 3.42 38.156 0.432 7.97 3.61 12.83
11/17/2022 6:45:00 AM 3.37 38.066 0.432 7.98 3.48 12.85
11/17/2022 7:00:00 AM 3.31 37.958 0.431 7.97 3.44 12.87
11/17/2022 7:15:00 AM 3.24 37.832 0.43 7.98 3.41 12.9
11/17/2022 7:30:00 AM 3.22 37.796 0.43 7.98 3.36 12.92
11/17/2022 7:45:00 AM 3.18 37.724 0.429 7.98 3.36 12.98
11/17/2022 8:00:00 AM 3.2 37.76 0.429 7.99 3.33 13.04
11/17/2022 8:15:00 AM 3.2 37.76 0.428 8 3.41 13.11
11/17/2022 8:30:00 AM 3.2 37.76 0.428 8.01 3.12 13.19
11/17/2022 8:45:00 AM 3.19 37.742 0.427 8.02 3.22 13.25
11/17/2022 9:00:00 AM 3.22 37.796 0.427 8.04 3.17 13.32
11/17/2022 9:15:00 AM 3.29 37.922 0.426 8.05 3.55 13.37
11/17/2022 9:30:00 AM 3.38 38.084 0.425 8.06 3 13.42
11/17/2022 9:45:00 AM 3.54 38.372 0.425 8.07 3.61 13.46
11/17/2022 10:00:00 AM 3.66 38.588 0.424 8.08 3.9 13.48
11/17/2022 10:15:00 AM 3.79 38.822 0.424 8.09 3.27 13.51
11/17/2022 10:30:00 AM 3.92 39.056 0.423 8.1 3.68 13.52
11/17/2022 10:45:00 AM 4 39.2 0.423 8.11 3.06 13.54
11/17/2022 11:00:00 AM 4.15 39.47 0.423 8.12 3.17 13.53
11/17/2022 11:15:00 AM 4.29 39.722 0.422 8.13 2.96 13.53
11/17/2022 11:30:00 AM 4.47 40.046 0.422 8.14 2.83 13.51
11/17/2022 11:45:00 AM 4.53 40.154 0.421 8.14 3.08 13.5
11/17/2022 12:00:00 PM 4.48 40.064 0.421 8.15 2.93 13.48
11/17/2022 12:15:00 PM 4.44 39.992 0.421 8.15 3.06 13.45
11/17/2022 12:30:00 PM 4.43 39.974 0.421 8.15 2.92 13.45
11/17/2022 12:45:00 PM 4.4 39.92 0.42 8.15 2.66 13.46
11/17/2022 1:00:00 PM 4.43 39.974 0.42 8.17 2.72 13.49
11/17/2022 1:15:00 PM 4.49 40.082 0.42 8.17 2.76 13.48
11/17/2022 1:30:00 PM 4.48 40.064 0.42 8.18 2.89 13.47
11/17/2022 1:45:00 PM 4.36 39.848 0.421 8.18 2.65 13.49
11/17/2022 2:00:00 PM 4.32 39.776 0.421 8.19 2.82 13.49
11/17/2022 2:15:00 PM 4.32 39.776 0.421 8.18 2.75 13.45
11/17/2022 2:30:00 PM 4.27 39.686 0.422 8.18 2.75 13.43
11/17/2022 2:45:00 PM 4.25 39.65 0.422 8.19 2.66 13.44
11/17/2022 3:00:00 PM 4.16 39.488 0.423 8.18 2.65 13.42
11/17/2022 3:15:00 PM 4.14 39.452 0.424 8.19 2.66 13.41
11/17/2022 3:30:00 PM 4.08 39.344 0.424 8.19 2.69 13.4
11/17/2022 3:45:00 PM 4.03 39.254 0.425 8.18 2.53 13.41
11/17/2022 4:00:00 PM 3.99 39.182 0.426 8.18 2.65 13.4
11/17/2022 4:15:00 PM 3.95 39.11 0.427 8.18 2.5 13.36
11/17/2022 4:30:00 PM 3.9 39.02 0.427 8.16 2.72 13.31
11/17/2022 4:45:00 PM 3.85 38.93 0.428 8.16 2.65 13.27
11/17/2022 5:00:00 PM 3.8 38.84 0.428 8.15 2.66 13.21
11/17/2022 5:15:00 PM 3.76 38.768 0.429 8.14 2.49 13.15
11/17/2022 5:30:00 PM 3.72 38.696 0.429 8.11 2.54 13.1
11/17/2022 5:45:00 PM 3.66 38.588 0.43 8.11 2.78 13.06
11/17/2022 6:00:00 PM 3.61 38.498 0.43 8.09 2.51 13.03
11/17/2022 6:15:00 PM 3.55 38.39 0.43 8.09 2.69 13.01
11/17/2022 6:30:00 PM 3.49 38.282 0.43 8.08 2.63 13
11/17/2022 6:45:00 PM 3.43 38.174 0.431 8.07 2.68 13
11/17/2022 7:00:00 PM 3.37 38.066 0.431 8.07 2.73 13
11/17/2022 7:15:00 PM 3.33 37.994 0.431 8.06 2.75 13
11/17/2022 7:30:00 PM 3.28 37.904 0.432 8.06 2.93 13
11/17/2022 7:45:00 PM 3.23 37.814 0.432 8.05 2.84 13.01
11/17/2022 8:00:00 PM 3.17 37.706 0.433 8.05 2.79 13.01
11/17/2022 8:15:00 PM 3.15 37.67 0.433 8.05 2.86 13.02
11/17/2022 8:30:00 PM 3.15 37.67 0.433 8.04 2.94 13.01
11/17/2022 8:45:00 PM 3.17 37.706 0.434 8.04 3.09 13.01
11/17/2022 9:00:00 PM 3.18 37.724 0.434 8.03 2.95 13
11/17/2022 9:15:00 PM 3.2 37.76 0.434 8.03 3.03 13
11/17/2022 9:30:00 PM 3.22 37.796 0.435 8.03 3.27 12.99
11/17/2022 9:45:00 PM 3.24 37.832 0.435 8.03 2.8 12.98
11/17/2022 10:00:00 PM 3.24 37.832 0.435 8.02 3.06 12.99
11/17/2022 10:15:00 PM 3.25 37.85 0.435 8.02 3.14 12.98
11/17/2022 10:30:00 PM 3.26 37.868 0.435 8.02 3.12 12.98
11/17/2022 10:45:00 PM 3.26 37.868 0.435 8.02 3.04 12.98
11/17/2022 11:00:00 PM 3.25 37.85 0.435 8.02 3.16 12.98
11/17/2022 11:15:00 PM 3.24 37.832 0.435 8.02 3.07 12.98
11/17/2022 11:30:00 PM 3.2 37.76 0.436 8.01 3.14 12.99
11/17/2022 11:45:00 PM 3.16 37.688 0.436 8.01 2.87 13.01
11/18/2022 12:00:00 AM 3.11 37.598 0.436 8.01 2.92 13.02
11/18/2022 12:15:00 AM 3.06 37.508 0.436 8.01 3.08 13.03
11/18/2022 12:30:00 AM 2.99 37.382 0.436 8 2.93 13.06
11/18/2022 12:45:00 AM 2.93 37.274 0.437 8 3.23 13.07
11/18/2022 1:00:00 AM 2.88 37.184 0.437 8 2.95 13.09
11/18/2022 1:15:00 AM 2.82 37.076 0.437 8 3.05 13.1
11/18/2022 1:30:00 AM 2.75 36.95 0.437 8 3.17 13.13
11/18/2022 1:45:00 AM 2.68 36.824 0.437 8 3.13 13.15
11/18/2022 2:00:00 AM 2.61 36.698 0.437 8 2.77 13.17
11/18/2022 2:15:00 AM 2.55 36.59 0.438 7.99 2.92 13.19
11/18/2022 2:30:00 AM 2.48 36.464 0.438 7.99 3.05 13.21
11/18/2022 2:45:00 AM 2.41 36.338 0.438 7.99 3.08 13.23
11/18/2022 3:00:00 AM 2.31 36.158 0.439 7.99 2.9 13.26
11/18/2022 3:15:00 AM 2.22 35.996 0.439 7.99 2.96 13.29
11/18/2022 3:30:00 AM 2.14 35.852 0.44 7.99 2.85 13.31
11/18/2022 3:45:00 AM 2.05 35.69 0.44 7.98 2.94 13.34
11/18/2022 4:00:00 AM 1.97 35.546 0.441 7.99 2.82 13.37
11/18/2022 4:15:00 AM 1.9 35.42 0.441 7.98 2.97 13.4
11/18/2022 4:30:00 AM 1.83 35.294 0.441 7.98 2.88 13.43
11/18/2022 4:45:00 AM 1.76 35.168 0.442 7.98 2.99 13.47
11/18/2022 5:00:00 AM 1.69 35.042 0.442 7.98 2.8 13.49
11/18/2022 5:15:00 AM 1.62 34.916 0.442 7.98 2.76 13.52
11/18/2022 5:30:00 AM 1.57 34.826 0.442 7.98 2.65 13.54
11/18/2022 5:45:00 AM 1.52 34.736 0.442 7.98 2.55 13.56
11/18/2022 6:00:00 AM 1.48 34.664 0.442 7.98 2.67 13.58
11/18/2022 6:15:00 AM 1.42 34.556 0.442 7.98 2.8 13.6
11/18/2022 6:30:00 AM 1.39 34.502 0.442 7.98 2.62 13.62
11/18/2022 6:45:00 AM 1.34 34.412 0.442 7.98 2.55 13.64
11/18/2022 7:00:00 AM 1.32 34.376 0.442 7.98 2.59 13.66
11/18/2022 7:15:00 AM 1.29 34.322 0.442 7.98 2.59 13.68
11/18/2022 7:30:00 AM 1.31 34.358 0.442 7.98 2.53 13.7
11/18/2022 7:45:00 AM 1.32 34.376 0.442 7.99 2.44 13.74
11/18/2022 8:00:00 AM 1.31 34.358 0.443 7.99 2.34 13.79
11/18/2022 8:15:00 AM 1.34 34.412 0.443 8 2.49 13.85
11/18/2022 8:30:00 AM 1.38 34.484 0.443 8.01 2.53 13.9
11/18/2022 8:45:00 AM 1.43 34.574 0.443 8.02 2.45 13.97
11/18/2022 9:00:00 AM 1.47 34.646 0.443 8.03 2.6 14.04
11/18/2022 9:15:00 AM 1.58 34.844 0.443 8.05 2.35 14.09
11/18/2022 9:30:00 AM 1.69 35.042 0.443 8.06 2.5 14.13
11/18/2022 9:45:00 AM 1.82 35.276 0.443 8.07 2.43 14.15
11/18/2022 10:00:00 AM 2.02 35.636 0.442 8.08 2.32 14.16
11/18/2022 10:15:00 AM 2.21 35.978 0.442 8.09 2.38 14.17
11/18/2022 10:30:00 AM 2.42 36.356 0.441 8.11 2.24 14.17
11/18/2022 10:45:00 AM 2.63 36.734 0.441 8.12 2.31 14.15
11/18/2022 11:00:00 AM 2.89 37.202 0.44 8.12 2.17 14.13
11/18/2022 11:15:00 AM 3.06 37.508 0.44 8.13 2.22 14.1
11/18/2022 11:30:00 AM 3.27 37.886 0.439 8.14 2.32 14.06
11/18/2022 11:45:00 AM 3.48 38.264 0.439 8.15 2.33 14.02
11/18/2022 12:00:00 PM 3.65 38.57 0.439 8.15 2.21 13.99
11/18/2022 12:15:00 PM 3.68 38.624 0.439 8.16 2.2 13.96
11/18/2022 12:30:00 PM 3.69 38.642 0.439 8.16 2.36 13.96
11/18/2022 12:45:00 PM 3.76 38.768 0.439 8.17 2.16 13.93
11/18/2022 1:00:00 PM 3.76 38.768 0.439 8.17 2.24 13.9
11/18/2022 1:15:00 PM 3.75 38.75 0.439 8.17 2.15 13.9
11/18/2022 1:30:00 PM 3.68 38.624 0.439 8.18 2.03 13.91
11/18/2022 1:45:00 PM 3.69 38.642 0.439 8.18 2.15 13.92
11/18/2022 2:00:00 PM 3.75 38.75 0.439 8.18 2.15 13.91
11/18/2022 2:15:00 PM 3.73 38.714 0.439 8.18 2.15 13.9
11/18/2022 2:30:00 PM 3.66 38.588 0.439 8.18 1.93 13.91
11/18/2022 2:45:00 PM 3.55 38.39 0.44 8.19 2.12 13.92
11/18/2022 3:00:00 PM 3.51 38.318 0.44 8.18 2.09 13.93
11/18/2022 3:15:00 PM 3.47 38.246 0.44 8.19 2.07 13.92
11/18/2022 3:30:00 PM 3.4 38.12 0.44 8.2 2.1 13.92
11/18/2022 3:45:00 PM 3.31 37.958 0.44 8.19 2.17 13.91
11/18/2022 4:00:00 PM 3.18 37.724 0.44 8.19 2.11 13.88
11/18/2022 4:15:00 PM 3.08 37.544 0.44 8.19 2.15 13.85
11/18/2022 4:30:00 PM 2.95 37.31 0.441 8.17 2.21 13.81
11/18/2022 4:45:00 PM 2.84 37.112 0.441 8.16 2.1 13.76
11/18/2022 5:00:00 PM 2.78 37.004 0.441 8.15 2.15 13.71
11/18/2022 5:15:00 PM 2.71 36.878 0.441 8.14 2.15 13.65
11/18/2022 5:30:00 PM 2.62 36.716 0.442 8.13 2.06 13.6
11/18/2022 5:45:00 PM 2.53 36.554 0.442 8.11 2.13 13.55
11/18/2022 6:00:00 PM 2.44 36.392 0.442 8.1 2.07 13.52
11/18/2022 6:15:00 PM 2.34 36.212 0.443 8.09 2.17 13.5
11/18/2022 6:30:00 PM 2.25 36.05 0.443 8.08 2.14 13.49
11/18/2022 6:45:00 PM 2.17 35.906 0.443 8.08 2.19 13.49
11/18/2022 7:00:00 PM 2.08 35.744 0.443 8.06 2.19 13.49
11/18/2022 7:15:00 PM 2.02 35.636 0.443 8.06 2.12 13.5
11/18/2022 7:30:00 PM 1.96 35.528 0.443 8.06 2.44 13.5
11/18/2022 7:45:00 PM 1.88 35.384 0.444 8.05 2.09 13.52
11/18/2022 8:00:00 PM 1.82 35.276 0.444 8.05 2.22 13.54
11/18/2022 8:15:00 PM 1.74 35.132 0.444 8.05 2.18 13.56
11/18/2022 8:30:00 PM 1.67 35.006 0.445 8.05 2.3 13.58
11/18/2022 8:45:00 PM 1.61 34.898 0.445 8.04 2.16 13.59
11/18/2022 9:00:00 PM 1.55 34.79 0.446 8.04 2.37 13.6
11/18/2022 9:15:00 PM 1.5 34.7 0.446 8.04 2.27 13.61
11/18/2022 9:30:00 PM 1.46 34.628 0.447 8.03 2.34 13.63
11/18/2022 9:45:00 PM 1.42 34.556 0.447 8.03 2.36 13.64
11/18/2022 10:00:00 PM 1.39 34.502 0.447 8.04 2.31 13.64
11/18/2022 10:15:00 PM 1.36 34.448 0.447 8.02 2.33 13.65
11/18/2022 10:30:00 PM 1.33 34.394 0.448 8.03 2.31 13.66
11/18/2022 10:45:00 PM 1.3 34.34 0.448 8.02 2.21 13.67
11/18/2022 11:00:00 PM 1.25 34.25 0.448 8.02 2.26 13.68
11/18/2022 11:15:00 PM 1.23 34.214 0.448 8.02 2.38 13.68
11/18/2022 11:30:00 PM 1.2 34.16 0.448 8.02 2.45 13.69
11/18/2022 11:45:00 PM 1.17 34.106 0.448 8.01 2.34 13.7
11/19/2022 12:00:00 AM 1.14 34.052 0.448 8.02 2.29 13.71
11/19/2022 12:15:00 AM 1.11 33.998 0.448 8 2.34 13.72
11/19/2022 12:30:00 AM 1.07 33.926 0.448 8.01 2.26 13.73
11/19/2022 12:45:00 AM 1.03 33.854 0.448 8.01 2.49 13.75
11/19/2022 1:00:00 AM 0.99 33.782 0.448 8 2.58 13.77
11/19/2022 1:15:00 AM 0.94 33.692 0.449 8 2.48 13.78
11/19/2022 1:30:00 AM 0.89 33.602 0.449 8 2.33 13.8
11/19/2022 1:45:00 AM 0.83 33.494 0.45 8 2.44 13.82
11/19/2022 2:00:00 AM 0.76 33.368 0.45 8 2.43 13.85
11/19/2022 2:15:00 AM 0.69 33.242 0.45 8 2.34 13.88
11/19/2022 2:30:00 AM 0.62 33.116 0.451 8 2.55 13.91
11/19/2022 2:45:00 AM 0.57 33.026 0.451 7.99 2.38 13.94
11/19/2022 3:00:00 AM 0.51 32.918 0.452 7.99 2.4 13.97
11/19/2022 3:15:00 AM 0.44 32.792 0.452 7.99 2.3 14
11/19/2022 3:30:00 AM 0.39 32.702 0.452 7.99 2.42 14.03
11/19/2022 3:45:00 AM 0.34 32.612 0.452 7.99 2.39 14.06
11/19/2022 4:00:00 AM 0.3 32.54 0.452 7.98 2.43 14.08
11/19/2022 4:15:00 AM 0.25 32.45 0.452 7.98 2.42 14.11
11/19/2022 4:30:00 AM 0.21 32.378 0.452 7.98 2.53 14.13
11/19/2022 4:45:00 AM 0.17 32.306 0.453 7.98 2.42 14.16
11/19/2022 5:00:00 AM 0.13 32.234 0.453 7.98 2.39 14.19
11/19/2022 5:15:00 AM 0.09 32.162 0.453 7.98 2.35 14.22
11/19/2022 5:30:00 AM 0.05 32.09 0.453 7.98 2.45 14.24
11/19/2022 5:45:00 AM 0.01 32.018 0.454 7.98 2.37 14.27
11/19/2022 6:00:00 AM -0.02 31.964 0.454 7.98 2.25 14.29
11/19/2022 6:15:00 AM -0.05 31.91 0.454 7.97 2.27 14.3
11/19/2022 6:30:00 AM -0.08 31.856 0.455 7.98 2.19 14.33
11/19/2022 6:45:00 AM -0.1 31.82 0.455 7.98 2.51 14.35
11/19/2022 7:00:00 AM -0.1 31.82 0.456 7.98 2.27 14.38
11/19/2022 7:15:00 AM -0.09 31.838 0.456 7.98 2.39 14.4
11/19/2022 7:30:00 AM -0.08 31.856 0.457 7.98 2.3 14.41
11/19/2022 7:45:00 AM -0.07 31.874 0.457 7.98 2.25 14.47
11/19/2022 8:00:00 AM -0.06 31.892 0.458 7.98 2.44 14.51
11/19/2022 8:15:00 AM -0.03 31.946 0.458 7.99 2.26 14.55
11/19/2022 8:30:00 AM 0.01 32.018 0.458 7.99 2.4 14.6
11/19/2022 8:45:00 AM 0.05 32.09 0.458 8 2.2 14.65
11/19/2022 9:00:00 AM 0.08 32.144 0.458 8.01 2.16 14.71
11/19/2022 9:15:00 AM 0.11 32.198 0.458 8.01 2.24 14.75
11/19/2022 9:30:00 AM 0.14 32.252 0.458 8.02 2.13 14.78
11/19/2022 9:45:00 AM 0.24 32.432 0.457 8.03 2.14 14.81
11/19/2022 10:00:00 AM 0.33 32.594 0.457 8.04 2.3 14.84
11/19/2022 10:15:00 AM 0.43 32.774 0.456 8.04 2.37 14.86
11/19/2022 10:30:00 AM 0.55 32.99 0.456 8.05 2.26 14.87
11/19/2022 10:45:00 AM 0.77 33.386 0.456 8.07 2.06 14.86
11/19/2022 11:00:00 AM 0.89 33.602 0.455 8.08 2.13 14.82
11/19/2022 11:15:00 AM 1.05 33.89 0.454 8.09 2.15 14.77
11/19/2022 11:30:00 AM 1.23 34.214 0.453 8.09 2.21 14.72
11/19/2022 11:45:00 AM 1.43 34.574 0.453 8.1 2.22 14.69
11/19/2022 12:00:00 PM 1.48 34.664 0.452 8.12 2.33 14.65
11/19/2022 12:15:00 PM 1.58 34.844 0.452 8.12 2.13 14.61
11/19/2022 12:30:00 PM 1.67 35.006 0.452 8.13 2.09 14.57
11/19/2022 12:45:00 PM 1.68 35.024 0.452 8.13 2.06 14.53
11/19/2022 1:00:00 PM 1.7 35.06 0.453 8.12 2.14 14.51
11/19/2022 1:15:00 PM 1.7 35.06 0.453 8.13 1.91 14.52
11/19/2022 1:30:00 PM 1.7 35.06 0.453 8.13 2.02 14.52
11/19/2022 1:45:00 PM 1.76 35.168 0.453 8.14 2.03 14.5
11/19/2022 2:00:00 PM 1.86 35.348 0.453 8.14 2 14.48
11/19/2022 2:15:00 PM 1.88 35.384 0.453 8.15 1.86 14.47
11/19/2022 2:30:00 PM 1.9 35.42 0.454 8.15 2 14.48
11/19/2022 2:45:00 PM 1.9 35.42 0.454 8.15 1.96 14.5
11/19/2022 3:00:00 PM 1.91 35.438 0.454 8.16 1.99 14.49
11/19/2022 3:15:00 PM 1.91 35.438 0.455 8.15 2.03 14.48
11/19/2022 3:30:00 PM 1.83 35.294 0.455 8.16 2.08 14.48
11/19/2022 3:45:00 PM 1.73 35.114 0.455 8.16 1.97 14.49
11/19/2022 4:00:00 PM 1.61 34.898 0.455 8.16 2.05 14.49
11/19/2022 4:15:00 PM 1.48 34.664 0.456 8.15 1.88 14.48
11/19/2022 4:30:00 PM 1.4 34.52 0.455 8.15 2.06 14.45
11/19/2022 4:45:00 PM 1.3 34.34 0.455 8.14 1.98 14.41
11/19/2022 5:00:00 PM 1.18 34.124 0.455 8.13 1.94 14.36
11/19/2022 5:15:00 PM 1.07 33.926 0.454 8.12 2.03 14.33
11/19/2022 5:30:00 PM 0.98 33.764 0.454 8.1 2 14.28
11/19/2022 5:45:00 PM 0.9 33.62 0.453 8.09 2 14.24
11/19/2022 6:00:00 PM 0.84 33.512 0.452 8.08 2.1 14.21
11/19/2022 6:15:00 PM 0.8 33.44 0.452 8.06 1.97 14.18
11/19/2022 6:30:00 PM 0.77 33.386 0.451 8.06 2.05 14.16
11/19/2022 6:45:00 PM 0.74 33.332 0.451 8.05 2.08 14.13
11/19/2022 7:00:00 PM 0.72 33.296 0.452 8.04 2.05 14.12
11/19/2022 7:15:00 PM 0.71 33.278 0.452 8.04 2.08 14.1
11/19/2022 7:30:00 PM 0.69 33.242 0.452 8.04 2.01 14.09
11/19/2022 7:45:00 PM 0.68 33.224 0.453 8.03 2.13 14.08
11/19/2022 8:00:00 PM 0.67 33.206 0.454 8.03 2.17 14.07
11/19/2022 8:15:00 PM 0.67 33.206 0.455 8.03 2.14 14.06
11/19/2022 8:30:00 PM 0.66 33.188 0.455 8.03 2.12 14.06
11/19/2022 8:45:00 PM 0.64 33.152 0.456 8.03 1.97 14.06
11/19/2022 9:00:00 PM 0.61 33.098 0.457 8.02 2.12 14.07
11/19/2022 9:15:00 PM 0.59 33.062 0.458 8.02 2.13 14.07
11/19/2022 9:30:00 PM 0.58 33.044 0.458 8.02 2.07 14.08
11/19/2022 9:45:00 PM 0.54 32.972 0.459 8.02 2.18 14.08
11/19/2022 10:00:00 PM 0.51 32.918 0.46 8.02 2.04 14.09
11/19/2022 10:15:00 PM 0.47 32.846 0.461 8.02 2.13 14.1
11/19/2022 10:30:00 PM 0.44 32.792 0.461 8.02 2.04 14.1
11/19/2022 10:45:00 PM 0.41 32.738 0.462 8.02 1.97 14.11
11/19/2022 11:00:00 PM 0.36 32.648 0.462 8.02 2.01 14.11
11/19/2022 11:15:00 PM 0.32 32.576 0.463 8.02 1.96 14.12
11/19/2022 11:30:00 PM 0.29 32.522 0.463 8.02 1.89 14.13
11/19/2022 11:45:00 PM 0.25 32.45 0.464 8.01 1.95 14.13
11/20/2022 12:00:00 AM 0.23 32.414 0.465 8.01 2.1 14.14
11/20/2022 12:15:00 AM 0.19 32.342 0.465 8.01 2.12 14.15
11/20/2022 12:30:00 AM 0.13 32.234 0.466 8.01 2.16 14.16
11/20/2022 12:45:00 AM 0.09 32.162 0.466 8.01 2.1 14.17
11/20/2022 1:00:00 AM 0.05 32.09 0.467 8.01 2.05 14.18
11/20/2022 1:15:00 AM 0.01 32.018 0.467 8.01 2.06 14.19
11/20/2022 1:30:00 AM -0.03 31.946 0.468 8.01 1.96 14.2
11/20/2022 1:45:00 AM -0.06 31.892 0.468 8.01 1.94 14.21
11/20/2022 2:00:00 AM -0.08 31.856 0.469 8 2.11 14.22
11/20/2022 2:15:00 AM -0.09 31.838 0.469 8 2.06 14.23
11/20/2022 2:30:00 AM -0.09 31.838 0.47 8 2.11 14.24
11/20/2022 2:45:00 AM -0.09 31.838 0.47 8 2 14.25
11/20/2022 3:00:00 AM -0.08 31.856 0.471 8.01 2.01 14.27
11/20/2022 3:15:00 AM -0.08 31.856 0.471 8 2.2 14.28
11/20/2022 3:30:00 AM -0.08 31.856 0.472 8 2.12 14.3
11/20/2022 3:45:00 AM -0.08 31.856 0.472 8 2.01 14.31
11/20/2022 4:00:00 AM -0.07 31.874 0.473 8 2 14.32
11/20/2022 4:15:00 AM -0.07 31.874 0.474 8 2.09 14.34
11/20/2022 4:30:00 AM -0.07 31.874 0.474 8 2.09 14.35
11/20/2022 4:45:00 AM -0.07 31.874 0.475 8 2.07 14.35
11/20/2022 5:00:00 AM -0.07 31.874 0.475 8 2.32 14.36
11/20/2022 5:15:00 AM -0.07 31.874 0.476 7.99 2.28 14.36
11/20/2022 5:30:00 AM -0.07 31.874 0.476 8 2.3 14.37
11/20/2022 5:45:00 AM -0.07 31.874 0.477 7.99 2.16 14.36
11/20/2022 6:00:00 AM -0.07 31.874 0.477 7.99 2.06 14.36
11/20/2022 6:15:00 AM -0.07 31.874 0.477 7.98 1.99 14.36
11/20/2022 6:30:00 AM -0.07 31.874 0.478 7.98 2.08 14.36
11/20/2022 6:45:00 AM -0.06 31.892 0.478 7.98 2.06 14.36
11/20/2022 7:00:00 AM -0.06 31.892 0.479 7.98 2.16 14.36
11/20/2022 7:15:00 AM -0.07 31.874 0.479 7.97 2.09 14.37
11/20/2022 7:30:00 AM -0.06 31.892 0.48 7.97 1.94 14.38
11/20/2022 7:45:00 AM -0.06 31.892 0.48 7.97 2.03 14.39
11/20/2022 8:00:00 AM -0.06 31.892 0.481 7.97 2.07 14.41
11/20/2022 8:15:00 AM -0.05 31.91 0.481 7.96 1.88 14.44
11/20/2022 8:30:00 AM -0.05 31.91 0.481 7.96 2.04 14.47
11/20/2022 8:45:00 AM -0.03 31.946 0.482 7.96 2.3 14.51
11/20/2022 9:00:00 AM -0.03 31.946 0.482 7.97 2.12 14.56
11/20/2022 9:15:00 AM 0 32 0.481 7.97 2.12 14.63
11/20/2022 9:30:00 AM 0 32 0.481 7.98 2.2 14.7
11/20/2022 9:45:00 AM 0.01 32.018 0.481 7.99 1.99 14.76
11/20/2022 10:00:00 AM 0.04 32.072 0.48 8 2.06 14.8
11/20/2022 10:15:00 AM 0.04 32.072 0.479 8.01 1.99 14.82
11/20/2022 10:30:00 AM 0.04 32.072 0.478 8.02 1.99 14.83
11/20/2022 10:45:00 AM 0.06 32.108 0.477 8.01 1.98 14.85
11/20/2022 11:00:00 AM 0.08 32.144 0.476 8.03 1.99 14.87
11/20/2022 11:15:00 AM 0.09 32.162 0.476 8.05 2.08 14.9
11/20/2022 11:30:00 AM 0.12 32.216 0.475 8.05 2 14.91
11/20/2022 11:45:00 AM 0.15 32.27 0.474 8.07 1.96 14.94
11/20/2022 12:00:00 PM 0.17 32.306 0.474 8.08 1.99 14.96
11/20/2022 12:15:00 PM 0.34 32.612 0.473 8.09 1.99 14.96
11/20/2022 12:30:00 PM 0.32 32.576 0.472 8.1 1.98 14.96
11/20/2022 12:45:00 PM 0.4 32.72 0.471 8.11 1.89 14.95
11/20/2022 1:00:00 PM 0.4 32.72 0.47 8.11 2.03 14.93
11/20/2022 1:15:00 PM 0.42 32.756 0.47 8.12 2.17 14.89
11/20/2022 1:30:00 PM 0.41 32.738 0.47 8.12 2.05 14.86
11/20/2022 1:45:00 PM 0.41 32.738 0.47 8.13 1.97 14.86
11/20/2022 2:00:00 PM 0.41 32.738 0.471 8.13 1.93 14.86
11/20/2022 2:15:00 PM 0.41 32.738 0.472 8.13 2 14.85
11/20/2022 2:30:00 PM 0.41 32.738 0.472 8.14 2.03 14.85
11/20/2022 2:45:00 PM 0.42 32.756 0.472 8.14 1.88 14.85
11/20/2022 3:00:00 PM 0.43 32.774 0.472 8.14 2.02 14.85
11/20/2022 3:15:00 PM 0.41 32.738 0.473 8.15 2 14.85
11/20/2022 3:30:00 PM 0.39 32.702 0.473 8.15 2.01 14.86
11/20/2022 3:45:00 PM 0.36 32.648 0.473 8.15 1.9 14.87
11/20/2022 4:00:00 PM 0.35 32.63 0.474 8.15 2.03 14.86
11/20/2022 4:15:00 PM 0.31 32.558 0.474 8.14 1.87 14.85
11/20/2022 4:30:00 PM 0.29 32.522 0.474 8.15 1.99 14.84
11/20/2022 4:45:00 PM 0.26 32.468 0.474 8.14 1.94 14.8
11/20/2022 5:00:00 PM 0.21 32.378 0.474 8.12 1.97 14.77
11/20/2022 5:15:00 PM 0.18 32.324 0.474 8.12 2 14.73
11/20/2022 5:30:00 PM 0.14 32.252 0.473 8.11 2.06 14.7
11/20/2022 5:45:00 PM 0.1 32.18 0.472 8.1 2.02 14.67
11/20/2022 6:00:00 PM 0.07 32.126 0.47 8.08 2.12 14.63
11/20/2022 6:15:00 PM 0.06 32.108 0.468 8.07 2 14.6
11/20/2022 6:30:00 PM 0.05 32.09 0.466 8.07 2.02 14.58
11/20/2022 6:45:00 PM 0.05 32.09 0.464 8.05 1.91 14.55
11/20/2022 7:00:00 PM 0.04 32.072 0.463 8.05 2.01 14.55
11/20/2022 7:15:00 PM 0.04 32.072 0.461 8.04 1.97 14.53
11/20/2022 7:30:00 PM 0.03 32.054 0.46 8.03 1.98 14.52
11/20/2022 7:45:00 PM 0.02 32.036 0.458 8.03 1.98 14.51
11/20/2022 8:00:00 PM 0.02 32.036 0.458 8.02 2.01 14.51
11/20/2022 8:15:00 PM 0.02 32.036 0.457 8.02 1.97 14.5
11/20/2022 8:30:00 PM 0.02 32.036 0.456 8.01 2.12 14.49
11/20/2022 8:45:00 PM 0.02 32.036 0.456 8.01 2.11 14.49
11/20/2022 9:00:00 PM 0.03 32.054 0.456 8 2.11 14.48
11/20/2022 9:15:00 PM 0.03 32.054 0.457 8.01 2.13 14.48
11/20/2022 9:30:00 PM 0.03 32.054 0.458 8 2.04 14.48
11/20/2022 9:45:00 PM 0.03 32.054 0.459 8.01 2 14.48
11/20/2022 10:00:00 PM 0.03 32.054 0.461 8 2.15 14.48
11/20/2022 10:15:00 PM 0.03 32.054 0.462 8.01 2.19 14.48
11/20/2022 10:30:00 PM 0.03 32.054 0.463 8.01 2.13 14.48
11/20/2022 10:45:00 PM 0.02 32.036 0.465 8.01 2.13 14.48
11/20/2022 11:00:00 PM 0.02 32.036 0.466 8.01 2.01 14.49
11/20/2022 11:15:00 PM 0.02 32.036 0.467 8.01 2.14 14.49
11/20/2022 11:30:00 PM 0.01 32.018 0.468 8.01 1.96 14.49
11/20/2022 11:45:00 PM 0.01 32.018 0.469 8.01 2.03 14.49
11/21/2022 12:00:00 AM 0 32 0.469 8.01 2.04 14.5
11/21/2022 12:15:00 AM -0.01 31.982 0.47 8 2.11 14.5
11/21/2022 12:30:00 AM -0.01 31.982 0.471 8.01 2.04 14.5
11/21/2022 12:45:00 AM -0.02 31.964 0.471 8.01 2.04 14.5
11/21/2022 1:00:00 AM -0.03 31.946 0.472 8 2.05 14.51
11/21/2022 1:15:00 AM -0.03 31.946 0.472 8.01 2.14 14.51
11/21/2022 1:30:00 AM -0.03 31.946 0.473 8 1.94 14.51
11/21/2022 1:45:00 AM -0.04 31.928 0.474 8 2.03 14.52
11/21/2022 2:00:00 AM -0.05 31.91 0.474 8 1.99 14.52
11/21/2022 2:15:00 AM -0.06 31.892 0.475 8 2.04 14.53
11/21/2022 2:30:00 AM -0.07 31.874 0.475 8 2.07 14.53
11/21/2022 2:45:00 AM -0.07 31.874 0.475 8 2.04 14.53
11/21/2022 3:00:00 AM -0.07 31.874 0.476 8 2.01 14.53
11/21/2022 3:15:00 AM -0.08 31.856 0.476 8 2.07 14.53
11/21/2022 3:30:00 AM -0.09 31.838 0.476 8 1.91 14.54
11/21/2022 3:45:00 AM -0.09 31.838 0.477 8 2.12 14.55
11/21/2022 4:00:00 AM -0.09 31.838 0.478 8 2.07 14.55
11/21/2022 4:15:00 AM -0.09 31.838 0.479 8 2.03 14.56
11/21/2022 4:30:00 AM -0.09 31.838 0.479 7.99 2.16 14.57
11/21/2022 4:45:00 AM -0.09 31.838 0.48 8 2.12 14.58
11/21/2022 5:00:00 AM -0.09 31.838 0.481 7.99 2.09 14.58
11/21/2022 5:15:00 AM -0.09 31.838 0.482 7.99 2.16 14.58
11/21/2022 5:30:00 AM -0.09 31.838 0.483 7.99 1.96 14.58
11/21/2022 5:45:00 AM -0.09 31.838 0.484 7.99 2.06 14.58
11/21/2022 6:00:00 AM -0.08 31.856 0.485 7.98 2.04 14.58
11/21/2022 6:15:00 AM -0.09 31.838 0.486 7.98 2.12 14.58
11/21/2022 6:30:00 AM -0.09 31.838 0.487 7.98 2.05 14.58
11/21/2022 6:45:00 AM -0.09 31.838 0.488 7.98 2.07 14.58
11/21/2022 7:00:00 AM -0.08 31.856 0.489 7.98 2.04 14.58
11/21/2022 7:15:00 AM -0.08 31.856 0.489 7.97 2.05 14.59
11/21/2022 7:30:00 AM -0.07 31.874 0.49 7.97 2.02 14.6
11/21/2022 7:45:00 AM -0.07 31.874 0.491 7.97 2.09 14.61
11/21/2022 8:00:00 AM -0.06 31.892 0.492 7.97 2.02 14.63
11/21/2022 8:15:00 AM -0.04 31.928 0.492 7.97 1.99 14.65
11/21/2022 8:30:00 AM -0.02 31.964 0.493 7.97 2 14.68
11/21/2022 8:45:00 AM 0.01 32.018 0.493 7.97 1.95 14.71
11/21/2022 9:00:00 AM 0.03 32.054 0.493 7.98 1.86 14.76
11/21/2022 9:15:00 AM 0.08 32.144 0.493 7.98 1.93 14.82
11/21/2022 9:30:00 AM 0.1 32.18 0.493 7.99 1.98 14.89
11/21/2022 9:45:00 AM 0.11 32.198 0.492 8 1.89 14.95
11/21/2022 10:00:00 AM 0.13 32.234 0.491 8.01 1.95 15.01
11/21/2022 10:15:00 AM 0.14 32.252 0.49 8.02 2.01 15.05
11/21/2022 10:30:00 AM 0.16 32.288 0.489 8.03 1.94 15.08
11/21/2022 10:45:00 AM 0.19 32.342 0.488 8.04 1.97 15.1
11/21/2022 11:00:00 AM 0.2 32.36 0.487 8.05 1.97 15.1
11/21/2022 11:15:00 AM 0.24 32.432 0.486 8.06 1.98 15.11
11/21/2022 11:30:00 AM 0.33 32.594 0.484 8.08 1.91 15.11
11/21/2022 11:45:00 AM 0.45 32.81 0.483 8.09 1.96 15.11
11/21/2022 12:00:00 PM 0.66 33.188 0.481 8.11 1.97 15.08
11/21/2022 12:15:00 PM 0.75 33.35 0.479 8.12 1.84 15.05
11/21/2022 12:30:00 PM 0.84 33.512 0.477 8.13 1.91 15.01
11/21/2022 12:45:00 PM 0.95 33.71 0.475 8.14 1.91 14.94
11/21/2022 1:00:00 PM 0.94 33.692 0.475 8.14 2.06 14.88
11/21/2022 1:15:00 PM 1.01 33.818 0.474 8.15 2.1 14.82
11/21/2022 1:30:00 PM 1.03 33.854 0.474 8.15 1.97 14.77
11/21/2022 1:45:00 PM 1.06 33.908 0.474 8.16 1.97 14.74
11/21/2022 2:00:00 PM 1.07 33.926 0.474 8.15 1.9 14.71
11/21/2022 2:15:00 PM 1.11 33.998 0.474 8.16 2 14.68
11/21/2022 2:30:00 PM 1.14 34.052 0.474 8.16 1.93 14.66
11/21/2022 2:45:00 PM 1.18 34.124 0.474 8.17 1.9 14.63
11/21/2022 3:00:00 PM 1.21 34.178 0.474 8.18 2 14.61
11/21/2022 3:15:00 PM 1.24 34.232 0.474 8.17 1.97 14.6
11/21/2022 3:30:00 PM 1.25 34.25 0.475 8.18 1.92 14.59
11/21/2022 3:45:00 PM 1.24 34.232 0.475 8.17 1.97 14.58
11/21/2022 4:00:00 PM 1.23 34.214 0.476 8.18 2 14.57
11/21/2022 4:15:00 PM 1.19 34.142 0.478 8.18 1.91 14.55
11/21/2022 4:30:00 PM 1.12 34.016 0.479 8.17 1.89 14.52
11/21/2022 4:45:00 PM 1.04 33.872 0.48 8.17 1.99 14.49
11/21/2022 5:00:00 PM 0.96 33.728 0.482 8.16 1.92 14.45
11/21/2022 5:15:00 PM 0.88 33.584 0.484 8.15 1.79 14.42
11/21/2022 5:30:00 PM 0.79 33.422 0.487 8.14 1.82 14.38
11/21/2022 5:45:00 PM 0.72 33.296 0.489 8.12 1.97 14.33
11/21/2022 6:00:00 PM 0.64 33.152 0.492 8.11 1.91 14.31
11/21/2022 6:15:00 PM 0.57 33.026 0.494 8.1 1.83 14.3
11/21/2022 6:30:00 PM 0.5 32.9 0.495 8.09 1.92 14.29
11/21/2022 6:45:00 PM 0.46 32.828 0.497 8.08 1.91 14.28
11/21/2022 7:00:00 PM 0.41 32.738 0.498 8.08 1.91 14.28
11/21/2022 7:15:00 PM 0.38 32.684 0.499 8.06 1.89 14.27
11/21/2022 7:30:00 PM 0.36 32.648 0.499 8.07 1.98 14.26
11/21/2022 7:45:00 PM 0.33 32.594 0.499 8.05 1.87 14.25
11/21/2022 8:00:00 PM 0.32 32.576 0.499 8.05 1.78 14.25
11/21/2022 8:15:00 PM 0.29 32.522 0.498 8.05 1.91 14.25
11/21/2022 8:30:00 PM 0.28 32.504 0.497 8.04 1.84 14.26
11/21/2022 8:45:00 PM 0.26 32.468 0.496 8.04 1.82 14.26
11/21/2022 9:00:00 PM 0.25 32.45 0.494 8.04 1.85 14.26
11/21/2022 9:15:00 PM 0.24 32.432 0.493 8.03 1.95 14.26
11/21/2022 9:30:00 PM 0.23 32.414 0.491 8.04 1.92 14.27
11/21/2022 9:45:00 PM 0.22 32.396 0.49 8.04 1.85 14.27
11/21/2022 10:00:00 PM 0.22 32.396 0.488 8.02 1.92 14.28
11/21/2022 10:15:00 PM 0.21 32.378 0.486 8.03 1.85 14.28
11/21/2022 10:30:00 PM 0.2 32.36 0.485 8.03 2 14.28
11/21/2022 10:45:00 PM 0.18 32.324 0.483 8.03 2.02 14.29
11/21/2022 11:00:00 PM 0.17 32.306 0.482 8.01 1.92 14.3
11/21/2022 11:15:00 PM 0.17 32.306 0.481 8.02 1.99 14.3
11/21/2022 11:30:00 PM 0.15 32.27 0.48 8.02 1.92 14.31
11/21/2022 11:45:00 PM 0.13 32.234 0.479 8.01 1.9 14.33
11/22/2022 12:00:00 AM 0.1 32.18 0.479 8.01 1.95 14.34
11/22/2022 12:15:00 AM 0.08 32.144 0.478 8.01 1.88 14.36
11/22/2022 12:30:00 AM 0.06 32.108 0.478 8 1.93 14.37
11/22/2022 12:45:00 AM 0.04 32.072 0.478 8 1.94 14.39
11/22/2022 1:00:00 AM 0.01 32.018 0.478 8 1.94 14.4
11/22/2022 1:15:00 AM -0.01 31.982 0.478 8 1.8 14.42
11/22/2022 1:30:00 AM -0.03 31.946 0.479 8 1.84 14.43
11/22/2022 1:45:00 AM -0.05 31.91 0.479 8 1.92 14.45
11/22/2022 2:00:00 AM -0.07 31.874 0.479 7.99 1.97 14.46
11/22/2022 2:15:00 AM -0.08 31.856 0.479 8 2.31 14.47
11/22/2022 2:30:00 AM -0.07 31.874 0.48 7.98 1.96 14.48
11/22/2022 2:45:00 AM -0.06 31.892 0.48 7.99 1.94 14.49
11/22/2022 3:00:00 AM -0.05 31.91 0.48 7.99 1.92 14.49
11/22/2022 3:15:00 AM -0.05 31.91 0.48 7.98 1.92 14.48
11/22/2022 3:30:00 AM -0.04 31.928 0.48 7.99 1.91 14.48
11/22/2022 3:45:00 AM -0.04 31.928 0.479 7.98 2.01 14.47
11/22/2022 4:00:00 AM -0.03 31.946 0.479 7.99 1.92 14.45
11/22/2022 4:15:00 AM -0.03 31.946 0.479 7.98 1.92 14.45
11/22/2022 4:30:00 AM -0.02 31.964 0.479 7.99 1.95 14.44
11/22/2022 4:45:00 AM -0.01 31.982 0.479 7.98 2.01 14.44
11/22/2022 5:00:00 AM 0.01 32.018 0.479 7.99 2.13 14.44
11/22/2022 5:15:00 AM 0.03 32.054 0.479 7.99 1.98 14.43
11/22/2022 5:30:00 AM 0.04 32.072 0.479 7.99 1.89 14.43
11/22/2022 5:45:00 AM 0.05 32.09 0.48 7.98 2.01 14.42
11/22/2022 6:00:00 AM 0.06 32.108 0.48 7.98 1.91 14.41
11/22/2022 6:15:00 AM 0.06 32.108 0.481 7.98 2.05 14.4
11/22/2022 6:30:00 AM 0.06 32.108 0.482 7.98 1.93 14.39
11/22/2022 6:45:00 AM 0.06 32.108 0.482 7.98 2 14.4
11/22/2022 7:00:00 AM 0.04 32.072 0.483 7.98 1.99 14.41
11/22/2022 7:15:00 AM 0.03 32.054 0.484 7.98 1.87 14.42
11/22/2022 7:30:00 AM 0.01 32.018 0.485 7.98 1.94 14.45
11/22/2022 7:45:00 AM 0 32 0.486 7.98 1.88 14.48
11/22/2022 8:00:00 AM -0.01 31.982 0.487 7.99 1.94 14.53
11/22/2022 8:15:00 AM -0.02 31.964 0.488 7.98 1.97 14.58
11/22/2022 8:30:00 AM -0.02 31.964 0.489 7.99 1.89 14.63
11/22/2022 8:45:00 AM -0.01 31.982 0.489 8 1.87 14.7
11/22/2022 9:00:00 AM 0.03 32.054 0.489 8 1.91 14.77
11/22/2022 9:15:00 AM 0.11 32.198 0.489 8.02 1.87 14.83
11/22/2022 9:30:00 AM 0.21 32.378 0.489 8.03 1.89 14.88
11/22/2022 9:45:00 AM 0.28 32.504 0.489 8.04 1.86 14.92
11/22/2022 10:00:00 AM 0.42 32.756 0.488 8.05 1.9 14.95
11/22/2022 10:15:00 AM 0.5 32.9 0.487 8.06 1.85 14.96
11/22/2022 10:30:00 AM 0.69 33.242 0.486 8.07 1.82 14.96
11/22/2022 10:45:00 AM 0.82 33.476 0.485 8.08 1.82 14.95
11/22/2022 11:00:00 AM 0.96 33.728 0.484 8.09 1.81 14.93
11/22/2022 11:15:00 AM 1.08 33.944 0.482 8.11 1.7 14.91
11/22/2022 11:30:00 AM 1.28 34.304 0.481 8.12 1.85 14.89
11/22/2022 11:45:00 AM 1.46 34.628 0.48 8.13 1.81 14.87
11/22/2022 12:00:00 PM 1.63 34.934 0.479 8.14 1.81 14.84
11/22/2022 12:15:00 PM 1.8 35.24 0.478 8.15 1.84 14.79
11/22/2022 12:30:00 PM 1.99 35.582 0.476 8.16 1.75 14.74
11/22/2022 12:45:00 PM 2.16 35.888 0.475 8.17 1.82 14.68
11/22/2022 1:00:00 PM 2.3 36.14 0.474 8.18 1.83 14.62
11/22/2022 1:15:00 PM 2.43 36.374 0.473 8.19 1.91 14.56
11/22/2022 1:30:00 PM 2.57 36.626 0.473 8.2 1.92 14.49
11/22/2022 1:45:00 PM 2.66 36.788 0.473 8.2 1.87 14.44
11/22/2022 2:00:00 PM 2.83 37.094 0.473 8.2 1.77 14.4
11/22/2022 2:15:00 PM 2.91 37.238 0.472 8.21 1.76 14.37
11/22/2022 2:30:00 PM 2.96 37.328 0.473 8.22 1.82 14.33
11/22/2022 2:45:00 PM 3.01 37.418 0.473 8.22 1.78 14.31
11/22/2022 3:00:00 PM 3.04 37.472 0.473 8.22 1.85 14.29
11/22/2022 3:15:00 PM 3.07 37.526 0.473 8.23 1.88 14.27
11/22/2022 3:30:00 PM 3.08 37.544 0.474 8.23 1.79 14.24
11/22/2022 3:45:00 PM 3.04 37.472 0.475 8.23 2.11 14.21
11/22/2022 4:00:00 PM 2.97 37.346 0.475 8.21 2.65 14.2
11/22/2022 4:15:00 PM 2.88 37.184 0.476 8.22 3.46 14.18
11/22/2022 4:30:00 PM 2.77 36.986 0.477 8.21 1.8 14.16
11/22/2022 4:45:00 PM 2.65 36.77 0.478 8.21 1.87 14.12
11/22/2022 5:00:00 PM 2.52 36.536 0.479 8.19 1.78 14.08
11/22/2022 5:15:00 PM 2.38 36.284 0.48 8.17 1.86 14.05
11/22/2022 5:30:00 PM 2.23 36.014 0.48 8.16 1.86 14
11/22/2022 5:45:00 PM 2.07 35.726 0.481 8.14 1.88 13.97
11/22/2022 6:00:00 PM 1.92 35.456 0.482 8.12 1.84 13.96
11/22/2022 6:15:00 PM 1.79 35.222 0.482 8.11 1.95 13.95
11/22/2022 6:30:00 PM 1.69 35.042 0.482 8.1 1.86 13.95
11/22/2022 6:45:00 PM 1.61 34.898 0.482 8.08 1.9 13.93
11/22/2022 7:00:00 PM 1.53 34.754 0.482 8.06 1.86 13.93
11/22/2022 7:15:00 PM 1.47 34.646 0.482 8.06 1.87 13.92
11/22/2022 7:30:00 PM 1.4 34.52 0.482 8.05 1.86 13.92
11/22/2022 7:45:00 PM 1.36 34.448 0.481 8.05 1.93 13.91
11/22/2022 8:00:00 PM 1.31 34.358 0.481 8.04 1.99 13.91
11/22/2022 8:15:00 PM 1.26 34.268 0.481 8.04 1.97 13.9
11/22/2022 8:30:00 PM 1.22 34.196 0.481 8.02 2.06 13.89
11/22/2022 8:45:00 PM 1.18 34.124 0.481 8.03 2.18 13.89
11/22/2022 9:00:00 PM 1.13 34.034 0.48 8.02 2.16 13.89
11/22/2022 9:15:00 PM 1.08 33.944 0.48 8.02 2.13 13.89
11/22/2022 9:30:00 PM 1.04 33.872 0.48 8.02 2.04 13.89
11/22/2022 9:45:00 PM 1 33.8 0.48 8.02 2.07 13.9
11/22/2022 10:00:00 PM 0.96 33.728 0.48 8 1.94 13.91
11/22/2022 10:15:00 PM 0.91 33.638 0.48 8.02 1.9 13.92
11/22/2022 10:30:00 PM 0.87 33.566 0.48 8.01 1.97 13.93
11/22/2022 10:45:00 PM 0.83 33.494 0.48 8 2 13.95
11/22/2022 11:00:00 PM 0.78 33.404 0.48 8.01 1.86 13.97
11/22/2022 11:15:00 PM 0.75 33.35 0.48 8.01 1.98 13.98
11/22/2022 11:30:00 PM 0.72 33.296 0.48 8.01 2.07 14
11/22/2022 11:45:00 PM 0.69 33.242 0.48 8 1.88 14.01
11/23/2022 12:00:00 AM 0.66 33.188 0.48 8 1.9 14.03
11/23/2022 12:15:00 AM 0.63 33.134 0.48 8 2.02 14.04
11/23/2022 12:30:00 AM 0.61 33.098 0.48 8 1.98 14.05
11/23/2022 12:45:00 AM 0.59 33.062 0.48 8 1.93 14.05
11/23/2022 1:00:00 AM 0.56 33.008 0.48 8 1.99 14.06
11/23/2022 1:15:00 AM 0.52 32.936 0.48 8 1.91 14.07
11/23/2022 1:30:00 AM 0.49 32.882 0.48 7.99 1.98 14.08
11/23/2022 1:45:00 AM 0.45 32.81 0.479 7.99 1.97 14.09
11/23/2022 2:00:00 AM 0.42 32.756 0.479 7.99 1.93 14.11
11/23/2022 2:15:00 AM 0.38 32.684 0.479 7.99 2 14.12
11/23/2022 2:30:00 AM 0.35 32.63 0.479 7.99 1.96 14.13
11/23/2022 2:45:00 AM 0.32 32.576 0.478 7.98 2.08 14.14
11/23/2022 3:00:00 AM 0.29 32.522 0.478 7.99 1.94 14.15
11/23/2022 3:15:00 AM 0.26 32.468 0.478 7.99 2 14.16
11/23/2022 3:30:00 AM 0.23 32.414 0.478 7.99 2.04 14.17
11/23/2022 3:45:00 AM 0.19 32.342 0.478 7.98 2.14 14.19
11/23/2022 4:00:00 AM 0.16 32.288 0.478 7.98 2.09 14.2
11/23/2022 4:15:00 AM 0.13 32.234 0.478 7.98 1.91 14.22
11/23/2022 4:30:00 AM 0.1 32.18 0.478 7.98 1.97 14.24
11/23/2022 4:45:00 AM 0.07 32.126 0.478 7.98 2.01 14.25
11/23/2022 5:00:00 AM 0.04 32.072 0.478 7.98 2.08 14.26
11/23/2022 5:15:00 AM 0.02 32.036 0.478 7.97 1.96 14.27
11/23/2022 5:30:00 AM 0 32 0.479 7.98 2.09 14.28
11/23/2022 5:45:00 AM -0.02 31.964 0.479 7.97 2.07 14.29
11/23/2022 6:00:00 AM -0.03 31.946 0.479 7.98 2.44 14.3
11/23/2022 6:15:00 AM -0.05 31.91 0.479 7.98 2.4 14.32
11/23/2022 6:30:00 AM -0.06 31.892 0.48 7.98 2.64 14.33
11/23/2022 6:45:00 AM -0.07 31.874 0.48 7.97 2.68 14.33
11/23/2022 7:00:00 AM -0.07 31.874 0.48 7.98 2.3 14.34
11/23/2022 7:15:00 AM -0.08 31.856 0.48 7.98 2.01 14.36
11/23/2022 7:30:00 AM -0.07 31.874 0.481 7.98 2.06 14.37
11/23/2022 7:45:00 AM -0.07 31.874 0.481 7.98 1.97 14.4
11/23/2022 8:00:00 AM -0.06 31.892 0.481 7.98 1.85 14.43
11/23/2022 8:15:00 AM -0.05 31.91